<?xml version="1.0" encoding="utf-8"?>
<gpx xmlns:xsi="http://www.w3.org/2001/XMLSchema-instance" xmlns:xsd="http://www.w3.org/2001/XMLSchema" version="1.1" creator="Shapelink.com" xmlns="http://www.topografix.com/GPX/1/1" xmlns:gpxtpx="http://www.garmin.com/xmlschemas/TrackPointExtension/v1">
  <metadata>
    <name>Løping 3.87 km, 2014-07-04</name>
    <desc></desc>
    <author><name>Mikael Blom</name></author> 
    <time>2014-07-04T07:06:58Z</time>
  </metadata>
  <trk>
    <name>Løping 3.87 km, 2014-07-04</name>
    <trkseg>
      <trkpt lat="59.9550551" lon="17.7143096">
        <ele>50.126</ele>
        <time>2014-07-04T07:06:58Z</time>
      </trkpt>
      <trkpt lat="59.9550339" lon="17.7143173">
        <ele>50.6066</ele>
        <time>2014-07-04T07:06:59Z</time>
      </trkpt>
      <trkpt lat="59.9550148" lon="17.7143349">
        <ele>50.6066</ele>
        <time>2014-07-04T07:07:00Z</time>
      </trkpt>
      <trkpt lat="59.9549891" lon="17.7143474">
        <ele>51.5679</ele>
        <time>2014-07-04T07:07:01Z</time>
      </trkpt>
      <trkpt lat="59.9549667" lon="17.7143758">
        <ele>52.0486</ele>
        <time>2014-07-04T07:07:02Z</time>
      </trkpt>
      <trkpt lat="59.9549463" lon="17.7144029">
        <ele>52.5292</ele>
        <time>2014-07-04T07:07:03Z</time>
      </trkpt>
      <trkpt lat="59.9549263" lon="17.7144314">
        <ele>52.5292</ele>
        <time>2014-07-04T07:07:04Z</time>
      </trkpt>
      <trkpt lat="59.9549054" lon="17.7144618">
        <ele>52.5292</ele>
        <time>2014-07-04T07:07:05Z</time>
      </trkpt>
      <trkpt lat="59.9548937" lon="17.7144909">
        <ele>52.5292</ele>
        <time>2014-07-04T07:07:06Z</time>
      </trkpt>
      <trkpt lat="59.9548812" lon="17.7145324">
        <ele>52.0486</ele>
        <time>2014-07-04T07:07:07Z</time>
      </trkpt>
      <trkpt lat="59.9548605" lon="17.7145696">
        <ele>52.0486</ele>
        <time>2014-07-04T07:07:08Z</time>
      </trkpt>
      <trkpt lat="59.9548427" lon="17.7146017">
        <ele>51.5679</ele>
        <time>2014-07-04T07:07:09Z</time>
      </trkpt>
      <trkpt lat="59.9548202" lon="17.7146492">
        <ele>52.0486</ele>
        <time>2014-07-04T07:07:10Z</time>
      </trkpt>
      <trkpt lat="59.9547969" lon="17.7146896">
        <ele>52.5292</ele>
        <time>2014-07-04T07:07:11Z</time>
      </trkpt>
      <trkpt lat="59.9547703" lon="17.7147236">
        <ele>53.9712</ele>
        <time>2014-07-04T07:07:12Z</time>
      </trkpt>
      <trkpt lat="59.9547434" lon="17.7147447">
        <ele>54.9324</ele>
        <time>2014-07-04T07:07:13Z</time>
      </trkpt>
      <trkpt lat="59.9547139" lon="17.7147552">
        <ele>56.3745</ele>
        <time>2014-07-04T07:07:14Z</time>
      </trkpt>
      <trkpt lat="59.9546783" lon="17.7147635">
        <ele>57.8165</ele>
        <time>2014-07-04T07:07:15Z</time>
      </trkpt>
      <trkpt lat="59.9546356" lon="17.7147649">
        <ele>59.7391</ele>
        <time>2014-07-04T07:07:16Z</time>
      </trkpt>
      <trkpt lat="59.9546008" lon="17.7147649">
        <ele>61.181</ele>
        <time>2014-07-04T07:07:17Z</time>
      </trkpt>
      <trkpt lat="59.9545741" lon="17.7147621">
        <ele>62.1423</ele>
        <time>2014-07-04T07:07:18Z</time>
      </trkpt>
      <trkpt lat="59.9545379" lon="17.7147862">
        <ele>62.6229</ele>
        <time>2014-07-04T07:07:19Z</time>
      </trkpt>
      <trkpt lat="59.9545052" lon="17.7148073">
        <ele>62.6229</ele>
        <time>2014-07-04T07:07:20Z</time>
      </trkpt>
      <trkpt lat="59.954472" lon="17.7148092">
        <ele>63.5844</ele>
        <time>2014-07-04T07:07:21Z</time>
      </trkpt>
      <trkpt lat="59.9544398" lon="17.7148095">
        <ele>63.5844</ele>
        <time>2014-07-04T07:07:22Z</time>
      </trkpt>
      <trkpt lat="59.9544076" lon="17.7148041">
        <ele>64.5457</ele>
        <time>2014-07-04T07:07:23Z</time>
      </trkpt>
      <trkpt lat="59.9543832" lon="17.7148063">
        <ele>64.5457</ele>
        <time>2014-07-04T07:07:24Z</time>
      </trkpt>
      <trkpt lat="59.9543503" lon="17.7148264">
        <ele>64.5457</ele>
        <time>2014-07-04T07:07:25Z</time>
      </trkpt>
      <trkpt lat="59.9543063" lon="17.714872">
        <ele>65.0264</ele>
        <time>2014-07-04T07:07:26Z</time>
      </trkpt>
      <trkpt lat="59.9542684" lon="17.7149146">
        <ele>65.9877</ele>
        <time>2014-07-04T07:07:27Z</time>
      </trkpt>
      <trkpt lat="59.9542354" lon="17.7149581">
        <ele>66.4683</ele>
        <time>2014-07-04T07:07:28Z</time>
      </trkpt>
      <trkpt lat="59.9542059" lon="17.7149888">
        <ele>66.4683</ele>
        <time>2014-07-04T07:07:29Z</time>
      </trkpt>
      <trkpt lat="59.9541784" lon="17.714998">
        <ele>66.4683</ele>
        <time>2014-07-04T07:07:30Z</time>
      </trkpt>
      <trkpt lat="59.9541498" lon="17.7150188">
        <ele>66.949</ele>
        <time>2014-07-04T07:07:31Z</time>
      </trkpt>
      <trkpt lat="59.9541183" lon="17.7150309">
        <ele>67.4297</ele>
        <time>2014-07-04T07:07:32Z</time>
      </trkpt>
      <trkpt lat="59.9540893" lon="17.7150534">
        <ele>67.9103</ele>
        <time>2014-07-04T07:07:33Z</time>
      </trkpt>
      <trkpt lat="59.9540667" lon="17.7150617">
        <ele>67.4297</ele>
        <time>2014-07-04T07:07:34Z</time>
      </trkpt>
      <trkpt lat="59.9540439" lon="17.7150592">
        <ele>66.4683</ele>
        <time>2014-07-04T07:07:35Z</time>
      </trkpt>
      <trkpt lat="59.9540154" lon="17.7150776">
        <ele>67.4297</ele>
        <time>2014-07-04T07:07:36Z</time>
      </trkpt>
      <trkpt lat="59.9539816" lon="17.7150964">
        <ele>68.3909</ele>
        <time>2014-07-04T07:07:37Z</time>
      </trkpt>
      <trkpt lat="59.9539533" lon="17.7151033">
        <ele>68.3909</ele>
        <time>2014-07-04T07:07:38Z</time>
      </trkpt>
      <trkpt lat="59.9539251" lon="17.715104">
        <ele>69.3523</ele>
        <time>2014-07-04T07:07:39Z</time>
      </trkpt>
      <trkpt lat="59.9538918" lon="17.7151222">
        <ele>69.8329</ele>
        <time>2014-07-04T07:07:40Z</time>
      </trkpt>
      <trkpt lat="59.9538649" lon="17.7151542">
        <ele>69.8329</ele>
        <time>2014-07-04T07:07:41Z</time>
      </trkpt>
      <trkpt lat="59.9538411" lon="17.7151998">
        <ele>69.3523</ele>
        <time>2014-07-04T07:07:42Z</time>
      </trkpt>
      <trkpt lat="59.953827" lon="17.7151968">
        <ele>68.3909</ele>
        <time>2014-07-04T07:07:43Z</time>
      </trkpt>
      <trkpt lat="59.9538142" lon="17.7151959">
        <ele>66.949</ele>
        <time>2014-07-04T07:07:44Z</time>
      </trkpt>
      <trkpt lat="59.9538023" lon="17.7151979">
        <ele>65.5071</ele>
        <time>2014-07-04T07:07:45Z</time>
      </trkpt>
      <trkpt lat="59.9537964" lon="17.7151703">
        <ele>63.5844</ele>
        <time>2014-07-04T07:07:46Z</time>
      </trkpt>
      <trkpt lat="59.9537819" lon="17.7151646">
        <ele>62.6229</ele>
        <time>2014-07-04T07:07:47Z</time>
      </trkpt>
      <trkpt lat="59.9537705" lon="17.7151497">
        <ele>61.181</ele>
        <time>2014-07-04T07:07:48Z</time>
      </trkpt>
      <trkpt lat="59.9537541" lon="17.7151354">
        <ele>60.2197</ele>
        <time>2014-07-04T07:07:49Z</time>
      </trkpt>
      <trkpt lat="59.9537286" lon="17.7151301">
        <ele>59.2584</ele>
        <time>2014-07-04T07:07:50Z</time>
      </trkpt>
      <trkpt lat="59.9537006" lon="17.7151263">
        <ele>58.2971</ele>
        <time>2014-07-04T07:07:51Z</time>
      </trkpt>
      <trkpt lat="59.9536675" lon="17.7151359">
        <ele>57.8165</ele>
        <time>2014-07-04T07:07:52Z</time>
      </trkpt>
      <trkpt lat="59.9536407" lon="17.7151523">
        <ele>57.8165</ele>
        <time>2014-07-04T07:07:53Z</time>
      </trkpt>
      <trkpt lat="59.9536173" lon="17.7151596">
        <ele>57.8165</ele>
        <time>2014-07-04T07:07:54Z</time>
      </trkpt>
      <trkpt lat="59.9536018" lon="17.7151592">
        <ele>57.3358</ele>
        <time>2014-07-04T07:07:55Z</time>
      </trkpt>
      <trkpt lat="59.953582" lon="17.7151613">
        <ele>56.8551</ele>
        <time>2014-07-04T07:07:56Z</time>
      </trkpt>
      <trkpt lat="59.9535629" lon="17.7151737">
        <ele>56.8551</ele>
        <time>2014-07-04T07:07:57Z</time>
      </trkpt>
      <trkpt lat="59.9535447" lon="17.7151936">
        <ele>56.8551</ele>
        <time>2014-07-04T07:07:58Z</time>
      </trkpt>
      <trkpt lat="59.9535194" lon="17.715229">
        <ele>56.8551</ele>
        <time>2014-07-04T07:07:59Z</time>
      </trkpt>
      <trkpt lat="59.9534952" lon="17.7152575">
        <ele>56.8551</ele>
        <time>2014-07-04T07:08:00Z</time>
      </trkpt>
      <trkpt lat="59.9534727" lon="17.7152792">
        <ele>56.8551</ele>
        <time>2014-07-04T07:08:01Z</time>
      </trkpt>
      <trkpt lat="59.9534572" lon="17.7153041">
        <ele>56.8551</ele>
        <time>2014-07-04T07:08:02Z</time>
      </trkpt>
      <trkpt lat="59.9534397" lon="17.7153253">
        <ele>56.8551</ele>
        <time>2014-07-04T07:08:03Z</time>
      </trkpt>
      <trkpt lat="59.9534164" lon="17.7153687">
        <ele>57.3358</ele>
        <time>2014-07-04T07:08:04Z</time>
      </trkpt>
      <trkpt lat="59.9533956" lon="17.7154114">
        <ele>57.3358</ele>
        <time>2014-07-04T07:08:05Z</time>
      </trkpt>
      <trkpt lat="59.9533794" lon="17.7154414">
        <ele>57.3358</ele>
        <time>2014-07-04T07:08:06Z</time>
      </trkpt>
      <trkpt lat="59.9533654" lon="17.7154605">
        <ele>56.8551</ele>
        <time>2014-07-04T07:08:07Z</time>
      </trkpt>
      <trkpt lat="59.9533469" lon="17.7154951">
        <ele>57.3358</ele>
        <time>2014-07-04T07:08:08Z</time>
      </trkpt>
      <trkpt lat="59.9533235" lon="17.7155127">
        <ele>57.8165</ele>
        <time>2014-07-04T07:08:09Z</time>
      </trkpt>
      <trkpt lat="59.9533034" lon="17.7155519">
        <ele>58.2971</ele>
        <time>2014-07-04T07:08:10Z</time>
      </trkpt>
      <trkpt lat="59.953288" lon="17.7155834">
        <ele>58.2971</ele>
        <time>2014-07-04T07:08:11Z</time>
      </trkpt>
      <trkpt lat="59.9532713" lon="17.7156259">
        <ele>58.7777</ele>
        <time>2014-07-04T07:08:12Z</time>
      </trkpt>
      <trkpt lat="59.9532581" lon="17.7156512">
        <ele>58.7777</ele>
        <time>2014-07-04T07:08:13Z</time>
      </trkpt>
      <trkpt lat="59.9532364" lon="17.7156977">
        <ele>59.7391</ele>
        <time>2014-07-04T07:08:14Z</time>
      </trkpt>
      <trkpt lat="59.9532189" lon="17.7157356">
        <ele>59.7391</ele>
        <time>2014-07-04T07:08:15Z</time>
      </trkpt>
      <trkpt lat="59.953193" lon="17.7157792">
        <ele>60.2197</ele>
        <time>2014-07-04T07:08:16Z</time>
      </trkpt>
      <trkpt lat="59.9531683" lon="17.7158277">
        <ele>60.7003</ele>
        <time>2014-07-04T07:08:17Z</time>
      </trkpt>
      <trkpt lat="59.9531504" lon="17.7158683">
        <ele>60.2197</ele>
        <time>2014-07-04T07:08:18Z</time>
      </trkpt>
      <trkpt lat="59.9531282" lon="17.7159024">
        <ele>60.2197</ele>
        <time>2014-07-04T07:08:19Z</time>
      </trkpt>
      <trkpt lat="59.9531131" lon="17.7158967">
        <ele>59.2584</ele>
        <time>2014-07-04T07:08:20Z</time>
      </trkpt>
      <trkpt lat="59.9530998" lon="17.7158894">
        <ele>58.2971</ele>
        <time>2014-07-04T07:08:21Z</time>
      </trkpt>
      <trkpt lat="59.9530847" lon="17.7159036">
        <ele>58.2971</ele>
        <time>2014-07-04T07:08:22Z</time>
      </trkpt>
      <trkpt lat="59.9530661" lon="17.7159333">
        <ele>57.8165</ele>
        <time>2014-07-04T07:08:23Z</time>
      </trkpt>
      <trkpt lat="59.9530598" lon="17.7159584">
        <ele>56.8551</ele>
        <time>2014-07-04T07:08:24Z</time>
      </trkpt>
      <trkpt lat="59.9530541" lon="17.7159746">
        <ele>56.3745</ele>
        <time>2014-07-04T07:08:25Z</time>
      </trkpt>
      <trkpt lat="59.9530426" lon="17.7160095">
        <ele>55.8938</ele>
        <time>2014-07-04T07:08:26Z</time>
      </trkpt>
      <trkpt lat="59.9530374" lon="17.7160205">
        <ele>55.4131</ele>
        <time>2014-07-04T07:08:27Z</time>
      </trkpt>
      <trkpt lat="59.9530294" lon="17.7160552">
        <ele>55.4131</ele>
        <time>2014-07-04T07:08:28Z</time>
      </trkpt>
      <trkpt lat="59.9530268" lon="17.716083">
        <ele>55.4131</ele>
        <time>2014-07-04T07:08:29Z</time>
      </trkpt>
      <trkpt lat="59.9530216" lon="17.7161209">
        <ele>55.4131</ele>
        <time>2014-07-04T07:08:30Z</time>
      </trkpt>
      <trkpt lat="59.9530147" lon="17.7161558">
        <ele>55.4131</ele>
        <time>2014-07-04T07:08:31Z</time>
      </trkpt>
      <trkpt lat="59.9529972" lon="17.7162117">
        <ele>55.4131</ele>
        <time>2014-07-04T07:08:32Z</time>
      </trkpt>
      <trkpt lat="59.9529761" lon="17.7162729">
        <ele>55.8938</ele>
        <time>2014-07-04T07:08:33Z</time>
      </trkpt>
      <trkpt lat="59.9529582" lon="17.7163265">
        <ele>56.8551</ele>
        <time>2014-07-04T07:08:34Z</time>
      </trkpt>
      <trkpt lat="59.9529426" lon="17.7163951">
        <ele>57.3358</ele>
        <time>2014-07-04T07:08:35Z</time>
      </trkpt>
      <trkpt lat="59.9529391" lon="17.7164311">
        <ele>57.3358</ele>
        <time>2014-07-04T07:08:36Z</time>
      </trkpt>
      <trkpt lat="59.9529414" lon="17.7164643">
        <ele>57.3358</ele>
        <time>2014-07-04T07:08:37Z</time>
      </trkpt>
      <trkpt lat="59.9529386" lon="17.7165086">
        <ele>56.8551</ele>
        <time>2014-07-04T07:08:38Z</time>
      </trkpt>
      <trkpt lat="59.9529346" lon="17.7165511">
        <ele>56.3745</ele>
        <time>2014-07-04T07:08:39Z</time>
      </trkpt>
      <trkpt lat="59.952934" lon="17.7166047">
        <ele>56.8551</ele>
        <time>2014-07-04T07:08:40Z</time>
      </trkpt>
      <trkpt lat="59.9529351" lon="17.7166515">
        <ele>57.3358</ele>
        <time>2014-07-04T07:08:41Z</time>
      </trkpt>
      <trkpt lat="59.9529382" lon="17.716694">
        <ele>56.8551</ele>
        <time>2014-07-04T07:08:42Z</time>
      </trkpt>
      <trkpt lat="59.9529404" lon="17.7167425">
        <ele>56.3745</ele>
        <time>2014-07-04T07:08:43Z</time>
      </trkpt>
      <trkpt lat="59.9529361" lon="17.7167945">
        <ele>56.8551</ele>
        <time>2014-07-04T07:08:44Z</time>
      </trkpt>
      <trkpt lat="59.9529315" lon="17.7168424">
        <ele>56.8551</ele>
        <time>2014-07-04T07:08:45Z</time>
      </trkpt>
      <trkpt lat="59.9529255" lon="17.7168892">
        <ele>56.8551</ele>
        <time>2014-07-04T07:08:46Z</time>
      </trkpt>
      <trkpt lat="59.9529224" lon="17.7169368">
        <ele>56.8551</ele>
        <time>2014-07-04T07:08:47Z</time>
      </trkpt>
      <trkpt lat="59.9529181" lon="17.7169784">
        <ele>56.3745</ele>
        <time>2014-07-04T07:08:48Z</time>
      </trkpt>
      <trkpt lat="59.9529126" lon="17.7170219">
        <ele>56.3745</ele>
        <time>2014-07-04T07:08:49Z</time>
      </trkpt>
      <trkpt lat="59.9529138" lon="17.7170662">
        <ele>56.3745</ele>
        <time>2014-07-04T07:08:50Z</time>
      </trkpt>
      <trkpt lat="59.95291" lon="17.7171106">
        <ele>56.3745</ele>
        <time>2014-07-04T07:08:51Z</time>
      </trkpt>
      <trkpt lat="59.952903" lon="17.7171513">
        <ele>56.8551</ele>
        <time>2014-07-04T07:08:52Z</time>
      </trkpt>
      <trkpt lat="59.9528921" lon="17.7171875">
        <ele>56.3745</ele>
        <time>2014-07-04T07:08:53Z</time>
      </trkpt>
      <trkpt lat="59.9528817" lon="17.7172248">
        <ele>56.3745</ele>
        <time>2014-07-04T07:08:54Z</time>
      </trkpt>
      <trkpt lat="59.9528735" lon="17.7172704">
        <ele>55.4131</ele>
        <time>2014-07-04T07:08:55Z</time>
      </trkpt>
      <trkpt lat="59.952864" lon="17.7173192">
        <ele>55.8938</ele>
        <time>2014-07-04T07:08:56Z</time>
      </trkpt>
      <trkpt lat="59.9528471" lon="17.7173713">
        <ele>55.4131</ele>
        <time>2014-07-04T07:08:57Z</time>
      </trkpt>
      <trkpt lat="59.9528272" lon="17.7174306">
        <ele>55.8938</ele>
        <time>2014-07-04T07:08:58Z</time>
      </trkpt>
      <trkpt lat="59.9528074" lon="17.7174885">
        <ele>55.8938</ele>
        <time>2014-07-04T07:08:59Z</time>
      </trkpt>
      <trkpt lat="59.9527905" lon="17.7175347">
        <ele>56.3745</ele>
        <time>2014-07-04T07:09:00Z</time>
      </trkpt>
      <trkpt lat="59.9527719" lon="17.7175847">
        <ele>57.3358</ele>
        <time>2014-07-04T07:09:01Z</time>
      </trkpt>
      <trkpt lat="59.9527546" lon="17.7176471">
        <ele>57.8165</ele>
        <time>2014-07-04T07:09:02Z</time>
      </trkpt>
      <trkpt lat="59.9527376" lon="17.7176989">
        <ele>58.2971</ele>
        <time>2014-07-04T07:09:03Z</time>
      </trkpt>
      <trkpt lat="59.9527204" lon="17.7177481">
        <ele>59.2584</ele>
        <time>2014-07-04T07:09:04Z</time>
      </trkpt>
      <trkpt lat="59.9527064" lon="17.7177883">
        <ele>59.2584</ele>
        <time>2014-07-04T07:09:05Z</time>
      </trkpt>
      <trkpt lat="59.9526843" lon="17.7178686">
        <ele>60.2197</ele>
        <time>2014-07-04T07:09:06Z</time>
      </trkpt>
      <trkpt lat="59.9526699" lon="17.7179207">
        <ele>60.2197</ele>
        <time>2014-07-04T07:09:07Z</time>
      </trkpt>
      <trkpt lat="59.9526497" lon="17.7179844">
        <ele>61.181</ele>
        <time>2014-07-04T07:09:08Z</time>
      </trkpt>
      <trkpt lat="59.9526347" lon="17.7180325">
        <ele>61.6617</ele>
        <time>2014-07-04T07:09:09Z</time>
      </trkpt>
      <trkpt lat="59.9526197" lon="17.7180754">
        <ele>62.1423</ele>
        <time>2014-07-04T07:09:10Z</time>
      </trkpt>
      <trkpt lat="59.9526023" lon="17.7181386">
        <ele>62.6229</ele>
        <time>2014-07-04T07:09:11Z</time>
      </trkpt>
      <trkpt lat="59.9525839" lon="17.7181986">
        <ele>63.1036</ele>
        <time>2014-07-04T07:09:12Z</time>
      </trkpt>
      <trkpt lat="59.9525674" lon="17.7182367">
        <ele>63.5844</ele>
        <time>2014-07-04T07:09:13Z</time>
      </trkpt>
      <trkpt lat="59.9525469" lon="17.7182633">
        <ele>64.0651</ele>
        <time>2014-07-04T07:09:14Z</time>
      </trkpt>
      <trkpt lat="59.952536" lon="17.718276">
        <ele>64.0651</ele>
        <time>2014-07-04T07:09:15Z</time>
      </trkpt>
      <trkpt lat="59.9525299" lon="17.7183082">
        <ele>63.5844</ele>
        <time>2014-07-04T07:09:16Z</time>
      </trkpt>
      <trkpt lat="59.9525248" lon="17.718335">
        <ele>63.5844</ele>
        <time>2014-07-04T07:09:17Z</time>
      </trkpt>
      <trkpt lat="59.9525252" lon="17.718352">
        <ele>62.6229</ele>
        <time>2014-07-04T07:09:18Z</time>
      </trkpt>
      <trkpt lat="59.9525182" lon="17.718377">
        <ele>62.6229</ele>
        <time>2014-07-04T07:09:19Z</time>
      </trkpt>
      <trkpt lat="59.9525106" lon="17.7184127">
        <ele>62.1423</ele>
        <time>2014-07-04T07:09:20Z</time>
      </trkpt>
      <trkpt lat="59.952506" lon="17.7184536">
        <ele>62.1423</ele>
        <time>2014-07-04T07:09:21Z</time>
      </trkpt>
      <trkpt lat="59.9525058" lon="17.7184954">
        <ele>62.1423</ele>
        <time>2014-07-04T07:09:22Z</time>
      </trkpt>
      <trkpt lat="59.9525" lon="17.7185333">
        <ele>61.181</ele>
        <time>2014-07-04T07:09:23Z</time>
      </trkpt>
      <trkpt lat="59.9524921" lon="17.7185587">
        <ele>60.7003</ele>
        <time>2014-07-04T07:09:24Z</time>
      </trkpt>
      <trkpt lat="59.9524916" lon="17.7185836">
        <ele>59.7391</ele>
        <time>2014-07-04T07:09:25Z</time>
      </trkpt>
      <trkpt lat="59.9524912" lon="17.7186049">
        <ele>59.2584</ele>
        <time>2014-07-04T07:09:26Z</time>
      </trkpt>
      <trkpt lat="59.9524858" lon="17.7186449">
        <ele>59.2584</ele>
        <time>2014-07-04T07:09:27Z</time>
      </trkpt>
      <trkpt lat="59.9524826" lon="17.7186863">
        <ele>59.2584</ele>
        <time>2014-07-04T07:09:28Z</time>
      </trkpt>
      <trkpt lat="59.9524693" lon="17.7187374">
        <ele>59.7391</ele>
        <time>2014-07-04T07:09:29Z</time>
      </trkpt>
      <trkpt lat="59.9524529" lon="17.7188001">
        <ele>60.2197</ele>
        <time>2014-07-04T07:09:30Z</time>
      </trkpt>
      <trkpt lat="59.9524425" lon="17.7188436">
        <ele>60.7003</ele>
        <time>2014-07-04T07:09:31Z</time>
      </trkpt>
      <trkpt lat="59.952436" lon="17.718877">
        <ele>60.2197</ele>
        <time>2014-07-04T07:09:32Z</time>
      </trkpt>
      <trkpt lat="59.9524238" lon="17.7189183">
        <ele>60.7003</ele>
        <time>2014-07-04T07:09:33Z</time>
      </trkpt>
      <trkpt lat="59.9524109" lon="17.7189846">
        <ele>61.181</ele>
        <time>2014-07-04T07:09:34Z</time>
      </trkpt>
      <trkpt lat="59.9523947" lon="17.7190512">
        <ele>62.1423</ele>
        <time>2014-07-04T07:09:35Z</time>
      </trkpt>
      <trkpt lat="59.9523799" lon="17.7191136">
        <ele>62.6229</ele>
        <time>2014-07-04T07:09:36Z</time>
      </trkpt>
      <trkpt lat="59.9523633" lon="17.7191942">
        <ele>63.5844</ele>
        <time>2014-07-04T07:09:37Z</time>
      </trkpt>
      <trkpt lat="59.9523503" lon="17.7192721">
        <ele>64.0651</ele>
        <time>2014-07-04T07:09:38Z</time>
      </trkpt>
      <trkpt lat="59.9523565" lon="17.7192814">
        <ele>63.1036</ele>
        <time>2014-07-04T07:09:39Z</time>
      </trkpt>
      <trkpt lat="59.9523526" lon="17.7193099">
        <ele>63.1036</ele>
        <time>2014-07-04T07:09:40Z</time>
      </trkpt>
      <trkpt lat="59.9523519" lon="17.7193225">
        <ele>62.1423</ele>
        <time>2014-07-04T07:09:41Z</time>
      </trkpt>
      <trkpt lat="59.9523529" lon="17.7193541">
        <ele>61.6617</ele>
        <time>2014-07-04T07:09:42Z</time>
      </trkpt>
      <trkpt lat="59.9523548" lon="17.719397">
        <ele>61.181</ele>
        <time>2014-07-04T07:09:43Z</time>
      </trkpt>
      <trkpt lat="59.9523545" lon="17.7194385">
        <ele>60.7003</ele>
        <time>2014-07-04T07:09:44Z</time>
      </trkpt>
      <trkpt lat="59.952355" lon="17.7194895">
        <ele>60.7003</ele>
        <time>2014-07-04T07:09:45Z</time>
      </trkpt>
      <trkpt lat="59.9523607" lon="17.7195358">
        <ele>61.6617</ele>
        <time>2014-07-04T07:09:46Z</time>
      </trkpt>
      <trkpt lat="59.9523649" lon="17.7195797">
        <ele>62.1423</ele>
        <time>2014-07-04T07:09:47Z</time>
      </trkpt>
      <trkpt lat="59.9523699" lon="17.7196104">
        <ele>62.6229</ele>
        <time>2014-07-04T07:09:48Z</time>
      </trkpt>
      <trkpt lat="59.9523772" lon="17.7196559">
        <ele>63.1036</ele>
        <time>2014-07-04T07:09:49Z</time>
      </trkpt>
      <trkpt lat="59.9523907" lon="17.7196897">
        <ele>63.1036</ele>
        <time>2014-07-04T07:09:50Z</time>
      </trkpt>
      <trkpt lat="59.9524006" lon="17.7197151">
        <ele>61.6617</ele>
        <time>2014-07-04T07:09:51Z</time>
      </trkpt>
      <trkpt lat="59.9524143" lon="17.7197643">
        <ele>61.6617</ele>
        <time>2014-07-04T07:09:52Z</time>
      </trkpt>
      <trkpt lat="59.9524336" lon="17.7197985">
        <ele>62.1423</ele>
        <time>2014-07-04T07:09:53Z</time>
      </trkpt>
      <trkpt lat="59.9524562" lon="17.7198259">
        <ele>62.1423</ele>
        <time>2014-07-04T07:09:54Z</time>
      </trkpt>
      <trkpt lat="59.9524771" lon="17.7198621">
        <ele>62.1423</ele>
        <time>2014-07-04T07:09:55Z</time>
      </trkpt>
      <trkpt lat="59.9524912" lon="17.7198978">
        <ele>62.1423</ele>
        <time>2014-07-04T07:09:56Z</time>
      </trkpt>
      <trkpt lat="59.9525036" lon="17.7199341">
        <ele>61.6617</ele>
        <time>2014-07-04T07:09:57Z</time>
      </trkpt>
      <trkpt lat="59.9525134" lon="17.719987">
        <ele>62.6229</ele>
        <time>2014-07-04T07:09:58Z</time>
      </trkpt>
      <trkpt lat="59.9525251" lon="17.7200247">
        <ele>62.6229</ele>
        <time>2014-07-04T07:09:59Z</time>
      </trkpt>
      <trkpt lat="59.9525373" lon="17.7200605">
        <ele>62.1423</ele>
        <time>2014-07-04T07:10:00Z</time>
      </trkpt>
      <trkpt lat="59.9525404" lon="17.7201098">
        <ele>62.1423</ele>
        <time>2014-07-04T07:10:01Z</time>
      </trkpt>
      <trkpt lat="59.9525388" lon="17.7201626">
        <ele>61.6617</ele>
        <time>2014-07-04T07:10:02Z</time>
      </trkpt>
      <trkpt lat="59.9525377" lon="17.7202076">
        <ele>60.7003</ele>
        <time>2014-07-04T07:10:03Z</time>
      </trkpt>
      <trkpt lat="59.9525326" lon="17.7202592">
        <ele>60.7003</ele>
        <time>2014-07-04T07:10:04Z</time>
      </trkpt>
      <trkpt lat="59.952528" lon="17.7203221">
        <ele>60.7003</ele>
        <time>2014-07-04T07:10:05Z</time>
      </trkpt>
      <trkpt lat="59.9525256" lon="17.7203687">
        <ele>60.2197</ele>
        <time>2014-07-04T07:10:06Z</time>
      </trkpt>
      <trkpt lat="59.9525222" lon="17.7204179">
        <ele>60.2197</ele>
        <time>2014-07-04T07:10:07Z</time>
      </trkpt>
      <trkpt lat="59.9525227" lon="17.7204624">
        <ele>60.2197</ele>
        <time>2014-07-04T07:10:08Z</time>
      </trkpt>
      <trkpt lat="59.9525251" lon="17.7205076">
        <ele>60.2197</ele>
        <time>2014-07-04T07:10:09Z</time>
      </trkpt>
      <trkpt lat="59.9525248" lon="17.7205634">
        <ele>60.2197</ele>
        <time>2014-07-04T07:10:10Z</time>
      </trkpt>
      <trkpt lat="59.9525274" lon="17.7206164">
        <ele>59.2584</ele>
        <time>2014-07-04T07:10:11Z</time>
      </trkpt>
      <trkpt lat="59.9525293" lon="17.7206738">
        <ele>58.7777</ele>
        <time>2014-07-04T07:10:12Z</time>
      </trkpt>
      <trkpt lat="59.9525295" lon="17.720733">
        <ele>58.7777</ele>
        <time>2014-07-04T07:10:13Z</time>
      </trkpt>
      <trkpt lat="59.9525294" lon="17.7207847">
        <ele>59.2584</ele>
        <time>2014-07-04T07:10:14Z</time>
      </trkpt>
      <trkpt lat="59.9525314" lon="17.7208363">
        <ele>59.2584</ele>
        <time>2014-07-04T07:10:15Z</time>
      </trkpt>
      <trkpt lat="59.9525378" lon="17.7208905">
        <ele>58.7777</ele>
        <time>2014-07-04T07:10:16Z</time>
      </trkpt>
      <trkpt lat="59.9525398" lon="17.7209513">
        <ele>58.7777</ele>
        <time>2014-07-04T07:10:17Z</time>
      </trkpt>
      <trkpt lat="59.9525372" lon="17.7210116">
        <ele>59.2584</ele>
        <time>2014-07-04T07:10:18Z</time>
      </trkpt>
      <trkpt lat="59.9525316" lon="17.7210623">
        <ele>59.2584</ele>
        <time>2014-07-04T07:10:19Z</time>
      </trkpt>
      <trkpt lat="59.9525294" lon="17.7211029">
        <ele>59.2584</ele>
        <time>2014-07-04T07:10:20Z</time>
      </trkpt>
      <trkpt lat="59.9525127" lon="17.7211426">
        <ele>58.7777</ele>
        <time>2014-07-04T07:10:21Z</time>
      </trkpt>
      <trkpt lat="59.952515" lon="17.7211804">
        <ele>58.7777</ele>
        <time>2014-07-04T07:10:22Z</time>
      </trkpt>
      <trkpt lat="59.9525114" lon="17.72124">
        <ele>58.7777</ele>
        <time>2014-07-04T07:10:23Z</time>
      </trkpt>
      <trkpt lat="59.9525023" lon="17.7213163">
        <ele>59.7391</ele>
        <time>2014-07-04T07:10:24Z</time>
      </trkpt>
      <trkpt lat="59.952497" lon="17.721387">
        <ele>59.7391</ele>
        <time>2014-07-04T07:10:25Z</time>
      </trkpt>
      <trkpt lat="59.9524932" lon="17.7214498">
        <ele>59.7391</ele>
        <time>2014-07-04T07:10:26Z</time>
      </trkpt>
      <trkpt lat="59.9524994" lon="17.7215012">
        <ele>60.2197</ele>
        <time>2014-07-04T07:10:27Z</time>
      </trkpt>
      <trkpt lat="59.9525021" lon="17.7215441">
        <ele>59.7391</ele>
        <time>2014-07-04T07:10:28Z</time>
      </trkpt>
      <trkpt lat="59.9525009" lon="17.7215923">
        <ele>59.2584</ele>
        <time>2014-07-04T07:10:29Z</time>
      </trkpt>
      <trkpt lat="59.9525003" lon="17.7216461">
        <ele>59.7391</ele>
        <time>2014-07-04T07:10:30Z</time>
      </trkpt>
      <trkpt lat="59.9525024" lon="17.7216829">
        <ele>59.7391</ele>
        <time>2014-07-04T07:10:31Z</time>
      </trkpt>
      <trkpt lat="59.9525055" lon="17.7217122">
        <ele>60.2197</ele>
        <time>2014-07-04T07:10:32Z</time>
      </trkpt>
      <trkpt lat="59.9525215" lon="17.7217371">
        <ele>61.181</ele>
        <time>2014-07-04T07:10:33Z</time>
      </trkpt>
      <trkpt lat="59.9525248" lon="17.7217697">
        <ele>62.1423</ele>
        <time>2014-07-04T07:10:34Z</time>
      </trkpt>
      <trkpt lat="59.9525316" lon="17.7218181">
        <ele>63.1036</ele>
        <time>2014-07-04T07:10:35Z</time>
      </trkpt>
      <trkpt lat="59.9525371" lon="17.7218672">
        <ele>64.0651</ele>
        <time>2014-07-04T07:10:36Z</time>
      </trkpt>
      <trkpt lat="59.9525336" lon="17.7219155">
        <ele>65.0264</ele>
        <time>2014-07-04T07:10:37Z</time>
      </trkpt>
      <trkpt lat="59.9525352" lon="17.7219729">
        <ele>65.5071</ele>
        <time>2014-07-04T07:10:38Z</time>
      </trkpt>
      <trkpt lat="59.9525413" lon="17.7220295">
        <ele>65.5071</ele>
        <time>2014-07-04T07:10:39Z</time>
      </trkpt>
      <trkpt lat="59.9525408" lon="17.7220726">
        <ele>65.0264</ele>
        <time>2014-07-04T07:10:40Z</time>
      </trkpt>
      <trkpt lat="59.9525414" lon="17.7221334">
        <ele>65.0264</ele>
        <time>2014-07-04T07:10:41Z</time>
      </trkpt>
      <trkpt lat="59.9525407" lon="17.7221833">
        <ele>64.5457</ele>
        <time>2014-07-04T07:10:42Z</time>
      </trkpt>
      <trkpt lat="59.952534" lon="17.7222299">
        <ele>64.5457</ele>
        <time>2014-07-04T07:10:43Z</time>
      </trkpt>
      <trkpt lat="59.9525238" lon="17.7222717">
        <ele>63.5844</ele>
        <time>2014-07-04T07:10:44Z</time>
      </trkpt>
      <trkpt lat="59.9525168" lon="17.7223264">
        <ele>62.6229</ele>
        <time>2014-07-04T07:10:45Z</time>
      </trkpt>
      <trkpt lat="59.9525109" lon="17.722374">
        <ele>61.6617</ele>
        <time>2014-07-04T07:10:46Z</time>
      </trkpt>
      <trkpt lat="59.952504" lon="17.7224314">
        <ele>61.181</ele>
        <time>2014-07-04T07:10:47Z</time>
      </trkpt>
      <trkpt lat="59.9524979" lon="17.7224859">
        <ele>61.181</ele>
        <time>2014-07-04T07:10:48Z</time>
      </trkpt>
      <trkpt lat="59.9524901" lon="17.7225468">
        <ele>60.7003</ele>
        <time>2014-07-04T07:10:49Z</time>
      </trkpt>
      <trkpt lat="59.9524803" lon="17.7225965">
        <ele>59.2584</ele>
        <time>2014-07-04T07:10:50Z</time>
      </trkpt>
      <trkpt lat="59.9524782" lon="17.7226512">
        <ele>58.7777</ele>
        <time>2014-07-04T07:10:51Z</time>
      </trkpt>
      <trkpt lat="59.9524777" lon="17.7227042">
        <ele>58.2971</ele>
        <time>2014-07-04T07:10:52Z</time>
      </trkpt>
      <trkpt lat="59.9524819" lon="17.7227536">
        <ele>57.3358</ele>
        <time>2014-07-04T07:10:53Z</time>
      </trkpt>
      <trkpt lat="59.9524871" lon="17.7228065">
        <ele>56.8551</ele>
        <time>2014-07-04T07:10:54Z</time>
      </trkpt>
      <trkpt lat="59.9524911" lon="17.7228634">
        <ele>56.8551</ele>
        <time>2014-07-04T07:10:55Z</time>
      </trkpt>
      <trkpt lat="59.9524994" lon="17.7229121">
        <ele>56.8551</ele>
        <time>2014-07-04T07:10:56Z</time>
      </trkpt>
      <trkpt lat="59.9525057" lon="17.7229656">
        <ele>56.3745</ele>
        <time>2014-07-04T07:10:57Z</time>
      </trkpt>
      <trkpt lat="59.9525083" lon="17.7230256">
        <ele>56.3745</ele>
        <time>2014-07-04T07:10:58Z</time>
      </trkpt>
      <trkpt lat="59.952515" lon="17.7230773">
        <ele>55.8938</ele>
        <time>2014-07-04T07:10:59Z</time>
      </trkpt>
      <trkpt lat="59.9525246" lon="17.7231259">
        <ele>55.8938</ele>
        <time>2014-07-04T07:11:00Z</time>
      </trkpt>
      <trkpt lat="59.9525322" lon="17.7231721">
        <ele>55.4131</ele>
        <time>2014-07-04T07:11:01Z</time>
      </trkpt>
      <trkpt lat="59.9525399" lon="17.723222">
        <ele>55.4131</ele>
        <time>2014-07-04T07:11:02Z</time>
      </trkpt>
      <trkpt lat="59.9525404" lon="17.7232813">
        <ele>54.9324</ele>
        <time>2014-07-04T07:11:03Z</time>
      </trkpt>
      <trkpt lat="59.9525441" lon="17.7233364">
        <ele>54.9324</ele>
        <time>2014-07-04T07:11:04Z</time>
      </trkpt>
      <trkpt lat="59.9525533" lon="17.7233872">
        <ele>54.9324</ele>
        <time>2014-07-04T07:11:05Z</time>
      </trkpt>
      <trkpt lat="59.9525641" lon="17.7234265">
        <ele>54.4518</ele>
        <time>2014-07-04T07:11:06Z</time>
      </trkpt>
      <trkpt lat="59.9525816" lon="17.7234748">
        <ele>55.4131</ele>
        <time>2014-07-04T07:11:07Z</time>
      </trkpt>
      <trkpt lat="59.9525973" lon="17.7235063">
        <ele>55.4131</ele>
        <time>2014-07-04T07:11:08Z</time>
      </trkpt>
      <trkpt lat="59.9526161" lon="17.7235327">
        <ele>55.4131</ele>
        <time>2014-07-04T07:11:09Z</time>
      </trkpt>
      <trkpt lat="59.9526367" lon="17.7235693">
        <ele>55.4131</ele>
        <time>2014-07-04T07:11:10Z</time>
      </trkpt>
      <trkpt lat="59.9526524" lon="17.723614">
        <ele>54.9324</ele>
        <time>2014-07-04T07:11:11Z</time>
      </trkpt>
      <trkpt lat="59.9526709" lon="17.7236559">
        <ele>54.9324</ele>
        <time>2014-07-04T07:11:12Z</time>
      </trkpt>
      <trkpt lat="59.9526982" lon="17.7236859">
        <ele>55.4131</ele>
        <time>2014-07-04T07:11:13Z</time>
      </trkpt>
      <trkpt lat="59.9527134" lon="17.7237297">
        <ele>55.4131</ele>
        <time>2014-07-04T07:11:14Z</time>
      </trkpt>
      <trkpt lat="59.9527301" lon="17.7237648">
        <ele>55.4131</ele>
        <time>2014-07-04T07:11:15Z</time>
      </trkpt>
      <trkpt lat="59.9527386" lon="17.7238099">
        <ele>54.9324</ele>
        <time>2014-07-04T07:11:16Z</time>
      </trkpt>
      <trkpt lat="59.9527293" lon="17.7238854">
        <ele>54.4518</ele>
        <time>2014-07-04T07:11:17Z</time>
      </trkpt>
      <trkpt lat="59.9527295" lon="17.7239376">
        <ele>53.9712</ele>
        <time>2014-07-04T07:11:18Z</time>
      </trkpt>
      <trkpt lat="59.9527168" lon="17.7239938">
        <ele>53.0098</ele>
        <time>2014-07-04T07:11:19Z</time>
      </trkpt>
      <trkpt lat="59.9527082" lon="17.7240414">
        <ele>52.5292</ele>
        <time>2014-07-04T07:11:20Z</time>
      </trkpt>
      <trkpt lat="59.9527056" lon="17.7240855">
        <ele>52.0486</ele>
        <time>2014-07-04T07:11:21Z</time>
      </trkpt>
      <trkpt lat="59.9526973" lon="17.7241322">
        <ele>52.0486</ele>
        <time>2014-07-04T07:11:22Z</time>
      </trkpt>
      <trkpt lat="59.9526797" lon="17.7241772">
        <ele>52.0486</ele>
        <time>2014-07-04T07:11:23Z</time>
      </trkpt>
      <trkpt lat="59.9526636" lon="17.7242125">
        <ele>51.5679</ele>
        <time>2014-07-04T07:11:24Z</time>
      </trkpt>
      <trkpt lat="59.9526487" lon="17.7242449">
        <ele>51.0872</ele>
        <time>2014-07-04T07:11:25Z</time>
      </trkpt>
      <trkpt lat="59.9526347" lon="17.7242839">
        <ele>50.6066</ele>
        <time>2014-07-04T07:11:26Z</time>
      </trkpt>
      <trkpt lat="59.9526195" lon="17.7243238">
        <ele>50.6066</ele>
        <time>2014-07-04T07:11:27Z</time>
      </trkpt>
      <trkpt lat="59.9526041" lon="17.7243558">
        <ele>50.6066</ele>
        <time>2014-07-04T07:11:28Z</time>
      </trkpt>
      <trkpt lat="59.952588" lon="17.7243933">
        <ele>50.126</ele>
        <time>2014-07-04T07:11:29Z</time>
      </trkpt>
      <trkpt lat="59.952572" lon="17.7244273">
        <ele>50.126</ele>
        <time>2014-07-04T07:11:30Z</time>
      </trkpt>
      <trkpt lat="59.9525579" lon="17.7244636">
        <ele>49.6453</ele>
        <time>2014-07-04T07:11:31Z</time>
      </trkpt>
      <trkpt lat="59.9525393" lon="17.7245087">
        <ele>49.6453</ele>
        <time>2014-07-04T07:11:32Z</time>
      </trkpt>
      <trkpt lat="59.9525191" lon="17.7245496">
        <ele>49.1646</ele>
        <time>2014-07-04T07:11:33Z</time>
      </trkpt>
      <trkpt lat="59.9524928" lon="17.7245993">
        <ele>49.6453</ele>
        <time>2014-07-04T07:11:34Z</time>
      </trkpt>
      <trkpt lat="59.9524671" lon="17.7246405">
        <ele>49.6453</ele>
        <time>2014-07-04T07:11:35Z</time>
      </trkpt>
      <trkpt lat="59.9524409" lon="17.7246875">
        <ele>49.6453</ele>
        <time>2014-07-04T07:11:36Z</time>
      </trkpt>
      <trkpt lat="59.9524189" lon="17.7247345">
        <ele>49.6453</ele>
        <time>2014-07-04T07:11:37Z</time>
      </trkpt>
      <trkpt lat="59.9523969" lon="17.7247853">
        <ele>50.126</ele>
        <time>2014-07-04T07:11:38Z</time>
      </trkpt>
      <trkpt lat="59.9523756" lon="17.7248297">
        <ele>50.6066</ele>
        <time>2014-07-04T07:11:39Z</time>
      </trkpt>
      <trkpt lat="59.9523557" lon="17.7248656">
        <ele>50.6066</ele>
        <time>2014-07-04T07:11:40Z</time>
      </trkpt>
      <trkpt lat="59.9523326" lon="17.7249246">
        <ele>51.5679</ele>
        <time>2014-07-04T07:11:41Z</time>
      </trkpt>
      <trkpt lat="59.9523156" lon="17.7249546">
        <ele>51.5679</ele>
        <time>2014-07-04T07:11:42Z</time>
      </trkpt>
      <trkpt lat="59.9522972" lon="17.7249893">
        <ele>52.0486</ele>
        <time>2014-07-04T07:11:43Z</time>
      </trkpt>
      <trkpt lat="59.9522829" lon="17.7250106">
        <ele>51.5679</ele>
        <time>2014-07-04T07:11:44Z</time>
      </trkpt>
      <trkpt lat="59.952262" lon="17.7250456">
        <ele>52.0486</ele>
        <time>2014-07-04T07:11:45Z</time>
      </trkpt>
      <trkpt lat="59.9522415" lon="17.7250832">
        <ele>52.0486</ele>
        <time>2014-07-04T07:11:46Z</time>
      </trkpt>
      <trkpt lat="59.9522273" lon="17.7251304">
        <ele>52.0486</ele>
        <time>2014-07-04T07:11:47Z</time>
      </trkpt>
      <trkpt lat="59.9522119" lon="17.7251656">
        <ele>52.0486</ele>
        <time>2014-07-04T07:11:48Z</time>
      </trkpt>
      <trkpt lat="59.9521932" lon="17.7251897">
        <ele>52.0486</ele>
        <time>2014-07-04T07:11:49Z</time>
      </trkpt>
      <trkpt lat="59.95217" lon="17.7252037">
        <ele>52.0486</ele>
        <time>2014-07-04T07:11:50Z</time>
      </trkpt>
      <trkpt lat="59.9521527" lon="17.7252376">
        <ele>51.0872</ele>
        <time>2014-07-04T07:11:51Z</time>
      </trkpt>
      <trkpt lat="59.9521364" lon="17.7252725">
        <ele>51.0872</ele>
        <time>2014-07-04T07:11:52Z</time>
      </trkpt>
      <trkpt lat="59.9521187" lon="17.7253137">
        <ele>51.0872</ele>
        <time>2014-07-04T07:11:53Z</time>
      </trkpt>
      <trkpt lat="59.9520978" lon="17.7253805">
        <ele>51.0872</ele>
        <time>2014-07-04T07:11:54Z</time>
      </trkpt>
      <trkpt lat="59.9520701" lon="17.7254416">
        <ele>51.5679</ele>
        <time>2014-07-04T07:11:55Z</time>
      </trkpt>
      <trkpt lat="59.9520503" lon="17.7254794">
        <ele>51.5679</ele>
        <time>2014-07-04T07:11:56Z</time>
      </trkpt>
      <trkpt lat="59.9520317" lon="17.7255069">
        <ele>51.5679</ele>
        <time>2014-07-04T07:11:57Z</time>
      </trkpt>
      <trkpt lat="59.9520151" lon="17.7255306">
        <ele>51.5679</ele>
        <time>2014-07-04T07:11:58Z</time>
      </trkpt>
      <trkpt lat="59.9519922" lon="17.725546">
        <ele>52.0486</ele>
        <time>2014-07-04T07:11:59Z</time>
      </trkpt>
      <trkpt lat="59.9519678" lon="17.7255745">
        <ele>52.0486</ele>
        <time>2014-07-04T07:12:00Z</time>
      </trkpt>
      <trkpt lat="59.9519476" lon="17.7256141">
        <ele>52.0486</ele>
        <time>2014-07-04T07:12:01Z</time>
      </trkpt>
      <trkpt lat="59.9519343" lon="17.7256473">
        <ele>52.0486</ele>
        <time>2014-07-04T07:12:02Z</time>
      </trkpt>
      <trkpt lat="59.9519208" lon="17.7256747">
        <ele>51.5679</ele>
        <time>2014-07-04T07:12:03Z</time>
      </trkpt>
      <trkpt lat="59.9519001" lon="17.7257069">
        <ele>52.5292</ele>
        <time>2014-07-04T07:12:04Z</time>
      </trkpt>
      <trkpt lat="59.9518824" lon="17.7257395">
        <ele>52.5292</ele>
        <time>2014-07-04T07:12:05Z</time>
      </trkpt>
      <trkpt lat="59.9518654" lon="17.7257793">
        <ele>53.0098</ele>
        <time>2014-07-04T07:12:06Z</time>
      </trkpt>
      <trkpt lat="59.9518473" lon="17.7257993">
        <ele>53.0098</ele>
        <time>2014-07-04T07:12:07Z</time>
      </trkpt>
      <trkpt lat="59.9518264" lon="17.7258238">
        <ele>52.5292</ele>
        <time>2014-07-04T07:12:08Z</time>
      </trkpt>
      <trkpt lat="59.9518046" lon="17.7258492">
        <ele>52.5292</ele>
        <time>2014-07-04T07:12:09Z</time>
      </trkpt>
      <trkpt lat="59.9517837" lon="17.7258804">
        <ele>52.5292</ele>
        <time>2014-07-04T07:12:10Z</time>
      </trkpt>
      <trkpt lat="59.9517597" lon="17.7259154">
        <ele>52.5292</ele>
        <time>2014-07-04T07:12:11Z</time>
      </trkpt>
      <trkpt lat="59.9517363" lon="17.7259476">
        <ele>52.5292</ele>
        <time>2014-07-04T07:12:12Z</time>
      </trkpt>
      <trkpt lat="59.9517196" lon="17.7259829">
        <ele>52.5292</ele>
        <time>2014-07-04T07:12:13Z</time>
      </trkpt>
      <trkpt lat="59.9517039" lon="17.7260058">
        <ele>52.5292</ele>
        <time>2014-07-04T07:12:14Z</time>
      </trkpt>
      <trkpt lat="59.9516866" lon="17.7260383">
        <ele>52.0486</ele>
        <time>2014-07-04T07:12:15Z</time>
      </trkpt>
      <trkpt lat="59.9516663" lon="17.726077">
        <ele>52.5292</ele>
        <time>2014-07-04T07:12:16Z</time>
      </trkpt>
      <trkpt lat="59.951653" lon="17.7261165">
        <ele>52.5292</ele>
        <time>2014-07-04T07:12:17Z</time>
      </trkpt>
      <trkpt lat="59.95164" lon="17.7261457">
        <ele>52.0486</ele>
        <time>2014-07-04T07:12:18Z</time>
      </trkpt>
      <trkpt lat="59.9516276" lon="17.7261827">
        <ele>52.0486</ele>
        <time>2014-07-04T07:12:19Z</time>
      </trkpt>
      <trkpt lat="59.9516111" lon="17.7262414">
        <ele>52.5292</ele>
        <time>2014-07-04T07:12:20Z</time>
      </trkpt>
      <trkpt lat="59.951594" lon="17.7262906">
        <ele>53.0098</ele>
        <time>2014-07-04T07:12:21Z</time>
      </trkpt>
      <trkpt lat="59.9515739" lon="17.7263181">
        <ele>53.4905</ele>
        <time>2014-07-04T07:12:22Z</time>
      </trkpt>
      <trkpt lat="59.9515524" lon="17.7263518">
        <ele>53.9712</ele>
        <time>2014-07-04T07:12:23Z</time>
      </trkpt>
      <trkpt lat="59.9515381" lon="17.7263864">
        <ele>53.9712</ele>
        <time>2014-07-04T07:12:24Z</time>
      </trkpt>
      <trkpt lat="59.9515188" lon="17.7264231">
        <ele>54.4518</ele>
        <time>2014-07-04T07:12:25Z</time>
      </trkpt>
      <trkpt lat="59.9514985" lon="17.7264372">
        <ele>54.4518</ele>
        <time>2014-07-04T07:12:26Z</time>
      </trkpt>
      <trkpt lat="59.9514858" lon="17.7264756">
        <ele>54.4518</ele>
        <time>2014-07-04T07:12:27Z</time>
      </trkpt>
      <trkpt lat="59.9514775" lon="17.7265277">
        <ele>54.4518</ele>
        <time>2014-07-04T07:12:28Z</time>
      </trkpt>
      <trkpt lat="59.9514707" lon="17.7265843">
        <ele>54.9324</ele>
        <time>2014-07-04T07:12:29Z</time>
      </trkpt>
      <trkpt lat="59.9514639" lon="17.7266402">
        <ele>54.9324</ele>
        <time>2014-07-04T07:12:30Z</time>
      </trkpt>
      <trkpt lat="59.9514654" lon="17.7266993">
        <ele>54.9324</ele>
        <time>2014-07-04T07:12:31Z</time>
      </trkpt>
      <trkpt lat="59.9514639" lon="17.7267697">
        <ele>54.9324</ele>
        <time>2014-07-04T07:12:32Z</time>
      </trkpt>
      <trkpt lat="59.9514654" lon="17.7268138">
        <ele>54.9324</ele>
        <time>2014-07-04T07:12:33Z</time>
      </trkpt>
      <trkpt lat="59.9514653" lon="17.7268568">
        <ele>55.4131</ele>
        <time>2014-07-04T07:12:34Z</time>
      </trkpt>
      <trkpt lat="59.9514706" lon="17.7268975">
        <ele>55.4131</ele>
        <time>2014-07-04T07:12:35Z</time>
      </trkpt>
      <trkpt lat="59.9514774" lon="17.7269387">
        <ele>55.4131</ele>
        <time>2014-07-04T07:12:36Z</time>
      </trkpt>
      <trkpt lat="59.9514904" lon="17.7269827">
        <ele>55.8938</ele>
        <time>2014-07-04T07:12:37Z</time>
      </trkpt>
      <trkpt lat="59.9515069" lon="17.7270252">
        <ele>56.3745</ele>
        <time>2014-07-04T07:12:38Z</time>
      </trkpt>
      <trkpt lat="59.9515137" lon="17.7270519">
        <ele>56.3745</ele>
        <time>2014-07-04T07:12:39Z</time>
      </trkpt>
      <trkpt lat="59.9515142" lon="17.727083">
        <ele>56.3745</ele>
        <time>2014-07-04T07:12:40Z</time>
      </trkpt>
      <trkpt lat="59.9515142" lon="17.727133">
        <ele>55.8938</ele>
        <time>2014-07-04T07:12:41Z</time>
      </trkpt>
      <trkpt lat="59.9515114" lon="17.7271905">
        <ele>55.4131</ele>
        <time>2014-07-04T07:12:42Z</time>
      </trkpt>
      <trkpt lat="59.9515094" lon="17.727243">
        <ele>55.8938</ele>
        <time>2014-07-04T07:12:43Z</time>
      </trkpt>
      <trkpt lat="59.9515116" lon="17.7272867">
        <ele>55.8938</ele>
        <time>2014-07-04T07:12:44Z</time>
      </trkpt>
      <trkpt lat="59.9515142" lon="17.7273313">
        <ele>55.8938</ele>
        <time>2014-07-04T07:12:45Z</time>
      </trkpt>
      <trkpt lat="59.9515187" lon="17.7273813">
        <ele>55.4131</ele>
        <time>2014-07-04T07:12:46Z</time>
      </trkpt>
      <trkpt lat="59.9515197" lon="17.7274316">
        <ele>54.9324</ele>
        <time>2014-07-04T07:12:47Z</time>
      </trkpt>
      <trkpt lat="59.9515225" lon="17.7274784">
        <ele>54.4518</ele>
        <time>2014-07-04T07:12:48Z</time>
      </trkpt>
      <trkpt lat="59.9515313" lon="17.7275203">
        <ele>53.9712</ele>
        <time>2014-07-04T07:12:49Z</time>
      </trkpt>
      <trkpt lat="59.9515438" lon="17.7275671">
        <ele>54.4518</ele>
        <time>2014-07-04T07:12:50Z</time>
      </trkpt>
      <trkpt lat="59.9515554" lon="17.7276194">
        <ele>53.9712</ele>
        <time>2014-07-04T07:12:51Z</time>
      </trkpt>
      <trkpt lat="59.951566" lon="17.7276633">
        <ele>53.0098</ele>
        <time>2014-07-04T07:12:52Z</time>
      </trkpt>
      <trkpt lat="59.9515792" lon="17.7277048">
        <ele>53.4905</ele>
        <time>2014-07-04T07:12:53Z</time>
      </trkpt>
      <trkpt lat="59.9515935" lon="17.7277478">
        <ele>53.0098</ele>
        <time>2014-07-04T07:12:54Z</time>
      </trkpt>
      <trkpt lat="59.9516115" lon="17.7277821">
        <ele>52.5292</ele>
        <time>2014-07-04T07:12:55Z</time>
      </trkpt>
      <trkpt lat="59.9516285" lon="17.7278078">
        <ele>53.0098</ele>
        <time>2014-07-04T07:12:56Z</time>
      </trkpt>
      <trkpt lat="59.9516534" lon="17.727826">
        <ele>53.0098</ele>
        <time>2014-07-04T07:12:57Z</time>
      </trkpt>
      <trkpt lat="59.9516782" lon="17.7278426">
        <ele>53.0098</ele>
        <time>2014-07-04T07:12:58Z</time>
      </trkpt>
      <trkpt lat="59.9517005" lon="17.7278617">
        <ele>53.0098</ele>
        <time>2014-07-04T07:12:59Z</time>
      </trkpt>
      <trkpt lat="59.9517183" lon="17.7278717">
        <ele>52.0486</ele>
        <time>2014-07-04T07:13:00Z</time>
      </trkpt>
      <trkpt lat="59.9517378" lon="17.7278807">
        <ele>51.0872</ele>
        <time>2014-07-04T07:13:01Z</time>
      </trkpt>
      <trkpt lat="59.9517598" lon="17.7278913">
        <ele>51.0872</ele>
        <time>2014-07-04T07:13:02Z</time>
      </trkpt>
      <trkpt lat="59.951781" lon="17.7278923">
        <ele>50.6066</ele>
        <time>2014-07-04T07:13:03Z</time>
      </trkpt>
      <trkpt lat="59.9518098" lon="17.7278917">
        <ele>51.0872</ele>
        <time>2014-07-04T07:13:04Z</time>
      </trkpt>
      <trkpt lat="59.9518382" lon="17.7278891">
        <ele>51.0872</ele>
        <time>2014-07-04T07:13:05Z</time>
      </trkpt>
      <trkpt lat="59.9518648" lon="17.7278848">
        <ele>51.0872</ele>
        <time>2014-07-04T07:13:06Z</time>
      </trkpt>
      <trkpt lat="59.9518923" lon="17.7278623">
        <ele>51.0872</ele>
        <time>2014-07-04T07:13:07Z</time>
      </trkpt>
      <trkpt lat="59.9519141" lon="17.7278359">
        <ele>51.0872</ele>
        <time>2014-07-04T07:13:08Z</time>
      </trkpt>
      <trkpt lat="59.951932" lon="17.7278042">
        <ele>51.5679</ele>
        <time>2014-07-04T07:13:09Z</time>
      </trkpt>
      <trkpt lat="59.9519528" lon="17.727768">
        <ele>51.5679</ele>
        <time>2014-07-04T07:13:10Z</time>
      </trkpt>
      <trkpt lat="59.951972" lon="17.7277234">
        <ele>52.0486</ele>
        <time>2014-07-04T07:13:11Z</time>
      </trkpt>
      <trkpt lat="59.9519955" lon="17.7276821">
        <ele>53.0098</ele>
        <time>2014-07-04T07:13:12Z</time>
      </trkpt>
      <trkpt lat="59.9520175" lon="17.7276372">
        <ele>53.9712</ele>
        <time>2014-07-04T07:13:13Z</time>
      </trkpt>
      <trkpt lat="59.9520335" lon="17.7275954">
        <ele>55.4131</ele>
        <time>2014-07-04T07:13:14Z</time>
      </trkpt>
      <trkpt lat="59.9520486" lon="17.7275504">
        <ele>55.4131</ele>
        <time>2014-07-04T07:13:15Z</time>
      </trkpt>
      <trkpt lat="59.9520684" lon="17.7275043">
        <ele>56.3745</ele>
        <time>2014-07-04T07:13:16Z</time>
      </trkpt>
      <trkpt lat="59.9520725" lon="17.7274502">
        <ele>56.3745</ele>
        <time>2014-07-04T07:13:17Z</time>
      </trkpt>
      <trkpt lat="59.9520789" lon="17.7274124">
        <ele>55.4131</ele>
        <time>2014-07-04T07:13:18Z</time>
      </trkpt>
      <trkpt lat="59.9520771" lon="17.7273619">
        <ele>55.4131</ele>
        <time>2014-07-04T07:13:19Z</time>
      </trkpt>
      <trkpt lat="59.9520705" lon="17.7273007">
        <ele>56.8551</ele>
        <time>2014-07-04T07:13:20Z</time>
      </trkpt>
      <trkpt lat="59.9520662" lon="17.7272399">
        <ele>58.2971</ele>
        <time>2014-07-04T07:13:21Z</time>
      </trkpt>
      <trkpt lat="59.9520691" lon="17.7271894">
        <ele>58.7777</ele>
        <time>2014-07-04T07:13:22Z</time>
      </trkpt>
      <trkpt lat="59.9520632" lon="17.7271273">
        <ele>58.7777</ele>
        <time>2014-07-04T07:13:23Z</time>
      </trkpt>
      <trkpt lat="59.952068" lon="17.7270737">
        <ele>60.2197</ele>
        <time>2014-07-04T07:13:24Z</time>
      </trkpt>
      <trkpt lat="59.9520737" lon="17.727019">
        <ele>61.181</ele>
        <time>2014-07-04T07:13:25Z</time>
      </trkpt>
      <trkpt lat="59.952071" lon="17.7269533">
        <ele>61.6617</ele>
        <time>2014-07-04T07:13:26Z</time>
      </trkpt>
      <trkpt lat="59.952077" lon="17.7269017">
        <ele>61.181</ele>
        <time>2014-07-04T07:13:27Z</time>
      </trkpt>
      <trkpt lat="59.9520798" lon="17.7268512">
        <ele>61.6617</ele>
        <time>2014-07-04T07:13:28Z</time>
      </trkpt>
      <trkpt lat="59.952081" lon="17.7268028">
        <ele>61.6617</ele>
        <time>2014-07-04T07:13:29Z</time>
      </trkpt>
      <trkpt lat="59.9520798" lon="17.7267454">
        <ele>62.6229</ele>
        <time>2014-07-04T07:13:30Z</time>
      </trkpt>
      <trkpt lat="59.9520835" lon="17.726688">
        <ele>62.6229</ele>
        <time>2014-07-04T07:13:31Z</time>
      </trkpt>
      <trkpt lat="59.9520902" lon="17.7266361">
        <ele>62.6229</ele>
        <time>2014-07-04T07:13:32Z</time>
      </trkpt>
      <trkpt lat="59.9520972" lon="17.7265843">
        <ele>63.1036</ele>
        <time>2014-07-04T07:13:33Z</time>
      </trkpt>
      <trkpt lat="59.9521046" lon="17.7265356">
        <ele>63.1036</ele>
        <time>2014-07-04T07:13:34Z</time>
      </trkpt>
      <trkpt lat="59.952113" lon="17.7264926">
        <ele>62.6229</ele>
        <time>2014-07-04T07:13:35Z</time>
      </trkpt>
      <trkpt lat="59.9521274" lon="17.7264531">
        <ele>62.1423</ele>
        <time>2014-07-04T07:13:36Z</time>
      </trkpt>
      <trkpt lat="59.9521454" lon="17.7264122">
        <ele>61.6617</ele>
        <time>2014-07-04T07:13:37Z</time>
      </trkpt>
      <trkpt lat="59.9521691" lon="17.7263824">
        <ele>60.7003</ele>
        <time>2014-07-04T07:13:38Z</time>
      </trkpt>
      <trkpt lat="59.9521949" lon="17.7263586">
        <ele>59.7391</ele>
        <time>2014-07-04T07:13:39Z</time>
      </trkpt>
      <trkpt lat="59.9522197" lon="17.7263315">
        <ele>59.2584</ele>
        <time>2014-07-04T07:13:40Z</time>
      </trkpt>
      <trkpt lat="59.9522388" lon="17.7263036">
        <ele>58.2971</ele>
        <time>2014-07-04T07:13:41Z</time>
      </trkpt>
      <trkpt lat="59.9522568" lon="17.7262773">
        <ele>56.8551</ele>
        <time>2014-07-04T07:13:42Z</time>
      </trkpt>
      <trkpt lat="59.9522807" lon="17.7262507">
        <ele>55.4131</ele>
        <time>2014-07-04T07:13:43Z</time>
      </trkpt>
      <trkpt lat="59.9523001" lon="17.7262191">
        <ele>54.9324</ele>
        <time>2014-07-04T07:13:44Z</time>
      </trkpt>
      <trkpt lat="59.952315" lon="17.726187">
        <ele>53.9712</ele>
        <time>2014-07-04T07:13:45Z</time>
      </trkpt>
      <trkpt lat="59.952332" lon="17.7261585">
        <ele>53.4905</ele>
        <time>2014-07-04T07:13:46Z</time>
      </trkpt>
      <trkpt lat="59.9523441" lon="17.7261206">
        <ele>53.4905</ele>
        <time>2014-07-04T07:13:47Z</time>
      </trkpt>
      <trkpt lat="59.9523611" lon="17.7260806">
        <ele>53.4905</ele>
        <time>2014-07-04T07:13:48Z</time>
      </trkpt>
      <trkpt lat="59.9523787" lon="17.726042">
        <ele>53.4905</ele>
        <time>2014-07-04T07:13:49Z</time>
      </trkpt>
      <trkpt lat="59.9523912" lon="17.7260048">
        <ele>53.9712</ele>
        <time>2014-07-04T07:13:50Z</time>
      </trkpt>
      <trkpt lat="59.9524106" lon="17.7259791">
        <ele>53.4905</ele>
        <time>2014-07-04T07:13:51Z</time>
      </trkpt>
      <trkpt lat="59.9524343" lon="17.7259451">
        <ele>53.0098</ele>
        <time>2014-07-04T07:13:52Z</time>
      </trkpt>
      <trkpt lat="59.9524601" lon="17.725914">
        <ele>52.5292</ele>
        <time>2014-07-04T07:13:53Z</time>
      </trkpt>
      <trkpt lat="59.9524895" lon="17.7258829">
        <ele>52.0486</ele>
        <time>2014-07-04T07:13:54Z</time>
      </trkpt>
      <trkpt lat="59.9525062" lon="17.7258494">
        <ele>51.5679</ele>
        <time>2014-07-04T07:13:55Z</time>
      </trkpt>
      <trkpt lat="59.9525176" lon="17.7258147">
        <ele>51.0872</ele>
        <time>2014-07-04T07:13:56Z</time>
      </trkpt>
      <trkpt lat="59.9525378" lon="17.7257833">
        <ele>50.6066</ele>
        <time>2014-07-04T07:13:57Z</time>
      </trkpt>
      <trkpt lat="59.9525543" lon="17.7257492">
        <ele>51.0872</ele>
        <time>2014-07-04T07:13:58Z</time>
      </trkpt>
      <trkpt lat="59.9525757" lon="17.7257255">
        <ele>51.0872</ele>
        <time>2014-07-04T07:13:59Z</time>
      </trkpt>
      <trkpt lat="59.9525999" lon="17.7257032">
        <ele>50.6066</ele>
        <time>2014-07-04T07:14:00Z</time>
      </trkpt>
      <trkpt lat="59.9526199" lon="17.7256726">
        <ele>50.126</ele>
        <time>2014-07-04T07:14:01Z</time>
      </trkpt>
      <trkpt lat="59.9526427" lon="17.7256474">
        <ele>49.6453</ele>
        <time>2014-07-04T07:14:02Z</time>
      </trkpt>
      <trkpt lat="59.9526609" lon="17.7256158">
        <ele>49.6453</ele>
        <time>2014-07-04T07:14:03Z</time>
      </trkpt>
      <trkpt lat="59.9526743" lon="17.725582">
        <ele>50.126</ele>
        <time>2014-07-04T07:14:04Z</time>
      </trkpt>
      <trkpt lat="59.9526818" lon="17.7255462">
        <ele>50.126</ele>
        <time>2014-07-04T07:14:05Z</time>
      </trkpt>
      <trkpt lat="59.9526926" lon="17.7255121">
        <ele>50.126</ele>
        <time>2014-07-04T07:14:06Z</time>
      </trkpt>
      <trkpt lat="59.9527049" lon="17.7254756">
        <ele>49.6453</ele>
        <time>2014-07-04T07:14:07Z</time>
      </trkpt>
      <trkpt lat="59.9527191" lon="17.7254344">
        <ele>49.6453</ele>
        <time>2014-07-04T07:14:08Z</time>
      </trkpt>
      <trkpt lat="59.9527349" lon="17.7253986">
        <ele>49.6453</ele>
        <time>2014-07-04T07:14:09Z</time>
      </trkpt>
      <trkpt lat="59.952753" lon="17.7253567">
        <ele>50.126</ele>
        <time>2014-07-04T07:14:10Z</time>
      </trkpt>
      <trkpt lat="59.9527723" lon="17.7253129">
        <ele>50.6066</ele>
        <time>2014-07-04T07:14:11Z</time>
      </trkpt>
      <trkpt lat="59.9527848" lon="17.7252728">
        <ele>51.5679</ele>
        <time>2014-07-04T07:14:12Z</time>
      </trkpt>
      <trkpt lat="59.9528051" lon="17.7252399">
        <ele>52.0486</ele>
        <time>2014-07-04T07:14:13Z</time>
      </trkpt>
      <trkpt lat="59.952828" lon="17.7252064">
        <ele>52.0486</ele>
        <time>2014-07-04T07:14:14Z</time>
      </trkpt>
      <trkpt lat="59.9528517" lon="17.7251732">
        <ele>52.5292</ele>
        <time>2014-07-04T07:14:15Z</time>
      </trkpt>
      <trkpt lat="59.9528713" lon="17.7251435">
        <ele>52.0486</ele>
        <time>2014-07-04T07:14:16Z</time>
      </trkpt>
      <trkpt lat="59.9528846" lon="17.7251142">
        <ele>51.5679</ele>
        <time>2014-07-04T07:14:17Z</time>
      </trkpt>
      <trkpt lat="59.9528921" lon="17.7250741">
        <ele>52.0486</ele>
        <time>2014-07-04T07:14:18Z</time>
      </trkpt>
      <trkpt lat="59.952908" lon="17.7250373">
        <ele>53.0098</ele>
        <time>2014-07-04T07:14:19Z</time>
      </trkpt>
      <trkpt lat="59.9529159" lon="17.7249912">
        <ele>53.9712</ele>
        <time>2014-07-04T07:14:20Z</time>
      </trkpt>
      <trkpt lat="59.9529206" lon="17.7249406">
        <ele>55.4131</ele>
        <time>2014-07-04T07:14:21Z</time>
      </trkpt>
      <trkpt lat="59.9529372" lon="17.7249021">
        <ele>55.8938</ele>
        <time>2014-07-04T07:14:22Z</time>
      </trkpt>
      <trkpt lat="59.9529599" lon="17.7248718">
        <ele>55.8938</ele>
        <time>2014-07-04T07:14:23Z</time>
      </trkpt>
      <trkpt lat="59.9529791" lon="17.7248365">
        <ele>56.3745</ele>
        <time>2014-07-04T07:14:24Z</time>
      </trkpt>
      <trkpt lat="59.9529952" lon="17.7248008">
        <ele>56.8551</ele>
        <time>2014-07-04T07:14:25Z</time>
      </trkpt>
      <trkpt lat="59.9530174" lon="17.7247749">
        <ele>56.8551</ele>
        <time>2014-07-04T07:14:26Z</time>
      </trkpt>
      <trkpt lat="59.9530478" lon="17.7247495">
        <ele>57.3358</ele>
        <time>2014-07-04T07:14:27Z</time>
      </trkpt>
      <trkpt lat="59.9530719" lon="17.7247257">
        <ele>56.3745</ele>
        <time>2014-07-04T07:14:28Z</time>
      </trkpt>
      <trkpt lat="59.9530909" lon="17.7246889">
        <ele>56.8551</ele>
        <time>2014-07-04T07:14:29Z</time>
      </trkpt>
      <trkpt lat="59.9531101" lon="17.7246597">
        <ele>57.3358</ele>
        <time>2014-07-04T07:14:30Z</time>
      </trkpt>
      <trkpt lat="59.953122" lon="17.7246251">
        <ele>57.8165</ele>
        <time>2014-07-04T07:14:31Z</time>
      </trkpt>
      <trkpt lat="59.953141" lon="17.7245896">
        <ele>58.2971</ele>
        <time>2014-07-04T07:14:32Z</time>
      </trkpt>
      <trkpt lat="59.9531621" lon="17.7245662">
        <ele>57.8165</ele>
        <time>2014-07-04T07:14:33Z</time>
      </trkpt>
      <trkpt lat="59.9531812" lon="17.7245302">
        <ele>58.2971</ele>
        <time>2014-07-04T07:14:34Z</time>
      </trkpt>
      <trkpt lat="59.9531945" lon="17.7244868">
        <ele>58.7777</ele>
        <time>2014-07-04T07:14:35Z</time>
      </trkpt>
      <trkpt lat="59.9532082" lon="17.7244482">
        <ele>58.2971</ele>
        <time>2014-07-04T07:14:36Z</time>
      </trkpt>
      <trkpt lat="59.9532248" lon="17.7244139">
        <ele>58.2971</ele>
        <time>2014-07-04T07:14:37Z</time>
      </trkpt>
      <trkpt lat="59.9532449" lon="17.7243842">
        <ele>57.3358</ele>
        <time>2014-07-04T07:14:38Z</time>
      </trkpt>
      <trkpt lat="59.9532652" lon="17.7243532">
        <ele>58.2971</ele>
        <time>2014-07-04T07:14:39Z</time>
      </trkpt>
      <trkpt lat="59.9532947" lon="17.7243277">
        <ele>58.7777</ele>
        <time>2014-07-04T07:14:40Z</time>
      </trkpt>
      <trkpt lat="59.953321" lon="17.724289">
        <ele>59.2584</ele>
        <time>2014-07-04T07:14:41Z</time>
      </trkpt>
      <trkpt lat="59.9533412" lon="17.7242491">
        <ele>59.7391</ele>
        <time>2014-07-04T07:14:42Z</time>
      </trkpt>
      <trkpt lat="59.9533607" lon="17.7242051">
        <ele>60.7003</ele>
        <time>2014-07-04T07:14:43Z</time>
      </trkpt>
      <trkpt lat="59.9533827" lon="17.7241596">
        <ele>62.1423</ele>
        <time>2014-07-04T07:14:44Z</time>
      </trkpt>
      <trkpt lat="59.9534142" lon="17.7241252">
        <ele>63.1036</ele>
        <time>2014-07-04T07:14:45Z</time>
      </trkpt>
      <trkpt lat="59.9534418" lon="17.7240907">
        <ele>64.5457</ele>
        <time>2014-07-04T07:14:46Z</time>
      </trkpt>
      <trkpt lat="59.9534612" lon="17.7240518">
        <ele>65.9877</ele>
        <time>2014-07-04T07:14:47Z</time>
      </trkpt>
      <trkpt lat="59.9534707" lon="17.7240145">
        <ele>66.4683</ele>
        <time>2014-07-04T07:14:48Z</time>
      </trkpt>
      <trkpt lat="59.9534793" lon="17.7239772">
        <ele>66.4683</ele>
        <time>2014-07-04T07:14:49Z</time>
      </trkpt>
      <trkpt lat="59.9535064" lon="17.7239456">
        <ele>66.949</ele>
        <time>2014-07-04T07:14:50Z</time>
      </trkpt>
      <trkpt lat="59.9535209" lon="17.7238984">
        <ele>68.8716</ele>
        <time>2014-07-04T07:14:51Z</time>
      </trkpt>
      <trkpt lat="59.9535166" lon="17.72384">
        <ele>70.7942</ele>
        <time>2014-07-04T07:14:52Z</time>
      </trkpt>
      <trkpt lat="59.9535286" lon="17.7237922">
        <ele>72.7169</ele>
        <time>2014-07-04T07:14:53Z</time>
      </trkpt>
      <trkpt lat="59.9535238" lon="17.7237348">
        <ele>74.1588</ele>
        <time>2014-07-04T07:14:54Z</time>
      </trkpt>
      <trkpt lat="59.9535325" lon="17.7236881">
        <ele>75.1202</ele>
        <time>2014-07-04T07:14:55Z</time>
      </trkpt>
      <trkpt lat="59.953542" lon="17.7236343">
        <ele>77.0428</ele>
        <time>2014-07-04T07:14:56Z</time>
      </trkpt>
      <trkpt lat="59.9535768" lon="17.7235919">
        <ele>78.4847</ele>
        <time>2014-07-04T07:14:57Z</time>
      </trkpt>
      <trkpt lat="59.9536028" lon="17.7235501">
        <ele>79.9266</ele>
        <time>2014-07-04T07:14:58Z</time>
      </trkpt>
      <trkpt lat="59.9536151" lon="17.723513">
        <ele>79.446</ele>
        <time>2014-07-04T07:14:59Z</time>
      </trkpt>
      <trkpt lat="59.9536489" lon="17.7235033">
        <ele>77.5234</ele>
        <time>2014-07-04T07:15:00Z</time>
      </trkpt>
      <trkpt lat="59.9536827" lon="17.7234783">
        <ele>76.5621</ele>
        <time>2014-07-04T07:15:01Z</time>
      </trkpt>
      <trkpt lat="59.9537178" lon="17.7234613">
        <ele>76.0814</ele>
        <time>2014-07-04T07:15:02Z</time>
      </trkpt>
      <trkpt lat="59.9537411" lon="17.7234476">
        <ele>75.1202</ele>
        <time>2014-07-04T07:15:03Z</time>
      </trkpt>
      <trkpt lat="59.9537683" lon="17.7234355">
        <ele>74.6395</ele>
        <time>2014-07-04T07:15:04Z</time>
      </trkpt>
      <trkpt lat="59.9538084" lon="17.7234176">
        <ele>75.1202</ele>
        <time>2014-07-04T07:15:05Z</time>
      </trkpt>
      <trkpt lat="59.9538344" lon="17.723399">
        <ele>74.6395</ele>
        <time>2014-07-04T07:15:06Z</time>
      </trkpt>
      <trkpt lat="59.9538528" lon="17.7233837">
        <ele>74.1588</ele>
        <time>2014-07-04T07:15:07Z</time>
      </trkpt>
      <trkpt lat="59.953882" lon="17.7233671">
        <ele>73.1976</ele>
        <time>2014-07-04T07:15:08Z</time>
      </trkpt>
      <trkpt lat="59.9539039" lon="17.7233477">
        <ele>72.7169</ele>
        <time>2014-07-04T07:15:09Z</time>
      </trkpt>
      <trkpt lat="59.9539279" lon="17.7233284">
        <ele>72.2362</ele>
        <time>2014-07-04T07:15:10Z</time>
      </trkpt>
      <trkpt lat="59.9539538" lon="17.7232986">
        <ele>72.2362</ele>
        <time>2014-07-04T07:15:11Z</time>
      </trkpt>
      <trkpt lat="59.9539802" lon="17.7232753">
        <ele>71.7555</ele>
        <time>2014-07-04T07:15:12Z</time>
      </trkpt>
      <trkpt lat="59.9540001" lon="17.7232549">
        <ele>70.7942</ele>
        <time>2014-07-04T07:15:13Z</time>
      </trkpt>
      <trkpt lat="59.9540215" lon="17.7232348">
        <ele>70.7942</ele>
        <time>2014-07-04T07:15:14Z</time>
      </trkpt>
      <trkpt lat="59.9540478" lon="17.723215">
        <ele>71.2749</ele>
        <time>2014-07-04T07:15:15Z</time>
      </trkpt>
      <trkpt lat="59.9540665" lon="17.7231987">
        <ele>71.2749</ele>
        <time>2014-07-04T07:15:16Z</time>
      </trkpt>
      <trkpt lat="59.9540945" lon="17.7231906">
        <ele>71.2749</ele>
        <time>2014-07-04T07:15:17Z</time>
      </trkpt>
      <trkpt lat="59.9541203" lon="17.7231825">
        <ele>71.2749</ele>
        <time>2014-07-04T07:15:18Z</time>
      </trkpt>
      <trkpt lat="59.9541421" lon="17.7231624">
        <ele>72.2362</ele>
        <time>2014-07-04T07:15:19Z</time>
      </trkpt>
      <trkpt lat="59.9541674" lon="17.7231472">
        <ele>72.7169</ele>
        <time>2014-07-04T07:15:20Z</time>
      </trkpt>
      <trkpt lat="59.954196" lon="17.7231406">
        <ele>72.2362</ele>
        <time>2014-07-04T07:15:21Z</time>
      </trkpt>
      <trkpt lat="59.954213" lon="17.7231354">
        <ele>72.2362</ele>
        <time>2014-07-04T07:15:22Z</time>
      </trkpt>
      <trkpt lat="59.9542416" lon="17.723139">
        <ele>72.2362</ele>
        <time>2014-07-04T07:15:23Z</time>
      </trkpt>
      <trkpt lat="59.9542663" lon="17.7231474">
        <ele>71.7555</ele>
        <time>2014-07-04T07:15:24Z</time>
      </trkpt>
      <trkpt lat="59.9542921" lon="17.723165">
        <ele>70.7942</ele>
        <time>2014-07-04T07:15:25Z</time>
      </trkpt>
      <trkpt lat="59.9543206" lon="17.7231877">
        <ele>70.3135</ele>
        <time>2014-07-04T07:15:26Z</time>
      </trkpt>
      <trkpt lat="59.9543423" lon="17.7232125">
        <ele>69.8329</ele>
        <time>2014-07-04T07:15:27Z</time>
      </trkpt>
      <trkpt lat="59.9543623" lon="17.7232307">
        <ele>68.8716</ele>
        <time>2014-07-04T07:15:28Z</time>
      </trkpt>
      <trkpt lat="59.9543812" lon="17.7232467">
        <ele>67.4297</ele>
        <time>2014-07-04T07:15:29Z</time>
      </trkpt>
      <trkpt lat="59.9544017" lon="17.7232644">
        <ele>65.9877</ele>
        <time>2014-07-04T07:15:30Z</time>
      </trkpt>
      <trkpt lat="59.9544331" lon="17.7232886">
        <ele>65.0264</ele>
        <time>2014-07-04T07:15:31Z</time>
      </trkpt>
      <trkpt lat="59.9544812" lon="17.7233129">
        <ele>65.9877</ele>
        <time>2014-07-04T07:15:32Z</time>
      </trkpt>
      <trkpt lat="59.9545176" lon="17.7233305">
        <ele>65.9877</ele>
        <time>2014-07-04T07:15:33Z</time>
      </trkpt>
      <trkpt lat="59.954547" lon="17.7233452">
        <ele>65.5071</ele>
        <time>2014-07-04T07:15:34Z</time>
      </trkpt>
      <trkpt lat="59.9545752" lon="17.7233653">
        <ele>65.0264</ele>
        <time>2014-07-04T07:15:35Z</time>
      </trkpt>
      <trkpt lat="59.9546091" lon="17.7233824">
        <ele>65.0264</ele>
        <time>2014-07-04T07:15:36Z</time>
      </trkpt>
      <trkpt lat="59.9546378" lon="17.7234018">
        <ele>65.0264</ele>
        <time>2014-07-04T07:15:37Z</time>
      </trkpt>
      <trkpt lat="59.9546772" lon="17.723414">
        <ele>66.4683</ele>
        <time>2014-07-04T07:15:38Z</time>
      </trkpt>
      <trkpt lat="59.954705" lon="17.7234277">
        <ele>66.949</ele>
        <time>2014-07-04T07:15:39Z</time>
      </trkpt>
      <trkpt lat="59.9547329" lon="17.7234435">
        <ele>67.9103</ele>
        <time>2014-07-04T07:15:40Z</time>
      </trkpt>
      <trkpt lat="59.9547491" lon="17.7234581">
        <ele>67.9103</ele>
        <time>2014-07-04T07:15:41Z</time>
      </trkpt>
      <trkpt lat="59.9547879" lon="17.7234699">
        <ele>69.8329</ele>
        <time>2014-07-04T07:15:42Z</time>
      </trkpt>
      <trkpt lat="59.9548301" lon="17.7234871">
        <ele>70.7942</ele>
        <time>2014-07-04T07:15:43Z</time>
      </trkpt>
      <trkpt lat="59.954867" lon="17.7235049">
        <ele>71.7555</ele>
        <time>2014-07-04T07:15:44Z</time>
      </trkpt>
      <trkpt lat="59.9549175" lon="17.723515">
        <ele>73.6782</ele>
        <time>2014-07-04T07:15:45Z</time>
      </trkpt>
      <trkpt lat="59.954958" lon="17.7235365">
        <ele>75.1202</ele>
        <time>2014-07-04T07:15:46Z</time>
      </trkpt>
      <trkpt lat="59.9549854" lon="17.7235529">
        <ele>76.0814</ele>
        <time>2014-07-04T07:15:47Z</time>
      </trkpt>
      <trkpt lat="59.9549995" lon="17.7235654">
        <ele>76.5621</ele>
        <time>2014-07-04T07:15:48Z</time>
      </trkpt>
      <trkpt lat="59.9550031" lon="17.7235643">
        <ele>76.0814</ele>
        <time>2014-07-04T07:15:49Z</time>
      </trkpt>
      <trkpt lat="59.9550087" lon="17.7235672">
        <ele>75.1202</ele>
        <time>2014-07-04T07:15:50Z</time>
      </trkpt>
      <trkpt lat="59.9550289" lon="17.723569">
        <ele>75.6008</ele>
        <time>2014-07-04T07:15:51Z</time>
      </trkpt>
      <trkpt lat="59.955048" lon="17.7235634">
        <ele>75.6008</ele>
        <time>2014-07-04T07:15:52Z</time>
      </trkpt>
      <trkpt lat="59.955063" lon="17.7235488">
        <ele>75.6008</ele>
        <time>2014-07-04T07:15:53Z</time>
      </trkpt>
      <trkpt lat="59.9550751" lon="17.7235244">
        <ele>76.0814</ele>
        <time>2014-07-04T07:15:54Z</time>
      </trkpt>
      <trkpt lat="59.9550952" lon="17.7235005">
        <ele>76.0814</ele>
        <time>2014-07-04T07:15:55Z</time>
      </trkpt>
      <trkpt lat="59.9551123" lon="17.7234776">
        <ele>76.0814</ele>
        <time>2014-07-04T07:15:56Z</time>
      </trkpt>
      <trkpt lat="59.955133" lon="17.7234561">
        <ele>75.6008</ele>
        <time>2014-07-04T07:15:57Z</time>
      </trkpt>
      <trkpt lat="59.9551469" lon="17.7234443">
        <ele>75.1202</ele>
        <time>2014-07-04T07:15:58Z</time>
      </trkpt>
      <trkpt lat="59.9551584" lon="17.7234291">
        <ele>75.1202</ele>
        <time>2014-07-04T07:15:59Z</time>
      </trkpt>
      <trkpt lat="59.9551692" lon="17.7234069">
        <ele>75.1202</ele>
        <time>2014-07-04T07:16:00Z</time>
      </trkpt>
      <trkpt lat="59.9551782" lon="17.7233774">
        <ele>74.6395</ele>
        <time>2014-07-04T07:16:01Z</time>
      </trkpt>
      <trkpt lat="59.9551911" lon="17.7233483">
        <ele>74.6395</ele>
        <time>2014-07-04T07:16:02Z</time>
      </trkpt>
      <trkpt lat="59.955207" lon="17.7233255">
        <ele>75.1202</ele>
        <time>2014-07-04T07:16:03Z</time>
      </trkpt>
      <trkpt lat="59.9552236" lon="17.7233078">
        <ele>75.1202</ele>
        <time>2014-07-04T07:16:04Z</time>
      </trkpt>
      <trkpt lat="59.9552462" lon="17.7232955">
        <ele>75.1202</ele>
        <time>2014-07-04T07:16:05Z</time>
      </trkpt>
      <trkpt lat="59.9552753" lon="17.7232837">
        <ele>75.1202</ele>
        <time>2014-07-04T07:16:06Z</time>
      </trkpt>
      <trkpt lat="59.9553055" lon="17.7232722">
        <ele>74.6395</ele>
        <time>2014-07-04T07:16:07Z</time>
      </trkpt>
      <trkpt lat="59.9553401" lon="17.7232742">
        <ele>74.6395</ele>
        <time>2014-07-04T07:16:08Z</time>
      </trkpt>
      <trkpt lat="59.9553785" lon="17.7232876">
        <ele>73.6782</ele>
        <time>2014-07-04T07:16:09Z</time>
      </trkpt>
      <trkpt lat="59.9554157" lon="17.723296">
        <ele>73.6782</ele>
        <time>2014-07-04T07:16:10Z</time>
      </trkpt>
      <trkpt lat="59.9554449" lon="17.7232991">
        <ele>73.1976</ele>
        <time>2014-07-04T07:16:11Z</time>
      </trkpt>
      <trkpt lat="59.9554726" lon="17.7232995">
        <ele>73.1976</ele>
        <time>2014-07-04T07:16:12Z</time>
      </trkpt>
      <trkpt lat="59.9555097" lon="17.7233075">
        <ele>73.6782</ele>
        <time>2014-07-04T07:16:13Z</time>
      </trkpt>
      <trkpt lat="59.9555468" lon="17.7233173">
        <ele>74.1588</ele>
        <time>2014-07-04T07:16:14Z</time>
      </trkpt>
      <trkpt lat="59.9555707" lon="17.7233219">
        <ele>74.1588</ele>
        <time>2014-07-04T07:16:15Z</time>
      </trkpt>
      <trkpt lat="59.9555898" lon="17.7233344">
        <ele>73.6782</ele>
        <time>2014-07-04T07:16:16Z</time>
      </trkpt>
      <trkpt lat="59.9556132" lon="17.7233431">
        <ele>73.6782</ele>
        <time>2014-07-04T07:16:17Z</time>
      </trkpt>
      <trkpt lat="59.9556319" lon="17.7233597">
        <ele>72.2362</ele>
        <time>2014-07-04T07:16:18Z</time>
      </trkpt>
      <trkpt lat="59.9556539" lon="17.7233793">
        <ele>71.2749</ele>
        <time>2014-07-04T07:16:19Z</time>
      </trkpt>
      <trkpt lat="59.9556753" lon="17.7234135">
        <ele>69.8329</ele>
        <time>2014-07-04T07:16:20Z</time>
      </trkpt>
      <trkpt lat="59.9556975" lon="17.7234443">
        <ele>68.8716</ele>
        <time>2014-07-04T07:16:21Z</time>
      </trkpt>
      <trkpt lat="59.9557167" lon="17.723465">
        <ele>68.3909</ele>
        <time>2014-07-04T07:16:22Z</time>
      </trkpt>
      <trkpt lat="59.9557356" lon="17.7234799">
        <ele>68.3909</ele>
        <time>2014-07-04T07:16:23Z</time>
      </trkpt>
      <trkpt lat="59.9557565" lon="17.7235014">
        <ele>67.9103</ele>
        <time>2014-07-04T07:16:24Z</time>
      </trkpt>
      <trkpt lat="59.9557769" lon="17.7235243">
        <ele>68.3909</ele>
        <time>2014-07-04T07:16:25Z</time>
      </trkpt>
      <trkpt lat="59.9558054" lon="17.7235532">
        <ele>67.9103</ele>
        <time>2014-07-04T07:16:26Z</time>
      </trkpt>
      <trkpt lat="59.9558329" lon="17.7235732">
        <ele>67.9103</ele>
        <time>2014-07-04T07:16:27Z</time>
      </trkpt>
      <trkpt lat="59.9558515" lon="17.7235913">
        <ele>67.4297</ele>
        <time>2014-07-04T07:16:28Z</time>
      </trkpt>
      <trkpt lat="59.9558699" lon="17.7235919">
        <ele>67.9103</ele>
        <time>2014-07-04T07:16:29Z</time>
      </trkpt>
      <trkpt lat="59.9558837" lon="17.7235789">
        <ele>67.9103</ele>
        <time>2014-07-04T07:16:30Z</time>
      </trkpt>
      <trkpt lat="59.9558958" lon="17.7235524">
        <ele>67.9103</ele>
        <time>2014-07-04T07:16:31Z</time>
      </trkpt>
      <trkpt lat="59.9559028" lon="17.7235159">
        <ele>67.9103</ele>
        <time>2014-07-04T07:16:32Z</time>
      </trkpt>
      <trkpt lat="59.9559077" lon="17.7234756">
        <ele>68.3909</ele>
        <time>2014-07-04T07:16:33Z</time>
      </trkpt>
      <trkpt lat="59.9559152" lon="17.7234443">
        <ele>68.3909</ele>
        <time>2014-07-04T07:16:34Z</time>
      </trkpt>
      <trkpt lat="59.9559296" lon="17.7234077">
        <ele>68.3909</ele>
        <time>2014-07-04T07:16:35Z</time>
      </trkpt>
      <trkpt lat="59.9559432" lon="17.7233631">
        <ele>68.8716</ele>
        <time>2014-07-04T07:16:36Z</time>
      </trkpt>
      <trkpt lat="59.9559533" lon="17.723313">
        <ele>68.8716</ele>
        <time>2014-07-04T07:16:37Z</time>
      </trkpt>
      <trkpt lat="59.9559582" lon="17.7232591">
        <ele>68.8716</ele>
        <time>2014-07-04T07:16:38Z</time>
      </trkpt>
      <trkpt lat="59.9559665" lon="17.723206">
        <ele>69.3523</ele>
        <time>2014-07-04T07:16:39Z</time>
      </trkpt>
      <trkpt lat="59.9559704" lon="17.7231516">
        <ele>68.8716</ele>
        <time>2014-07-04T07:16:40Z</time>
      </trkpt>
      <trkpt lat="59.9559685" lon="17.723094">
        <ele>69.3523</ele>
        <time>2014-07-04T07:16:41Z</time>
      </trkpt>
      <trkpt lat="59.9559655" lon="17.7230369">
        <ele>70.3135</ele>
        <time>2014-07-04T07:16:42Z</time>
      </trkpt>
      <trkpt lat="59.9559644" lon="17.722978">
        <ele>70.7942</ele>
        <time>2014-07-04T07:16:43Z</time>
      </trkpt>
      <trkpt lat="59.9559649" lon="17.7229147">
        <ele>71.2749</ele>
        <time>2014-07-04T07:16:44Z</time>
      </trkpt>
      <trkpt lat="59.9559714" lon="17.7228643">
        <ele>70.3135</ele>
        <time>2014-07-04T07:16:45Z</time>
      </trkpt>
      <trkpt lat="59.9559749" lon="17.7228152">
        <ele>70.3135</ele>
        <time>2014-07-04T07:16:46Z</time>
      </trkpt>
      <trkpt lat="59.955978" lon="17.7227759">
        <ele>69.3523</ele>
        <time>2014-07-04T07:16:47Z</time>
      </trkpt>
      <trkpt lat="59.9559782" lon="17.7227309">
        <ele>68.8716</ele>
        <time>2014-07-04T07:16:48Z</time>
      </trkpt>
      <trkpt lat="59.955979" lon="17.722699">
        <ele>67.9103</ele>
        <time>2014-07-04T07:16:49Z</time>
      </trkpt>
      <trkpt lat="59.9559831" lon="17.7226795">
        <ele>65.9877</ele>
        <time>2014-07-04T07:16:50Z</time>
      </trkpt>
      <trkpt lat="59.9559762" lon="17.7226506">
        <ele>65.5071</ele>
        <time>2014-07-04T07:16:51Z</time>
      </trkpt>
      <trkpt lat="59.9559702" lon="17.7226153">
        <ele>65.0264</ele>
        <time>2014-07-04T07:16:52Z</time>
      </trkpt>
      <trkpt lat="59.9559619" lon="17.722569">
        <ele>65.0264</ele>
        <time>2014-07-04T07:16:53Z</time>
      </trkpt>
      <trkpt lat="59.9559572" lon="17.7225225">
        <ele>64.5457</ele>
        <time>2014-07-04T07:16:54Z</time>
      </trkpt>
      <trkpt lat="59.9559565" lon="17.7224759">
        <ele>64.0651</ele>
        <time>2014-07-04T07:16:55Z</time>
      </trkpt>
      <trkpt lat="59.9559556" lon="17.7224309">
        <ele>63.5844</ele>
        <time>2014-07-04T07:16:56Z</time>
      </trkpt>
      <trkpt lat="59.9559523" lon="17.7223832">
        <ele>63.5844</ele>
        <time>2014-07-04T07:16:57Z</time>
      </trkpt>
      <trkpt lat="59.9559485" lon="17.7223294">
        <ele>63.5844</ele>
        <time>2014-07-04T07:16:58Z</time>
      </trkpt>
      <trkpt lat="59.9559414" lon="17.7222779">
        <ele>64.0651</ele>
        <time>2014-07-04T07:16:59Z</time>
      </trkpt>
      <trkpt lat="59.9559314" lon="17.7222342">
        <ele>64.5457</ele>
        <time>2014-07-04T07:17:00Z</time>
      </trkpt>
      <trkpt lat="59.9559158" lon="17.7221776">
        <ele>65.9877</ele>
        <time>2014-07-04T07:17:01Z</time>
      </trkpt>
      <trkpt lat="59.9559042" lon="17.7221139">
        <ele>66.4683</ele>
        <time>2014-07-04T07:17:02Z</time>
      </trkpt>
      <trkpt lat="59.9558908" lon="17.7220508">
        <ele>66.949</ele>
        <time>2014-07-04T07:17:03Z</time>
      </trkpt>
      <trkpt lat="59.9558783" lon="17.7220014">
        <ele>66.949</ele>
        <time>2014-07-04T07:17:04Z</time>
      </trkpt>
      <trkpt lat="59.955869" lon="17.7219497">
        <ele>66.949</ele>
        <time>2014-07-04T07:17:05Z</time>
      </trkpt>
      <trkpt lat="59.9558643" lon="17.7218912">
        <ele>67.4297</ele>
        <time>2014-07-04T07:17:06Z</time>
      </trkpt>
      <trkpt lat="59.9558592" lon="17.7218333">
        <ele>67.9103</ele>
        <time>2014-07-04T07:17:07Z</time>
      </trkpt>
      <trkpt lat="59.9558518" lon="17.7217751">
        <ele>68.3909</ele>
        <time>2014-07-04T07:17:08Z</time>
      </trkpt>
      <trkpt lat="59.9558454" lon="17.7217047">
        <ele>68.8716</ele>
        <time>2014-07-04T07:17:09Z</time>
      </trkpt>
      <trkpt lat="59.9558461" lon="17.7216434">
        <ele>69.3523</ele>
        <time>2014-07-04T07:17:10Z</time>
      </trkpt>
      <trkpt lat="59.955848" lon="17.7215897">
        <ele>70.3135</ele>
        <time>2014-07-04T07:17:11Z</time>
      </trkpt>
      <trkpt lat="59.9558453" lon="17.7215354">
        <ele>70.7942</ele>
        <time>2014-07-04T07:17:12Z</time>
      </trkpt>
      <trkpt lat="59.9558508" lon="17.721489">
        <ele>70.3135</ele>
        <time>2014-07-04T07:17:13Z</time>
      </trkpt>
      <trkpt lat="59.955867" lon="17.721453">
        <ele>68.8716</ele>
        <time>2014-07-04T07:17:14Z</time>
      </trkpt>
      <trkpt lat="59.9558862" lon="17.7214225">
        <ele>67.9103</ele>
        <time>2014-07-04T07:17:15Z</time>
      </trkpt>
      <trkpt lat="59.9558929" lon="17.7213818">
        <ele>66.949</ele>
        <time>2014-07-04T07:17:16Z</time>
      </trkpt>
      <trkpt lat="59.9558884" lon="17.7213322">
        <ele>67.9103</ele>
        <time>2014-07-04T07:17:17Z</time>
      </trkpt>
      <trkpt lat="59.9558906" lon="17.7213">
        <ele>66.949</ele>
        <time>2014-07-04T07:17:18Z</time>
      </trkpt>
      <trkpt lat="59.9558893" lon="17.7212653">
        <ele>65.5071</ele>
        <time>2014-07-04T07:17:19Z</time>
      </trkpt>
      <trkpt lat="59.955882" lon="17.7212375">
        <ele>64.0651</ele>
        <time>2014-07-04T07:17:20Z</time>
      </trkpt>
      <trkpt lat="59.9558676" lon="17.7212031">
        <ele>63.5844</ele>
        <time>2014-07-04T07:17:21Z</time>
      </trkpt>
      <trkpt lat="59.9558478" lon="17.721187">
        <ele>62.6229</ele>
        <time>2014-07-04T07:17:22Z</time>
      </trkpt>
      <trkpt lat="59.9558278" lon="17.7211916">
        <ele>61.181</ele>
        <time>2014-07-04T07:17:23Z</time>
      </trkpt>
      <trkpt lat="59.9558043" lon="17.7212032">
        <ele>59.7391</ele>
        <time>2014-07-04T07:17:24Z</time>
      </trkpt>
      <trkpt lat="59.9557857" lon="17.7211991">
        <ele>58.2971</ele>
        <time>2014-07-04T07:17:25Z</time>
      </trkpt>
      <trkpt lat="59.955766" lon="17.7212119">
        <ele>57.3358</ele>
        <time>2014-07-04T07:17:26Z</time>
      </trkpt>
      <trkpt lat="59.9557444" lon="17.7212139">
        <ele>56.3745</ele>
        <time>2014-07-04T07:17:27Z</time>
      </trkpt>
      <trkpt lat="59.9557264" lon="17.7212131">
        <ele>55.8938</ele>
        <time>2014-07-04T07:17:28Z</time>
      </trkpt>
      <trkpt lat="59.9557068" lon="17.7212279">
        <ele>55.8938</ele>
        <time>2014-07-04T07:17:29Z</time>
      </trkpt>
      <trkpt lat="59.9556894" lon="17.721246">
        <ele>55.8938</ele>
        <time>2014-07-04T07:17:30Z</time>
      </trkpt>
      <trkpt lat="59.9556736" lon="17.7212623">
        <ele>55.8938</ele>
        <time>2014-07-04T07:17:31Z</time>
      </trkpt>
      <trkpt lat="59.9556546" lon="17.7212899">
        <ele>55.8938</ele>
        <time>2014-07-04T07:17:32Z</time>
      </trkpt>
      <trkpt lat="59.9556239" lon="17.7213269">
        <ele>56.3745</ele>
        <time>2014-07-04T07:17:33Z</time>
      </trkpt>
      <trkpt lat="59.9555887" lon="17.7213551">
        <ele>56.3745</ele>
        <time>2014-07-04T07:17:34Z</time>
      </trkpt>
      <trkpt lat="59.9555576" lon="17.7213871">
        <ele>56.3745</ele>
        <time>2014-07-04T07:17:35Z</time>
      </trkpt>
      <trkpt lat="59.9555328" lon="17.7214435">
        <ele>56.8551</ele>
        <time>2014-07-04T07:17:36Z</time>
      </trkpt>
      <trkpt lat="59.955506" lon="17.7214867">
        <ele>57.3358</ele>
        <time>2014-07-04T07:17:37Z</time>
      </trkpt>
      <trkpt lat="59.9554801" lon="17.7215171">
        <ele>57.8165</ele>
        <time>2014-07-04T07:17:38Z</time>
      </trkpt>
      <trkpt lat="59.9554588" lon="17.7215349">
        <ele>58.2971</ele>
        <time>2014-07-04T07:17:39Z</time>
      </trkpt>
      <trkpt lat="59.955432" lon="17.7215534">
        <ele>58.7777</ele>
        <time>2014-07-04T07:17:40Z</time>
      </trkpt>
      <trkpt lat="59.9554044" lon="17.7215458">
        <ele>59.2584</ele>
        <time>2014-07-04T07:17:41Z</time>
      </trkpt>
      <trkpt lat="59.9553743" lon="17.721514">
        <ele>60.2197</ele>
        <time>2014-07-04T07:17:42Z</time>
      </trkpt>
      <trkpt lat="59.9553418" lon="17.7214938">
        <ele>60.7003</ele>
        <time>2014-07-04T07:17:43Z</time>
      </trkpt>
      <trkpt lat="59.9553079" lon="17.7214734">
        <ele>61.6617</ele>
        <time>2014-07-04T07:17:44Z</time>
      </trkpt>
      <trkpt lat="59.9552774" lon="17.7214669">
        <ele>62.6229</ele>
        <time>2014-07-04T07:17:45Z</time>
      </trkpt>
      <trkpt lat="59.9552494" lon="17.7214519">
        <ele>63.1036</ele>
        <time>2014-07-04T07:17:46Z</time>
      </trkpt>
      <trkpt lat="59.9552247" lon="17.721439">
        <ele>63.1036</ele>
        <time>2014-07-04T07:17:47Z</time>
      </trkpt>
      <trkpt lat="59.9552041" lon="17.7214183">
        <ele>63.5844</ele>
        <time>2014-07-04T07:17:48Z</time>
      </trkpt>
      <trkpt lat="59.9551785" lon="17.7214113">
        <ele>64.0651</ele>
        <time>2014-07-04T07:17:49Z</time>
      </trkpt>
      <trkpt lat="59.9551475" lon="17.7214089">
        <ele>64.0651</ele>
        <time>2014-07-04T07:17:50Z</time>
      </trkpt>
      <trkpt lat="59.9551209" lon="17.721398">
        <ele>65.0264</ele>
        <time>2014-07-04T07:17:51Z</time>
      </trkpt>
      <trkpt lat="59.9550926" lon="17.72137">
        <ele>65.5071</ele>
        <time>2014-07-04T07:17:52Z</time>
      </trkpt>
      <trkpt lat="59.9550629" lon="17.7213603">
        <ele>65.0264</ele>
        <time>2014-07-04T07:17:53Z</time>
      </trkpt>
      <trkpt lat="59.9550351" lon="17.7213725">
        <ele>64.5457</ele>
        <time>2014-07-04T07:17:54Z</time>
      </trkpt>
      <trkpt lat="59.9550113" lon="17.7213727">
        <ele>64.0651</ele>
        <time>2014-07-04T07:17:55Z</time>
      </trkpt>
      <trkpt lat="59.9549886" lon="17.7213721">
        <ele>63.5844</ele>
        <time>2014-07-04T07:17:56Z</time>
      </trkpt>
      <trkpt lat="59.9549656" lon="17.7213519">
        <ele>63.1036</ele>
        <time>2014-07-04T07:17:57Z</time>
      </trkpt>
      <trkpt lat="59.954945" lon="17.7213405">
        <ele>62.1423</ele>
        <time>2014-07-04T07:17:58Z</time>
      </trkpt>
      <trkpt lat="59.9549134" lon="17.7213196">
        <ele>61.6617</ele>
        <time>2014-07-04T07:17:59Z</time>
      </trkpt>
      <trkpt lat="59.9548844" lon="17.7212983">
        <ele>61.6617</ele>
        <time>2014-07-04T07:18:00Z</time>
      </trkpt>
      <trkpt lat="59.9548543" lon="17.7212917">
        <ele>62.6229</ele>
        <time>2014-07-04T07:18:01Z</time>
      </trkpt>
      <trkpt lat="59.9548294" lon="17.7212779">
        <ele>63.1036</ele>
        <time>2014-07-04T07:18:02Z</time>
      </trkpt>
      <trkpt lat="59.9548168" lon="17.7212597">
        <ele>62.6229</ele>
        <time>2014-07-04T07:18:03Z</time>
      </trkpt>
      <trkpt lat="59.9547994" lon="17.721229">
        <ele>63.5844</ele>
        <time>2014-07-04T07:18:04Z</time>
      </trkpt>
      <trkpt lat="59.9547845" lon="17.7212008">
        <ele>64.0651</ele>
        <time>2014-07-04T07:18:05Z</time>
      </trkpt>
      <trkpt lat="59.9547658" lon="17.721183">
        <ele>64.0651</ele>
        <time>2014-07-04T07:18:06Z</time>
      </trkpt>
      <trkpt lat="59.9547443" lon="17.7211285">
        <ele>64.5457</ele>
        <time>2014-07-04T07:18:07Z</time>
      </trkpt>
      <trkpt lat="59.9547181" lon="17.7210582">
        <ele>65.0264</ele>
        <time>2014-07-04T07:18:08Z</time>
      </trkpt>
      <trkpt lat="59.9546853" lon="17.7209814">
        <ele>66.4683</ele>
        <time>2014-07-04T07:18:09Z</time>
      </trkpt>
      <trkpt lat="59.954672" lon="17.7209095">
        <ele>67.4297</ele>
        <time>2014-07-04T07:18:10Z</time>
      </trkpt>
      <trkpt lat="59.9546754" lon="17.72085">
        <ele>68.3909</ele>
        <time>2014-07-04T07:18:11Z</time>
      </trkpt>
      <trkpt lat="59.9546739" lon="17.7207903">
        <ele>69.3523</ele>
        <time>2014-07-04T07:18:12Z</time>
      </trkpt>
      <trkpt lat="59.9546664" lon="17.7207278">
        <ele>71.2749</ele>
        <time>2014-07-04T07:18:13Z</time>
      </trkpt>
      <trkpt lat="59.9546678" lon="17.7206649">
        <ele>72.2362</ele>
        <time>2014-07-04T07:18:14Z</time>
      </trkpt>
      <trkpt lat="59.9546709" lon="17.7206086">
        <ele>72.7169</ele>
        <time>2014-07-04T07:18:15Z</time>
      </trkpt>
      <trkpt lat="59.9546755" lon="17.720552">
        <ele>73.1976</ele>
        <time>2014-07-04T07:18:16Z</time>
      </trkpt>
      <trkpt lat="59.9546879" lon="17.7205121">
        <ele>72.2362</ele>
        <time>2014-07-04T07:18:17Z</time>
      </trkpt>
      <trkpt lat="59.9546972" lon="17.7204609">
        <ele>72.7169</ele>
        <time>2014-07-04T07:18:18Z</time>
      </trkpt>
      <trkpt lat="59.9547133" lon="17.7204273">
        <ele>72.7169</ele>
        <time>2014-07-04T07:18:19Z</time>
      </trkpt>
      <trkpt lat="59.9547336" lon="17.7203977">
        <ele>73.1976</ele>
        <time>2014-07-04T07:18:20Z</time>
      </trkpt>
      <trkpt lat="59.9547595" lon="17.7203758">
        <ele>72.7169</ele>
        <time>2014-07-04T07:18:21Z</time>
      </trkpt>
      <trkpt lat="59.9547809" lon="17.7203521">
        <ele>73.1976</ele>
        <time>2014-07-04T07:18:22Z</time>
      </trkpt>
      <trkpt lat="59.9548042" lon="17.7203352">
        <ele>71.7555</ele>
        <time>2014-07-04T07:18:23Z</time>
      </trkpt>
      <trkpt lat="59.9548269" lon="17.7203174">
        <ele>71.7555</ele>
        <time>2014-07-04T07:18:24Z</time>
      </trkpt>
      <trkpt lat="59.9548443" lon="17.7202967">
        <ele>71.7555</ele>
        <time>2014-07-04T07:18:25Z</time>
      </trkpt>
      <trkpt lat="59.9548599" lon="17.720277">
        <ele>72.2362</ele>
        <time>2014-07-04T07:18:26Z</time>
      </trkpt>
      <trkpt lat="59.9548833" lon="17.7202637">
        <ele>71.7555</ele>
        <time>2014-07-04T07:18:27Z</time>
      </trkpt>
      <trkpt lat="59.9549134" lon="17.7202429">
        <ele>71.7555</ele>
        <time>2014-07-04T07:18:28Z</time>
      </trkpt>
      <trkpt lat="59.9549407" lon="17.7202112">
        <ele>72.7169</ele>
        <time>2014-07-04T07:18:29Z</time>
      </trkpt>
      <trkpt lat="59.9549625" lon="17.7201811">
        <ele>73.1976</ele>
        <time>2014-07-04T07:18:30Z</time>
      </trkpt>
      <trkpt lat="59.95499" lon="17.7201569">
        <ele>73.6782</ele>
        <time>2014-07-04T07:18:31Z</time>
      </trkpt>
      <trkpt lat="59.9550195" lon="17.7201346">
        <ele>74.6395</ele>
        <time>2014-07-04T07:18:32Z</time>
      </trkpt>
      <trkpt lat="59.9550429" lon="17.7201114">
        <ele>74.1588</ele>
        <time>2014-07-04T07:18:33Z</time>
      </trkpt>
      <trkpt lat="59.9550683" lon="17.720099">
        <ele>73.1976</ele>
        <time>2014-07-04T07:18:34Z</time>
      </trkpt>
      <trkpt lat="59.9550977" lon="17.720085">
        <ele>72.2362</ele>
        <time>2014-07-04T07:18:35Z</time>
      </trkpt>
      <trkpt lat="59.9551226" lon="17.7200699">
        <ele>71.7555</ele>
        <time>2014-07-04T07:18:36Z</time>
      </trkpt>
      <trkpt lat="59.9551495" lon="17.7200527">
        <ele>71.7555</ele>
        <time>2014-07-04T07:18:37Z</time>
      </trkpt>
      <trkpt lat="59.9551661" lon="17.7200361">
        <ele>71.7555</ele>
        <time>2014-07-04T07:18:38Z</time>
      </trkpt>
      <trkpt lat="59.9551863" lon="17.7200218">
        <ele>71.2749</ele>
        <time>2014-07-04T07:18:39Z</time>
      </trkpt>
      <trkpt lat="59.9552059" lon="17.7200018">
        <ele>71.2749</ele>
        <time>2014-07-04T07:18:40Z</time>
      </trkpt>
      <trkpt lat="59.9552268" lon="17.7199813">
        <ele>70.7942</ele>
        <time>2014-07-04T07:18:41Z</time>
      </trkpt>
      <trkpt lat="59.9552517" lon="17.7199591">
        <ele>70.3135</ele>
        <time>2014-07-04T07:18:42Z</time>
      </trkpt>
      <trkpt lat="59.9552789" lon="17.7199355">
        <ele>70.3135</ele>
        <time>2014-07-04T07:18:43Z</time>
      </trkpt>
      <trkpt lat="59.9553043" lon="17.7199129">
        <ele>70.3135</ele>
        <time>2014-07-04T07:18:44Z</time>
      </trkpt>
      <trkpt lat="59.9553262" lon="17.7198844">
        <ele>70.3135</ele>
        <time>2014-07-04T07:18:45Z</time>
      </trkpt>
      <trkpt lat="59.9553459" lon="17.7198606">
        <ele>70.3135</ele>
        <time>2014-07-04T07:18:46Z</time>
      </trkpt>
      <trkpt lat="59.955363" lon="17.7198423">
        <ele>70.3135</ele>
        <time>2014-07-04T07:18:47Z</time>
      </trkpt>
      <trkpt lat="59.955383" lon="17.7198258">
        <ele>70.7942</ele>
        <time>2014-07-04T07:18:48Z</time>
      </trkpt>
      <trkpt lat="59.9554034" lon="17.7198155">
        <ele>71.2749</ele>
        <time>2014-07-04T07:18:49Z</time>
      </trkpt>
      <trkpt lat="59.9554241" lon="17.7198056">
        <ele>72.2362</ele>
        <time>2014-07-04T07:18:50Z</time>
      </trkpt>
      <trkpt lat="59.9554503" lon="17.7197932">
        <ele>72.2362</ele>
        <time>2014-07-04T07:18:51Z</time>
      </trkpt>
      <trkpt lat="59.9554763" lon="17.7197881">
        <ele>71.7555</ele>
        <time>2014-07-04T07:18:52Z</time>
      </trkpt>
      <trkpt lat="59.9554977" lon="17.7197775">
        <ele>71.2749</ele>
        <time>2014-07-04T07:18:53Z</time>
      </trkpt>
      <trkpt lat="59.9555157" lon="17.7197688">
        <ele>71.2749</ele>
        <time>2014-07-04T07:18:54Z</time>
      </trkpt>
      <trkpt lat="59.9555345" lon="17.7197627">
        <ele>71.2749</ele>
        <time>2014-07-04T07:18:55Z</time>
      </trkpt>
      <trkpt lat="59.9555598" lon="17.7197507">
        <ele>71.2749</ele>
        <time>2014-07-04T07:18:56Z</time>
      </trkpt>
      <trkpt lat="59.9555857" lon="17.719743">
        <ele>70.3135</ele>
        <time>2014-07-04T07:18:57Z</time>
      </trkpt>
      <trkpt lat="59.9556063" lon="17.7197232">
        <ele>69.8329</ele>
        <time>2014-07-04T07:18:58Z</time>
      </trkpt>
      <trkpt lat="59.9556255" lon="17.7196993">
        <ele>69.8329</ele>
        <time>2014-07-04T07:18:59Z</time>
      </trkpt>
      <trkpt lat="59.9556522" lon="17.7196798">
        <ele>69.3523</ele>
        <time>2014-07-04T07:19:00Z</time>
      </trkpt>
      <trkpt lat="59.9556804" lon="17.7196527">
        <ele>69.3523</ele>
        <time>2014-07-04T07:19:01Z</time>
      </trkpt>
      <trkpt lat="59.9557052" lon="17.719628">
        <ele>68.8716</ele>
        <time>2014-07-04T07:19:02Z</time>
      </trkpt>
      <trkpt lat="59.9557312" lon="17.7196036">
        <ele>68.8716</ele>
        <time>2014-07-04T07:19:03Z</time>
      </trkpt>
      <trkpt lat="59.9557493" lon="17.7195782">
        <ele>69.8329</ele>
        <time>2014-07-04T07:19:04Z</time>
      </trkpt>
      <trkpt lat="59.9557606" lon="17.7195478">
        <ele>69.8329</ele>
        <time>2014-07-04T07:19:05Z</time>
      </trkpt>
      <trkpt lat="59.9557744" lon="17.7195145">
        <ele>69.8329</ele>
        <time>2014-07-04T07:19:06Z</time>
      </trkpt>
      <trkpt lat="59.9557909" lon="17.7194889">
        <ele>69.8329</ele>
        <time>2014-07-04T07:19:07Z</time>
      </trkpt>
      <trkpt lat="59.9558075" lon="17.7194648">
        <ele>69.8329</ele>
        <time>2014-07-04T07:19:08Z</time>
      </trkpt>
      <trkpt lat="59.955827" lon="17.7194465">
        <ele>69.3523</ele>
        <time>2014-07-04T07:19:09Z</time>
      </trkpt>
      <trkpt lat="59.9558511" lon="17.719431">
        <ele>69.3523</ele>
        <time>2014-07-04T07:19:10Z</time>
      </trkpt>
      <trkpt lat="59.95587" lon="17.7194144">
        <ele>69.3523</ele>
        <time>2014-07-04T07:19:11Z</time>
      </trkpt>
      <trkpt lat="59.9558937" lon="17.7193959">
        <ele>69.3523</ele>
        <time>2014-07-04T07:19:12Z</time>
      </trkpt>
      <trkpt lat="59.9559165" lon="17.71937">
        <ele>68.8716</ele>
        <time>2014-07-04T07:19:13Z</time>
      </trkpt>
      <trkpt lat="59.9559375" lon="17.7193405">
        <ele>68.8716</ele>
        <time>2014-07-04T07:19:14Z</time>
      </trkpt>
      <trkpt lat="59.9559588" lon="17.7193156">
        <ele>68.8716</ele>
        <time>2014-07-04T07:19:15Z</time>
      </trkpt>
      <trkpt lat="59.9559798" lon="17.7192825">
        <ele>68.8716</ele>
        <time>2014-07-04T07:19:16Z</time>
      </trkpt>
      <trkpt lat="59.9560013" lon="17.719256">
        <ele>68.3909</ele>
        <time>2014-07-04T07:19:17Z</time>
      </trkpt>
      <trkpt lat="59.9560235" lon="17.7192274">
        <ele>68.3909</ele>
        <time>2014-07-04T07:19:18Z</time>
      </trkpt>
      <trkpt lat="59.9560412" lon="17.7191907">
        <ele>67.9103</ele>
        <time>2014-07-04T07:19:19Z</time>
      </trkpt>
      <trkpt lat="59.9560561" lon="17.7191473">
        <ele>67.9103</ele>
        <time>2014-07-04T07:19:20Z</time>
      </trkpt>
      <trkpt lat="59.9560684" lon="17.7191013">
        <ele>67.9103</ele>
        <time>2014-07-04T07:19:21Z</time>
      </trkpt>
      <trkpt lat="59.9560753" lon="17.7190484">
        <ele>68.8716</ele>
        <time>2014-07-04T07:19:22Z</time>
      </trkpt>
      <trkpt lat="59.9560819" lon="17.7189959">
        <ele>69.3523</ele>
        <time>2014-07-04T07:19:23Z</time>
      </trkpt>
      <trkpt lat="59.9560908" lon="17.7189478">
        <ele>69.3523</ele>
        <time>2014-07-04T07:19:24Z</time>
      </trkpt>
      <trkpt lat="59.9561058" lon="17.7189012">
        <ele>69.3523</ele>
        <time>2014-07-04T07:19:25Z</time>
      </trkpt>
      <trkpt lat="59.9561215" lon="17.7188603">
        <ele>69.3523</ele>
        <time>2014-07-04T07:19:26Z</time>
      </trkpt>
      <trkpt lat="59.956136" lon="17.7188205">
        <ele>69.3523</ele>
        <time>2014-07-04T07:19:27Z</time>
      </trkpt>
      <trkpt lat="59.9561445" lon="17.7187712">
        <ele>68.8716</ele>
        <time>2014-07-04T07:19:28Z</time>
      </trkpt>
      <trkpt lat="59.9561498" lon="17.7187255">
        <ele>68.8716</ele>
        <time>2014-07-04T07:19:29Z</time>
      </trkpt>
      <trkpt lat="59.9561512" lon="17.7186889">
        <ele>68.3909</ele>
        <time>2014-07-04T07:19:30Z</time>
      </trkpt>
      <trkpt lat="59.9561555" lon="17.7186511">
        <ele>67.9103</ele>
        <time>2014-07-04T07:19:31Z</time>
      </trkpt>
      <trkpt lat="59.95616" lon="17.7186101">
        <ele>67.4297</ele>
        <time>2014-07-04T07:19:32Z</time>
      </trkpt>
      <trkpt lat="59.9561575" lon="17.7185623">
        <ele>66.949</ele>
        <time>2014-07-04T07:19:33Z</time>
      </trkpt>
      <trkpt lat="59.9561447" lon="17.7185042">
        <ele>67.9103</ele>
        <time>2014-07-04T07:19:34Z</time>
      </trkpt>
      <trkpt lat="59.9561312" lon="17.7184498">
        <ele>67.9103</ele>
        <time>2014-07-04T07:19:35Z</time>
      </trkpt>
      <trkpt lat="59.9561202" lon="17.7184079">
        <ele>67.4297</ele>
        <time>2014-07-04T07:19:36Z</time>
      </trkpt>
      <trkpt lat="59.9561057" lon="17.7183711">
        <ele>67.4297</ele>
        <time>2014-07-04T07:19:37Z</time>
      </trkpt>
      <trkpt lat="59.9560934" lon="17.7183354">
        <ele>66.4683</ele>
        <time>2014-07-04T07:19:38Z</time>
      </trkpt>
      <trkpt lat="59.9560804" lon="17.718295">
        <ele>65.9877</ele>
        <time>2014-07-04T07:19:39Z</time>
      </trkpt>
      <trkpt lat="59.9560645" lon="17.7182594">
        <ele>65.0264</ele>
        <time>2014-07-04T07:19:40Z</time>
      </trkpt>
      <trkpt lat="59.9560442" lon="17.718218">
        <ele>64.5457</ele>
        <time>2014-07-04T07:19:41Z</time>
      </trkpt>
      <trkpt lat="59.9560293" lon="17.7181765">
        <ele>63.5844</ele>
        <time>2014-07-04T07:19:42Z</time>
      </trkpt>
      <trkpt lat="59.956014" lon="17.7181419">
        <ele>63.5844</ele>
        <time>2014-07-04T07:19:43Z</time>
      </trkpt>
      <trkpt lat="59.9560005" lon="17.7180978">
        <ele>63.5844</ele>
        <time>2014-07-04T07:19:44Z</time>
      </trkpt>
      <trkpt lat="59.9559881" lon="17.7180484">
        <ele>63.1036</ele>
        <time>2014-07-04T07:19:45Z</time>
      </trkpt>
      <trkpt lat="59.9559742" lon="17.718002">
        <ele>62.6229</ele>
        <time>2014-07-04T07:19:46Z</time>
      </trkpt>
      <trkpt lat="59.9559597" lon="17.7179688">
        <ele>62.6229</ele>
        <time>2014-07-04T07:19:47Z</time>
      </trkpt>
      <trkpt lat="59.9559442" lon="17.7179347">
        <ele>62.6229</ele>
        <time>2014-07-04T07:19:48Z</time>
      </trkpt>
      <trkpt lat="59.9559319" lon="17.7179078">
        <ele>62.1423</ele>
        <time>2014-07-04T07:19:49Z</time>
      </trkpt>
      <trkpt lat="59.9559162" lon="17.7178802">
        <ele>61.6617</ele>
        <time>2014-07-04T07:19:50Z</time>
      </trkpt>
      <trkpt lat="59.9558992" lon="17.7178474">
        <ele>61.6617</ele>
        <time>2014-07-04T07:19:51Z</time>
      </trkpt>
      <trkpt lat="59.9558815" lon="17.7178233">
        <ele>61.6617</ele>
        <time>2014-07-04T07:19:52Z</time>
      </trkpt>
      <trkpt lat="59.9558613" lon="17.7177925">
        <ele>62.1423</ele>
        <time>2014-07-04T07:19:53Z</time>
      </trkpt>
      <trkpt lat="59.9558463" lon="17.7177703">
        <ele>62.1423</ele>
        <time>2014-07-04T07:19:54Z</time>
      </trkpt>
      <trkpt lat="59.9558324" lon="17.7177538">
        <ele>62.1423</ele>
        <time>2014-07-04T07:19:55Z</time>
      </trkpt>
      <trkpt lat="59.9558174" lon="17.7177165">
        <ele>62.1423</ele>
        <time>2014-07-04T07:19:56Z</time>
      </trkpt>
      <trkpt lat="59.955795" lon="17.7176564">
        <ele>63.1036</ele>
        <time>2014-07-04T07:19:57Z</time>
      </trkpt>
      <trkpt lat="59.9557763" lon="17.7176062">
        <ele>63.5844</ele>
        <time>2014-07-04T07:19:58Z</time>
      </trkpt>
      <trkpt lat="59.9557526" lon="17.7175617">
        <ele>65.0264</ele>
        <time>2014-07-04T07:19:59Z</time>
      </trkpt>
      <trkpt lat="59.9557332" lon="17.7175167">
        <ele>65.5071</ele>
        <time>2014-07-04T07:20:00Z</time>
      </trkpt>
      <trkpt lat="59.9557078" lon="17.7174762">
        <ele>66.949</ele>
        <time>2014-07-04T07:20:01Z</time>
      </trkpt>
      <trkpt lat="59.9556819" lon="17.7174289">
        <ele>67.9103</ele>
        <time>2014-07-04T07:20:02Z</time>
      </trkpt>
      <trkpt lat="59.9556635" lon="17.7173886">
        <ele>67.9103</ele>
        <time>2014-07-04T07:20:03Z</time>
      </trkpt>
      <trkpt lat="59.9556474" lon="17.7173395">
        <ele>67.4297</ele>
        <time>2014-07-04T07:20:04Z</time>
      </trkpt>
      <trkpt lat="59.9556298" lon="17.7173055">
        <ele>66.949</ele>
        <time>2014-07-04T07:20:05Z</time>
      </trkpt>
      <trkpt lat="59.9556163" lon="17.717267">
        <ele>66.4683</ele>
        <time>2014-07-04T07:20:06Z</time>
      </trkpt>
      <trkpt lat="59.9555951" lon="17.7172187">
        <ele>66.949</ele>
        <time>2014-07-04T07:20:07Z</time>
      </trkpt>
      <trkpt lat="59.9555796" lon="17.7171799">
        <ele>67.4297</ele>
        <time>2014-07-04T07:20:08Z</time>
      </trkpt>
      <trkpt lat="59.9555724" lon="17.7171439">
        <ele>67.4297</ele>
        <time>2014-07-04T07:20:09Z</time>
      </trkpt>
      <trkpt lat="59.9555641" lon="17.7171001">
        <ele>67.9103</ele>
        <time>2014-07-04T07:20:10Z</time>
      </trkpt>
      <trkpt lat="59.9555537" lon="17.7170652">
        <ele>67.4297</ele>
        <time>2014-07-04T07:20:11Z</time>
      </trkpt>
      <trkpt lat="59.9555474" lon="17.7170326">
        <ele>66.4683</ele>
        <time>2014-07-04T07:20:12Z</time>
      </trkpt>
      <trkpt lat="59.9555337" lon="17.7169865">
        <ele>66.4683</ele>
        <time>2014-07-04T07:20:13Z</time>
      </trkpt>
      <trkpt lat="59.9555272" lon="17.716954">
        <ele>65.9877</ele>
        <time>2014-07-04T07:20:14Z</time>
      </trkpt>
      <trkpt lat="59.9555168" lon="17.7169089">
        <ele>65.5071</ele>
        <time>2014-07-04T07:20:15Z</time>
      </trkpt>
      <trkpt lat="59.9555096" lon="17.7168665">
        <ele>65.0264</ele>
        <time>2014-07-04T07:20:16Z</time>
      </trkpt>
      <trkpt lat="59.9555079" lon="17.7168311">
        <ele>64.0651</ele>
        <time>2014-07-04T07:20:17Z</time>
      </trkpt>
      <trkpt lat="59.9555078" lon="17.716782">
        <ele>63.1036</ele>
        <time>2014-07-04T07:20:18Z</time>
      </trkpt>
      <trkpt lat="59.9555105" lon="17.716725">
        <ele>62.1423</ele>
        <time>2014-07-04T07:20:19Z</time>
      </trkpt>
      <trkpt lat="59.9555125" lon="17.7166639">
        <ele>61.6617</ele>
        <time>2014-07-04T07:20:20Z</time>
      </trkpt>
      <trkpt lat="59.9555128" lon="17.7166078">
        <ele>61.6617</ele>
        <time>2014-07-04T07:20:21Z</time>
      </trkpt>
      <trkpt lat="59.9555153" lon="17.7165514">
        <ele>60.2197</ele>
        <time>2014-07-04T07:20:22Z</time>
      </trkpt>
      <trkpt lat="59.9555101" lon="17.7164971">
        <ele>60.7003</ele>
        <time>2014-07-04T07:20:23Z</time>
      </trkpt>
      <trkpt lat="59.9555024" lon="17.7164267">
        <ele>61.181</ele>
        <time>2014-07-04T07:20:24Z</time>
      </trkpt>
      <trkpt lat="59.955496" lon="17.7163547">
        <ele>62.1423</ele>
        <time>2014-07-04T07:20:25Z</time>
      </trkpt>
      <trkpt lat="59.9554904" lon="17.7162864">
        <ele>63.5844</ele>
        <time>2014-07-04T07:20:26Z</time>
      </trkpt>
      <trkpt lat="59.9554837" lon="17.71622">
        <ele>64.5457</ele>
        <time>2014-07-04T07:20:27Z</time>
      </trkpt>
      <trkpt lat="59.9554701" lon="17.7161604">
        <ele>65.9877</ele>
        <time>2014-07-04T07:20:28Z</time>
      </trkpt>
      <trkpt lat="59.9554542" lon="17.7160931">
        <ele>67.4297</ele>
        <time>2014-07-04T07:20:29Z</time>
      </trkpt>
      <trkpt lat="59.955439" lon="17.7160092">
        <ele>68.8716</ele>
        <time>2014-07-04T07:20:30Z</time>
      </trkpt>
      <trkpt lat="59.9554164" lon="17.7159201">
        <ele>70.7942</ele>
        <time>2014-07-04T07:20:31Z</time>
      </trkpt>
      <trkpt lat="59.9554059" lon="17.7158601">
        <ele>71.2749</ele>
        <time>2014-07-04T07:20:32Z</time>
      </trkpt>
      <trkpt lat="59.9553941" lon="17.715794">
        <ele>72.2362</ele>
        <time>2014-07-04T07:20:33Z</time>
      </trkpt>
      <trkpt lat="59.9553759" lon="17.7157244">
        <ele>73.6782</ele>
        <time>2014-07-04T07:20:34Z</time>
      </trkpt>
      <trkpt lat="59.9553677" lon="17.7156662">
        <ele>74.1588</ele>
        <time>2014-07-04T07:20:35Z</time>
      </trkpt>
      <trkpt lat="59.9553572" lon="17.7156049">
        <ele>74.6395</ele>
        <time>2014-07-04T07:20:36Z</time>
      </trkpt>
      <trkpt lat="59.9553417" lon="17.7155404">
        <ele>75.6008</ele>
        <time>2014-07-04T07:20:37Z</time>
      </trkpt>
      <trkpt lat="59.9553292" lon="17.7154741">
        <ele>76.5621</ele>
        <time>2014-07-04T07:20:38Z</time>
      </trkpt>
      <trkpt lat="59.9553194" lon="17.7154077">
        <ele>77.0428</ele>
        <time>2014-07-04T07:20:39Z</time>
      </trkpt>
      <trkpt lat="59.9553214" lon="17.7153523">
        <ele>76.0814</ele>
        <time>2014-07-04T07:20:40Z</time>
      </trkpt>
      <trkpt lat="59.955319" lon="17.7153001">
        <ele>75.6008</ele>
        <time>2014-07-04T07:20:41Z</time>
      </trkpt>
      <trkpt lat="59.9553247" lon="17.7152575">
        <ele>74.6395</ele>
        <time>2014-07-04T07:20:42Z</time>
      </trkpt>
      <trkpt lat="59.9553247" lon="17.7152099">
        <ele>74.1588</ele>
        <time>2014-07-04T07:20:43Z</time>
      </trkpt>
      <trkpt lat="59.9553256" lon="17.7151622">
        <ele>73.6782</ele>
        <time>2014-07-04T07:20:44Z</time>
      </trkpt>
      <trkpt lat="59.9553305" lon="17.7151203">
        <ele>72.2362</ele>
        <time>2014-07-04T07:20:45Z</time>
      </trkpt>
      <trkpt lat="59.9553371" lon="17.7150793">
        <ele>70.3135</ele>
        <time>2014-07-04T07:20:46Z</time>
      </trkpt>
      <trkpt lat="59.9553366" lon="17.7150332">
        <ele>68.3909</ele>
        <time>2014-07-04T07:20:47Z</time>
      </trkpt>
      <trkpt lat="59.9553304" lon="17.7149783">
        <ele>67.4297</ele>
        <time>2014-07-04T07:20:48Z</time>
      </trkpt>
      <trkpt lat="59.9553322" lon="17.7149411">
        <ele>65.5071</ele>
        <time>2014-07-04T07:20:49Z</time>
      </trkpt>
      <trkpt lat="59.9553362" lon="17.7149136">
        <ele>63.1036</ele>
        <time>2014-07-04T07:20:50Z</time>
      </trkpt>
      <trkpt lat="59.9553349" lon="17.7148741">
        <ele>61.6617</ele>
        <time>2014-07-04T07:20:51Z</time>
      </trkpt>
      <trkpt lat="59.9553213" lon="17.714816">
        <ele>61.6617</ele>
        <time>2014-07-04T07:20:52Z</time>
      </trkpt>
      <trkpt lat="59.9553116" lon="17.7147635">
        <ele>60.7003</ele>
        <time>2014-07-04T07:20:53Z</time>
      </trkpt>
      <trkpt lat="59.9553116" lon="17.7147281">
        <ele>58.7777</ele>
        <time>2014-07-04T07:20:54Z</time>
      </trkpt>
      <trkpt lat="59.9553076" lon="17.7146842">
        <ele>57.3358</ele>
        <time>2014-07-04T07:20:55Z</time>
      </trkpt>
      <trkpt lat="59.9553132" lon="17.714653">
        <ele>54.9324</ele>
        <time>2014-07-04T07:20:56Z</time>
      </trkpt>
      <trkpt lat="59.9553198" lon="17.7146269">
        <ele>52.5292</ele>
        <time>2014-07-04T07:20:57Z</time>
      </trkpt>
      <trkpt lat="59.9553262" lon="17.7145949">
        <ele>50.6066</ele>
        <time>2014-07-04T07:20:58Z</time>
      </trkpt>
      <trkpt lat="59.9553252" lon="17.7145539">
        <ele>49.1646</ele>
        <time>2014-07-04T07:20:59Z</time>
      </trkpt>
      <trkpt lat="59.9553234" lon="17.7145063">
        <ele>48.684</ele>
        <time>2014-07-04T07:21:00Z</time>
      </trkpt>
      <trkpt lat="59.9553182" lon="17.7144594">
        <ele>46.7612</ele>
        <time>2014-07-04T07:21:01Z</time>
      </trkpt>
      <trkpt lat="59.9553143" lon="17.7144205">
        <ele>45.3192</ele>
        <time>2014-07-04T07:21:02Z</time>
      </trkpt>
      <trkpt lat="59.9553048" lon="17.7143742">
        <ele>44.358</ele>
        <time>2014-07-04T07:21:03Z</time>
      </trkpt>
      <trkpt lat="59.9552957" lon="17.7143277">
        <ele>43.3966</ele>
        <time>2014-07-04T07:21:04Z</time>
      </trkpt>
      <trkpt lat="59.9552903" lon="17.7142811">
        <ele>42.4354</ele>
        <time>2014-07-04T07:21:05Z</time>
      </trkpt>
      <trkpt lat="59.9552818" lon="17.7142342">
        <ele>41.474</ele>
        <time>2014-07-04T07:21:06Z</time>
      </trkpt>
      <trkpt lat="59.9552727" lon="17.7141941">
        <ele>40.5128</ele>
        <time>2014-07-04T07:21:07Z</time>
      </trkpt>
      <trkpt lat="59.9552609" lon="17.7141551">
        <ele>39.5513</ele>
        <time>2014-07-04T07:21:08Z</time>
      </trkpt>
      <trkpt lat="59.9552475" lon="17.7141277">
        <ele>38.5901</ele>
        <time>2014-07-04T07:21:09Z</time>
      </trkpt>
      <trkpt lat="59.95522" lon="17.7141226">
        <ele>37.6287</ele>
        <time>2014-07-04T07:21:10Z</time>
      </trkpt>
      <trkpt lat="59.9551941" lon="17.7141491">
        <ele>37.1481</ele>
        <time>2014-07-04T07:21:11Z</time>
      </trkpt>
      <trkpt lat="59.9551734" lon="17.7142059">
        <ele>36.6675</ele>
        <time>2014-07-04T07:21:12Z</time>
      </trkpt>
      <trkpt lat="59.9551656" lon="17.7142484">
        <ele>36.1868</ele>
        <time>2014-07-04T07:21:13Z</time>
      </trkpt>
      <trkpt lat="59.9551624" lon="17.7143003">
        <ele>35.2255</ele>
        <time>2014-07-04T07:21:14Z</time>
      </trkpt>
      <trkpt lat="59.9551501" lon="17.7143391">
        <ele>34.7449</ele>
        <time>2014-07-04T07:21:15Z</time>
      </trkpt>
      <trkpt lat="59.9551282" lon="17.7143637">
        <ele>35.2255</ele>
        <time>2014-07-04T07:21:16Z</time>
      </trkpt>
      <trkpt lat="59.9550982" lon="17.7143803">
        <ele>36.1868</ele>
        <time>2014-07-04T07:21:17Z</time>
      </trkpt>
      <trkpt lat="59.9550641" lon="17.714398">
        <ele>37.1481</ele>
        <time>2014-07-04T07:21:18Z</time>
      </trkpt>
      <trkpt lat="59.9550366" lon="17.7144338">
        <ele>38.1094</ele>
        <time>2014-07-04T07:21:19Z</time>
      </trkpt>
      <trkpt lat="59.9550103" lon="17.7144518">
        <ele>39.0707</ele>
        <time>2014-07-04T07:21:20Z</time>
      </trkpt>
      <trkpt lat="59.9549868" lon="17.7144582">
        <ele>39.5513</ele>
        <time>2014-07-04T07:21:21Z</time>
      </trkpt>
      <trkpt lat="59.9549644" lon="17.7144811">
        <ele>40.0321</ele>
        <time>2014-07-04T07:21:22Z</time>
      </trkpt>
      <trkpt lat="59.9549376" lon="17.7145309">
        <ele>40.9934</ele>
        <time>2014-07-04T07:21:23Z</time>
      </trkpt>
      <trkpt lat="59.9549111" lon="17.7145923">
        <ele>41.9547</ele>
        <time>2014-07-04T07:21:24Z</time>
      </trkpt>
      <trkpt lat="59.9548829" lon="17.7146462">
        <ele>43.3966</ele>
        <time>2014-07-04T07:21:25Z</time>
      </trkpt>
      <trkpt lat="59.9548512" lon="17.7146829">
        <ele>44.8386</ele>
        <time>2014-07-04T07:21:26Z</time>
      </trkpt>
      <trkpt lat="59.9548258" lon="17.7146872">
        <ele>45.7999</ele>
        <time>2014-07-04T07:21:27Z</time>
      </trkpt>
      <trkpt lat="59.9547953" lon="17.7147234">
        <ele>46.2806</ele>
        <time>2014-07-04T07:21:28Z</time>
      </trkpt>
      <trkpt lat="59.9547533" lon="17.7147859">
        <ele>47.2418</ele>
        <time>2014-07-04T07:21:29Z</time>
      </trkpt>
      <trkpt lat="59.9547119" lon="17.7148291">
        <ele>48.684</ele>
        <time>2014-07-04T07:21:30Z</time>
      </trkpt>
      <trkpt lat="59.954683" lon="17.7148406">
        <ele>49.1646</ele>
        <time>2014-07-04T07:21:31Z</time>
      </trkpt>
      <trkpt lat="59.9546569" lon="17.7148456">
        <ele>49.6453</ele>
        <time>2014-07-04T07:21:32Z</time>
      </trkpt>
      <trkpt lat="59.9546243" lon="17.7148261">
        <ele>51.0872</ele>
        <time>2014-07-04T07:21:33Z</time>
      </trkpt>
      <trkpt lat="59.954598" lon="17.7148116">
        <ele>51.5679</ele>
        <time>2014-07-04T07:21:34Z</time>
      </trkpt>
      <trkpt lat="59.954572" lon="17.714794">
        <ele>52.0486</ele>
        <time>2014-07-04T07:21:35Z</time>
      </trkpt>
      <trkpt lat="59.9545415" lon="17.7147835">
        <ele>53.0098</ele>
        <time>2014-07-04T07:21:36Z</time>
      </trkpt>
      <trkpt lat="59.9545113" lon="17.7147576">
        <ele>53.9712</ele>
        <time>2014-07-04T07:21:37Z</time>
      </trkpt>
      <trkpt lat="59.9544828" lon="17.7147528">
        <ele>54.4518</ele>
        <time>2014-07-04T07:21:38Z</time>
      </trkpt>
      <trkpt lat="59.9544548" lon="17.7147732">
        <ele>54.9324</ele>
        <time>2014-07-04T07:21:39Z</time>
      </trkpt>
      <trkpt lat="59.9544307" lon="17.714772">
        <ele>54.9324</ele>
        <time>2014-07-04T07:21:40Z</time>
      </trkpt>
      <trkpt lat="59.9544071" lon="17.714778">
        <ele>55.4131</ele>
        <time>2014-07-04T07:21:41Z</time>
      </trkpt>
      <trkpt lat="59.9543837" lon="17.7147802">
        <ele>55.4131</ele>
        <time>2014-07-04T07:21:42Z</time>
      </trkpt>
      <trkpt lat="59.9543584" lon="17.7147829">
        <ele>55.8938</ele>
        <time>2014-07-04T07:21:43Z</time>
      </trkpt>
      <trkpt lat="59.9543244" lon="17.714813">
        <ele>55.8938</ele>
        <time>2014-07-04T07:21:44Z</time>
      </trkpt>
      <trkpt lat="59.9542881" lon="17.714867">
        <ele>56.8551</ele>
        <time>2014-07-04T07:21:45Z</time>
      </trkpt>
      <trkpt lat="59.9542605" lon="17.7148903">
        <ele>56.3745</ele>
        <time>2014-07-04T07:21:46Z</time>
      </trkpt>
      <trkpt lat="59.9542361" lon="17.7148785">
        <ele>56.3745</ele>
        <time>2014-07-04T07:21:47Z</time>
      </trkpt>
      <trkpt lat="59.9542125" lon="17.7148652">
        <ele>57.8165</ele>
        <time>2014-07-04T07:21:48Z</time>
      </trkpt>
      <trkpt lat="59.9541907" lon="17.714851">
        <ele>57.8165</ele>
        <time>2014-07-04T07:21:49Z</time>
      </trkpt>
      <trkpt lat="59.9541688" lon="17.7148436">
        <ele>58.2971</ele>
        <time>2014-07-04T07:21:50Z</time>
      </trkpt>
      <trkpt lat="59.9541446" lon="17.7148214">
        <ele>58.2971</ele>
        <time>2014-07-04T07:21:51Z</time>
      </trkpt>
      <trkpt lat="59.9541201" lon="17.7147982">
        <ele>58.7777</ele>
        <time>2014-07-04T07:21:52Z</time>
      </trkpt>
      <trkpt lat="59.9540969" lon="17.714789">
        <ele>58.2971</ele>
        <time>2014-07-04T07:21:53Z</time>
      </trkpt>
      <trkpt lat="59.9540738" lon="17.7147701">
        <ele>58.2971</ele>
        <time>2014-07-04T07:21:54Z</time>
      </trkpt>
      <trkpt lat="59.9540457" lon="17.7147683">
        <ele>59.2584</ele>
        <time>2014-07-04T07:21:55Z</time>
      </trkpt>
      <trkpt lat="59.9540206" lon="17.7147772">
        <ele>59.2584</ele>
        <time>2014-07-04T07:21:56Z</time>
      </trkpt>
      <trkpt lat="59.9539978" lon="17.7147701">
        <ele>59.7391</ele>
        <time>2014-07-04T07:21:57Z</time>
      </trkpt>
      <trkpt lat="59.953974" lon="17.7147502">
        <ele>59.7391</ele>
        <time>2014-07-04T07:21:58Z</time>
      </trkpt>
      <trkpt lat="59.9539513" lon="17.7147218">
        <ele>59.7391</ele>
        <time>2014-07-04T07:21:59Z</time>
      </trkpt>
      <trkpt lat="59.9539293" lon="17.7146764">
        <ele>59.7391</ele>
        <time>2014-07-04T07:22:00Z</time>
      </trkpt>
      <trkpt lat="59.9539146" lon="17.7146331">
        <ele>59.2584</ele>
        <time>2014-07-04T07:22:01Z</time>
      </trkpt>
      <trkpt lat="59.9538852" lon="17.7145889">
        <ele>61.181</ele>
        <time>2014-07-04T07:22:02Z</time>
      </trkpt>
      <trkpt lat="59.9538616" lon="17.7145296">
        <ele>62.1423</ele>
        <time>2014-07-04T07:22:03Z</time>
      </trkpt>
      <trkpt lat="59.9538375" lon="17.7144692">
        <ele>63.1036</ele>
        <time>2014-07-04T07:22:04Z</time>
      </trkpt>
      <trkpt lat="59.9538217" lon="17.7144261">
        <ele>63.1036</ele>
        <time>2014-07-04T07:22:05Z</time>
      </trkpt>
      <trkpt lat="59.9538026" lon="17.7143722">
        <ele>64.5457</ele>
        <time>2014-07-04T07:22:06Z</time>
      </trkpt>
      <trkpt lat="59.9537934" lon="17.7143224">
        <ele>64.5457</ele>
        <time>2014-07-04T07:22:07Z</time>
      </trkpt>
      <trkpt lat="59.9537852" lon="17.7142788">
        <ele>64.5457</ele>
        <time>2014-07-04T07:22:08Z</time>
      </trkpt>
      <trkpt lat="59.9537753" lon="17.7142263">
        <ele>65.5071</ele>
        <time>2014-07-04T07:22:09Z</time>
      </trkpt>
      <trkpt lat="59.9537621" lon="17.7141609">
        <ele>66.949</ele>
        <time>2014-07-04T07:22:10Z</time>
      </trkpt>
      <trkpt lat="59.9537459" lon="17.7140968">
        <ele>68.8716</ele>
        <time>2014-07-04T07:22:11Z</time>
      </trkpt>
      <trkpt lat="59.9537375" lon="17.7140421">
        <ele>69.3523</ele>
        <time>2014-07-04T07:22:12Z</time>
      </trkpt>
      <trkpt lat="59.9537401" lon="17.7139955">
        <ele>68.3909</ele>
        <time>2014-07-04T07:22:13Z</time>
      </trkpt>
      <trkpt lat="59.9537395" lon="17.7139505">
        <ele>68.3909</ele>
        <time>2014-07-04T07:22:14Z</time>
      </trkpt>
      <trkpt lat="59.9537411" lon="17.7139127">
        <ele>67.9103</ele>
        <time>2014-07-04T07:22:15Z</time>
      </trkpt>
      <trkpt lat="59.9537425" lon="17.7138692">
        <ele>67.9103</ele>
        <time>2014-07-04T07:22:16Z</time>
      </trkpt>
      <trkpt lat="59.953741" lon="17.7138159">
        <ele>67.9103</ele>
        <time>2014-07-04T07:22:17Z</time>
      </trkpt>
      <trkpt lat="59.9537393" lon="17.7137651">
        <ele>67.9103</ele>
        <time>2014-07-04T07:22:18Z</time>
      </trkpt>
      <trkpt lat="59.9537336" lon="17.7137145">
        <ele>67.9103</ele>
        <time>2014-07-04T07:22:19Z</time>
      </trkpt>
      <trkpt lat="59.9537342" lon="17.7136684">
        <ele>67.4297</ele>
        <time>2014-07-04T07:22:20Z</time>
      </trkpt>
      <trkpt lat="59.9537342" lon="17.7136227">
        <ele>66.949</ele>
        <time>2014-07-04T07:22:21Z</time>
      </trkpt>
      <trkpt lat="59.9537292" lon="17.7135674">
        <ele>66.949</ele>
        <time>2014-07-04T07:22:22Z</time>
      </trkpt>
      <trkpt lat="59.9537249" lon="17.7135118">
        <ele>66.949</ele>
        <time>2014-07-04T07:22:23Z</time>
      </trkpt>
      <trkpt lat="59.9537283" lon="17.713474">
        <ele>65.5071</ele>
        <time>2014-07-04T07:22:24Z</time>
      </trkpt>
      <trkpt lat="59.9537261" lon="17.7134263">
        <ele>65.0264</ele>
        <time>2014-07-04T07:22:25Z</time>
      </trkpt>
      <trkpt lat="59.953723" lon="17.7133738">
        <ele>65.0264</ele>
        <time>2014-07-04T07:22:26Z</time>
      </trkpt>
      <trkpt lat="59.9537252" lon="17.71333">
        <ele>64.0651</ele>
        <time>2014-07-04T07:22:27Z</time>
      </trkpt>
      <trkpt lat="59.9537339" lon="17.7132953">
        <ele>62.6229</ele>
        <time>2014-07-04T07:22:28Z</time>
      </trkpt>
      <trkpt lat="59.9537471" lon="17.7132637">
        <ele>60.7003</ele>
        <time>2014-07-04T07:22:29Z</time>
      </trkpt>
      <trkpt lat="59.9537484" lon="17.7132336">
        <ele>59.7391</ele>
        <time>2014-07-04T07:22:30Z</time>
      </trkpt>
      <trkpt lat="59.9537379" lon="17.713193">
        <ele>58.7777</ele>
        <time>2014-07-04T07:22:31Z</time>
      </trkpt>
      <trkpt lat="59.9537334" lon="17.7131667">
        <ele>56.8551</ele>
        <time>2014-07-04T07:22:32Z</time>
      </trkpt>
      <trkpt lat="59.9537176" lon="17.7131374">
        <ele>56.3745</ele>
        <time>2014-07-04T07:22:33Z</time>
      </trkpt>
      <trkpt lat="59.9537005" lon="17.7131267">
        <ele>54.4518</ele>
        <time>2014-07-04T07:22:34Z</time>
      </trkpt>
      <trkpt lat="59.9536821" lon="17.7131177">
        <ele>52.5292</ele>
        <time>2014-07-04T07:22:35Z</time>
      </trkpt>
      <trkpt lat="59.9536624" lon="17.7131042">
        <ele>51.0872</ele>
        <time>2014-07-04T07:22:36Z</time>
      </trkpt>
      <trkpt lat="59.9536442" lon="17.7131009">
        <ele>50.126</ele>
        <time>2014-07-04T07:22:37Z</time>
      </trkpt>
      <trkpt lat="59.953623" lon="17.7130959">
        <ele>49.6453</ele>
        <time>2014-07-04T07:22:38Z</time>
      </trkpt>
      <trkpt lat="59.9536027" lon="17.7131048">
        <ele>48.2034</ele>
        <time>2014-07-04T07:22:39Z</time>
      </trkpt>
      <trkpt lat="59.9535769" lon="17.7131161">
        <ele>47.7225</ele>
        <time>2014-07-04T07:22:40Z</time>
      </trkpt>
      <trkpt lat="59.9535479" lon="17.7131373">
        <ele>48.2034</ele>
        <time>2014-07-04T07:22:41Z</time>
      </trkpt>
      <trkpt lat="59.9535264" lon="17.7131477">
        <ele>47.7225</ele>
        <time>2014-07-04T07:22:42Z</time>
      </trkpt>
      <trkpt lat="59.9535028" lon="17.7131653">
        <ele>48.2034</ele>
        <time>2014-07-04T07:22:43Z</time>
      </trkpt>
      <trkpt lat="59.9534769" lon="17.7131835">
        <ele>48.2034</ele>
        <time>2014-07-04T07:22:44Z</time>
      </trkpt>
      <trkpt lat="59.9534521" lon="17.7132129">
        <ele>48.2034</ele>
        <time>2014-07-04T07:22:45Z</time>
      </trkpt>
      <trkpt lat="59.9534259" lon="17.7132407">
        <ele>48.684</ele>
        <time>2014-07-04T07:22:46Z</time>
      </trkpt>
      <trkpt lat="59.9534084" lon="17.7132497">
        <ele>47.7225</ele>
        <time>2014-07-04T07:22:47Z</time>
      </trkpt>
      <trkpt lat="59.9533886" lon="17.7132754">
        <ele>48.2034</ele>
        <time>2014-07-04T07:22:48Z</time>
      </trkpt>
      <trkpt lat="59.9533655" lon="17.7133247">
        <ele>48.2034</ele>
        <time>2014-07-04T07:22:49Z</time>
      </trkpt>
      <trkpt lat="59.9533438" lon="17.713372">
        <ele>48.2034</ele>
        <time>2014-07-04T07:22:50Z</time>
      </trkpt>
      <trkpt lat="59.9533253" lon="17.7133994">
        <ele>48.2034</ele>
        <time>2014-07-04T07:22:51Z</time>
      </trkpt>
      <trkpt lat="59.9533063" lon="17.7134242">
        <ele>47.7225</ele>
        <time>2014-07-04T07:22:52Z</time>
      </trkpt>
      <trkpt lat="59.9532863" lon="17.7134647">
        <ele>47.7225</ele>
        <time>2014-07-04T07:22:53Z</time>
      </trkpt>
      <trkpt lat="59.9532706" lon="17.7135025">
        <ele>47.7225</ele>
        <time>2014-07-04T07:22:54Z</time>
      </trkpt>
      <trkpt lat="59.9532526" lon="17.7135304">
        <ele>47.7225</ele>
        <time>2014-07-04T07:22:55Z</time>
      </trkpt>
      <trkpt lat="59.9532322" lon="17.7135491">
        <ele>47.7225</ele>
        <time>2014-07-04T07:22:56Z</time>
      </trkpt>
      <trkpt lat="59.9532081" lon="17.7135611">
        <ele>47.7225</ele>
        <time>2014-07-04T07:22:57Z</time>
      </trkpt>
      <trkpt lat="59.9531836" lon="17.7135793">
        <ele>47.7225</ele>
        <time>2014-07-04T07:22:58Z</time>
      </trkpt>
      <trkpt lat="59.9531587" lon="17.7136315">
        <ele>48.2034</ele>
        <time>2014-07-04T07:22:59Z</time>
      </trkpt>
      <trkpt lat="59.9531309" lon="17.7136999">
        <ele>49.6453</ele>
        <time>2014-07-04T07:23:00Z</time>
      </trkpt>
      <trkpt lat="59.9531089" lon="17.713749">
        <ele>49.6453</ele>
        <time>2014-07-04T07:23:01Z</time>
      </trkpt>
      <trkpt lat="59.9530913" lon="17.7137843">
        <ele>49.6453</ele>
        <time>2014-07-04T07:23:02Z</time>
      </trkpt>
      <trkpt lat="59.9530708" lon="17.7138149">
        <ele>49.1646</ele>
        <time>2014-07-04T07:23:03Z</time>
      </trkpt>
      <trkpt lat="59.9530469" lon="17.7138216">
        <ele>49.1646</ele>
        <time>2014-07-04T07:23:04Z</time>
      </trkpt>
      <trkpt lat="59.9530231" lon="17.7138321">
        <ele>49.1646</ele>
        <time>2014-07-04T07:23:05Z</time>
      </trkpt>
      <trkpt lat="59.9530022" lon="17.7138427">
        <ele>48.684</ele>
        <time>2014-07-04T07:23:06Z</time>
      </trkpt>
      <trkpt lat="59.9529781" lon="17.7138687">
        <ele>48.684</ele>
        <time>2014-07-04T07:23:07Z</time>
      </trkpt>
      <trkpt lat="59.9529514" lon="17.7139019">
        <ele>48.684</ele>
        <time>2014-07-04T07:23:08Z</time>
      </trkpt>
      <trkpt lat="59.9529255" lon="17.7139288">
        <ele>48.684</ele>
        <time>2014-07-04T07:23:09Z</time>
      </trkpt>
      <trkpt lat="59.9529064" lon="17.7139371">
        <ele>48.2034</ele>
        <time>2014-07-04T07:23:10Z</time>
      </trkpt>
      <trkpt lat="59.952888" lon="17.7139189">
        <ele>47.7225</ele>
        <time>2014-07-04T07:23:11Z</time>
      </trkpt>
      <trkpt lat="59.952866" lon="17.7139081">
        <ele>47.2418</ele>
        <time>2014-07-04T07:23:12Z</time>
      </trkpt>
      <trkpt lat="59.9528435" lon="17.7139055">
        <ele>46.2806</ele>
        <time>2014-07-04T07:23:13Z</time>
      </trkpt>
      <trkpt lat="59.9528209" lon="17.7138801">
        <ele>46.2806</ele>
        <time>2014-07-04T07:23:14Z</time>
      </trkpt>
      <trkpt lat="59.9527963" lon="17.71384">
        <ele>46.2806</ele>
        <time>2014-07-04T07:23:15Z</time>
      </trkpt>
      <trkpt lat="59.9527756" lon="17.7137947">
        <ele>46.2806</ele>
        <time>2014-07-04T07:23:16Z</time>
      </trkpt>
      <trkpt lat="59.9527563" lon="17.7137604">
        <ele>46.2806</ele>
        <time>2014-07-04T07:23:17Z</time>
      </trkpt>
      <trkpt lat="59.9527365" lon="17.7137074">
        <ele>45.7999</ele>
        <time>2014-07-04T07:23:18Z</time>
      </trkpt>
      <trkpt lat="59.9527201" lon="17.7136642">
        <ele>45.3192</ele>
        <time>2014-07-04T07:23:19Z</time>
      </trkpt>
      <trkpt lat="59.9527025" lon="17.7136362">
        <ele>44.8386</ele>
        <time>2014-07-04T07:23:20Z</time>
      </trkpt>
      <trkpt lat="59.9526843" lon="17.7136003">
        <ele>44.8386</ele>
        <time>2014-07-04T07:23:21Z</time>
      </trkpt>
      <trkpt lat="59.9526658" lon="17.7135585">
        <ele>45.3192</ele>
        <time>2014-07-04T07:23:22Z</time>
      </trkpt>
      <trkpt lat="59.9526495" lon="17.7135223">
        <ele>44.8386</ele>
        <time>2014-07-04T07:23:23Z</time>
      </trkpt>
      <trkpt lat="59.9526326" lon="17.713489">
        <ele>44.8386</ele>
        <time>2014-07-04T07:23:24Z</time>
      </trkpt>
      <trkpt lat="59.9526148" lon="17.7134502">
        <ele>44.8386</ele>
        <time>2014-07-04T07:23:25Z</time>
      </trkpt>
      <trkpt lat="59.9525957" lon="17.7134113">
        <ele>44.8386</ele>
        <time>2014-07-04T07:23:26Z</time>
      </trkpt>
      <trkpt lat="59.9525777" lon="17.7133766">
        <ele>44.8386</ele>
        <time>2014-07-04T07:23:27Z</time>
      </trkpt>
      <trkpt lat="59.9525614" lon="17.7133373">
        <ele>44.358</ele>
        <time>2014-07-04T07:23:28Z</time>
      </trkpt>
      <trkpt lat="59.9525445" lon="17.7133003">
        <ele>44.358</ele>
        <time>2014-07-04T07:23:29Z</time>
      </trkpt>
      <trkpt lat="59.9525265" lon="17.7132616">
        <ele>44.8386</ele>
        <time>2014-07-04T07:23:30Z</time>
      </trkpt>
      <trkpt lat="59.9525111" lon="17.7132249">
        <ele>44.8386</ele>
        <time>2014-07-04T07:23:31Z</time>
      </trkpt>
      <trkpt lat="59.9524947" lon="17.7131868">
        <ele>44.8386</ele>
        <time>2014-07-04T07:23:32Z</time>
      </trkpt>
      <trkpt lat="59.9524797" lon="17.7131389">
        <ele>44.8386</ele>
        <time>2014-07-04T07:23:33Z</time>
      </trkpt>
      <trkpt lat="59.952462" lon="17.7130954">
        <ele>44.8386</ele>
        <time>2014-07-04T07:23:34Z</time>
      </trkpt>
      <trkpt lat="59.9524449" lon="17.713048">
        <ele>45.3192</ele>
        <time>2014-07-04T07:23:35Z</time>
      </trkpt>
      <trkpt lat="59.9524267" lon="17.7130051">
        <ele>45.7999</ele>
        <time>2014-07-04T07:23:36Z</time>
      </trkpt>
      <trkpt lat="59.9524097" lon="17.7129632">
        <ele>45.7999</ele>
        <time>2014-07-04T07:23:37Z</time>
      </trkpt>
      <trkpt lat="59.9523913" lon="17.7129203">
        <ele>46.2806</ele>
        <time>2014-07-04T07:23:38Z</time>
      </trkpt>
      <trkpt lat="59.9523746" lon="17.7128822">
        <ele>46.2806</ele>
        <time>2014-07-04T07:23:39Z</time>
      </trkpt>
      <trkpt lat="59.9523575" lon="17.7128403">
        <ele>46.7612</ele>
        <time>2014-07-04T07:23:40Z</time>
      </trkpt>
      <trkpt lat="59.9523415" lon="17.7127978">
        <ele>46.7612</ele>
        <time>2014-07-04T07:23:41Z</time>
      </trkpt>
      <trkpt lat="59.9523259" lon="17.7127566">
        <ele>46.7612</ele>
        <time>2014-07-04T07:23:42Z</time>
      </trkpt>
      <trkpt lat="59.9523097" lon="17.7127162">
        <ele>47.2418</ele>
        <time>2014-07-04T07:23:43Z</time>
      </trkpt>
      <trkpt lat="59.9522926" lon="17.7126747">
        <ele>47.7225</ele>
        <time>2014-07-04T07:23:44Z</time>
      </trkpt>
      <trkpt lat="59.9522735" lon="17.7126292">
        <ele>48.2034</ele>
        <time>2014-07-04T07:23:45Z</time>
      </trkpt>
      <trkpt lat="59.9522611" lon="17.7125904">
        <ele>48.2034</ele>
        <time>2014-07-04T07:23:46Z</time>
      </trkpt>
      <trkpt lat="59.9522529" lon="17.7125509">
        <ele>47.7225</ele>
        <time>2014-07-04T07:23:47Z</time>
      </trkpt>
      <trkpt lat="59.9522446" lon="17.7125013">
        <ele>47.7225</ele>
        <time>2014-07-04T07:23:48Z</time>
      </trkpt>
      <trkpt lat="59.9522374" lon="17.7124481">
        <ele>48.2034</ele>
        <time>2014-07-04T07:23:49Z</time>
      </trkpt>
      <trkpt lat="59.9522346" lon="17.7123923">
        <ele>48.684</ele>
        <time>2014-07-04T07:23:50Z</time>
      </trkpt>
      <trkpt lat="59.9522346" lon="17.7123412">
        <ele>49.1646</ele>
        <time>2014-07-04T07:23:51Z</time>
      </trkpt>
      <trkpt lat="59.9522367" lon="17.712292">
        <ele>49.1646</ele>
        <time>2014-07-04T07:23:52Z</time>
      </trkpt>
      <trkpt lat="59.9522387" lon="17.7122325">
        <ele>49.1646</ele>
        <time>2014-07-04T07:23:53Z</time>
      </trkpt>
      <trkpt lat="59.952239" lon="17.7121718">
        <ele>49.6453</ele>
        <time>2014-07-04T07:23:54Z</time>
      </trkpt>
      <trkpt lat="59.9522368" lon="17.7121073">
        <ele>50.6066</ele>
        <time>2014-07-04T07:23:55Z</time>
      </trkpt>
      <trkpt lat="59.9522409" lon="17.7120493">
        <ele>50.6066</ele>
        <time>2014-07-04T07:23:56Z</time>
      </trkpt>
      <trkpt lat="59.9522461" lon="17.7119973">
        <ele>52.0486</ele>
        <time>2014-07-04T07:23:57Z</time>
      </trkpt>
      <trkpt lat="59.9522586" lon="17.7119504">
        <ele>52.5292</ele>
        <time>2014-07-04T07:23:58Z</time>
      </trkpt>
      <trkpt lat="59.9522799" lon="17.7119179">
        <ele>52.0486</ele>
        <time>2014-07-04T07:23:59Z</time>
      </trkpt>
      <trkpt lat="59.9522985" lon="17.7118801">
        <ele>52.5292</ele>
        <time>2014-07-04T07:24:00Z</time>
      </trkpt>
      <trkpt lat="59.952317" lon="17.7118413">
        <ele>53.0098</ele>
        <time>2014-07-04T07:24:01Z</time>
      </trkpt>
      <trkpt lat="59.9523346" lon="17.7118028">
        <ele>53.0098</ele>
        <time>2014-07-04T07:24:02Z</time>
      </trkpt>
      <trkpt lat="59.9523498" lon="17.7117593">
        <ele>53.0098</ele>
        <time>2014-07-04T07:24:03Z</time>
      </trkpt>
      <trkpt lat="59.9523649" lon="17.7117131">
        <ele>53.4905</ele>
        <time>2014-07-04T07:24:04Z</time>
      </trkpt>
      <trkpt lat="59.9523804" lon="17.7116696">
        <ele>53.4905</ele>
        <time>2014-07-04T07:24:05Z</time>
      </trkpt>
      <trkpt lat="59.9523938" lon="17.7116194">
        <ele>54.4518</ele>
        <time>2014-07-04T07:24:06Z</time>
      </trkpt>
      <trkpt lat="59.9524103" lon="17.7115754">
        <ele>54.4518</ele>
        <time>2014-07-04T07:24:07Z</time>
      </trkpt>
      <trkpt lat="59.9524263" lon="17.7115356">
        <ele>54.4518</ele>
        <time>2014-07-04T07:24:08Z</time>
      </trkpt>
      <trkpt lat="59.9524449" lon="17.7114968">
        <ele>54.4518</ele>
        <time>2014-07-04T07:24:09Z</time>
      </trkpt>
      <trkpt lat="59.9524632" lon="17.71146">
        <ele>53.9712</ele>
        <time>2014-07-04T07:24:10Z</time>
      </trkpt>
      <trkpt lat="59.9524773" lon="17.7114225">
        <ele>53.9712</ele>
        <time>2014-07-04T07:24:11Z</time>
      </trkpt>
      <trkpt lat="59.9524933" lon="17.7113823">
        <ele>54.4518</ele>
        <time>2014-07-04T07:24:12Z</time>
      </trkpt>
      <trkpt lat="59.9525144" lon="17.711348">
        <ele>53.9712</ele>
        <time>2014-07-04T07:24:13Z</time>
      </trkpt>
      <trkpt lat="59.952535" lon="17.7113103">
        <ele>53.9712</ele>
        <time>2014-07-04T07:24:14Z</time>
      </trkpt>
      <trkpt lat="59.9525569" lon="17.7112791">
        <ele>53.9712</ele>
        <time>2014-07-04T07:24:15Z</time>
      </trkpt>
      <trkpt lat="59.9525776" lon="17.7112511">
        <ele>53.9712</ele>
        <time>2014-07-04T07:24:16Z</time>
      </trkpt>
      <trkpt lat="59.952599" lon="17.7112212">
        <ele>53.0098</ele>
        <time>2014-07-04T07:24:17Z</time>
      </trkpt>
      <trkpt lat="59.9526212" lon="17.711191">
        <ele>53.0098</ele>
        <time>2014-07-04T07:24:18Z</time>
      </trkpt>
      <trkpt lat="59.9526424" lon="17.7111596">
        <ele>53.4905</ele>
        <time>2014-07-04T07:24:19Z</time>
      </trkpt>
      <trkpt lat="59.9526668" lon="17.7111342">
        <ele>53.4905</ele>
        <time>2014-07-04T07:24:20Z</time>
      </trkpt>
      <trkpt lat="59.9526906" lon="17.7111118">
        <ele>53.9712</ele>
        <time>2014-07-04T07:24:21Z</time>
      </trkpt>
      <trkpt lat="59.9527138" lon="17.7110843">
        <ele>54.4518</ele>
        <time>2014-07-04T07:24:22Z</time>
      </trkpt>
      <trkpt lat="59.9527393" lon="17.7110575">
        <ele>54.4518</ele>
        <time>2014-07-04T07:24:23Z</time>
      </trkpt>
      <trkpt lat="59.9527621" lon="17.7110254">
        <ele>54.4518</ele>
        <time>2014-07-04T07:24:24Z</time>
      </trkpt>
      <trkpt lat="59.952788" lon="17.7109954">
        <ele>54.4518</ele>
        <time>2014-07-04T07:24:25Z</time>
      </trkpt>
      <trkpt lat="59.9528129" lon="17.7109689">
        <ele>53.9712</ele>
        <time>2014-07-04T07:24:26Z</time>
      </trkpt>
      <trkpt lat="59.9528326" lon="17.7109477">
        <ele>53.9712</ele>
        <time>2014-07-04T07:24:27Z</time>
      </trkpt>
      <trkpt lat="59.9528584" lon="17.7109311">
        <ele>53.9712</ele>
        <time>2014-07-04T07:24:28Z</time>
      </trkpt>
      <trkpt lat="59.9528818" lon="17.7109094">
        <ele>54.4518</ele>
        <time>2014-07-04T07:24:29Z</time>
      </trkpt>
      <trkpt lat="59.9528992" lon="17.7108787">
        <ele>54.9324</ele>
        <time>2014-07-04T07:24:30Z</time>
      </trkpt>
      <trkpt lat="59.9529154" lon="17.7108451">
        <ele>54.9324</ele>
        <time>2014-07-04T07:24:31Z</time>
      </trkpt>
      <trkpt lat="59.9529308" lon="17.7108118">
        <ele>55.4131</ele>
        <time>2014-07-04T07:24:32Z</time>
      </trkpt>
      <trkpt lat="59.9529437" lon="17.7107747">
        <ele>55.4131</ele>
        <time>2014-07-04T07:24:33Z</time>
      </trkpt>
      <trkpt lat="59.952947" lon="17.7107281">
        <ele>55.4131</ele>
        <time>2014-07-04T07:24:34Z</time>
      </trkpt>
      <trkpt lat="59.9529423" lon="17.7106872">
        <ele>54.9324</ele>
        <time>2014-07-04T07:24:35Z</time>
      </trkpt>
      <trkpt lat="59.952931" lon="17.7106439">
        <ele>54.9324</ele>
        <time>2014-07-04T07:24:36Z</time>
      </trkpt>
      <trkpt lat="59.9529195" lon="17.7106031">
        <ele>53.9712</ele>
        <time>2014-07-04T07:24:37Z</time>
      </trkpt>
      <trkpt lat="59.9529053" lon="17.7105731">
        <ele>53.9712</ele>
        <time>2014-07-04T07:24:38Z</time>
      </trkpt>
      <trkpt lat="59.9528863" lon="17.7105412">
        <ele>53.9712</ele>
        <time>2014-07-04T07:24:39Z</time>
      </trkpt>
      <trkpt lat="59.9528666" lon="17.7105114">
        <ele>53.4905</ele>
        <time>2014-07-04T07:24:40Z</time>
      </trkpt>
      <trkpt lat="59.9528445" lon="17.7104826">
        <ele>53.4905</ele>
        <time>2014-07-04T07:24:41Z</time>
      </trkpt>
      <trkpt lat="59.952824" lon="17.7104585">
        <ele>53.0098</ele>
        <time>2014-07-04T07:24:42Z</time>
      </trkpt>
      <trkpt lat="59.9528055" lon="17.7104369">
        <ele>53.0098</ele>
        <time>2014-07-04T07:24:43Z</time>
      </trkpt>
      <trkpt lat="59.9527843" lon="17.7104099">
        <ele>53.0098</ele>
        <time>2014-07-04T07:24:44Z</time>
      </trkpt>
      <trkpt lat="59.9527631" lon="17.7103795">
        <ele>53.0098</ele>
        <time>2014-07-04T07:24:45Z</time>
      </trkpt>
      <trkpt lat="59.9527419" lon="17.710354">
        <ele>53.0098</ele>
        <time>2014-07-04T07:24:46Z</time>
      </trkpt>
      <trkpt lat="59.9527183" lon="17.7103223">
        <ele>53.0098</ele>
        <time>2014-07-04T07:24:47Z</time>
      </trkpt>
      <trkpt lat="59.9526946" lon="17.7102844">
        <ele>53.0098</ele>
        <time>2014-07-04T07:24:48Z</time>
      </trkpt>
      <trkpt lat="59.9526725" lon="17.7102443">
        <ele>53.4905</ele>
        <time>2014-07-04T07:24:49Z</time>
      </trkpt>
      <trkpt lat="59.9526484" lon="17.7102057">
        <ele>53.0098</ele>
        <time>2014-07-04T07:24:50Z</time>
      </trkpt>
      <trkpt lat="59.9526246" lon="17.7101756">
        <ele>53.4905</ele>
        <time>2014-07-04T07:24:51Z</time>
      </trkpt>
      <trkpt lat="59.9526026" lon="17.7101489">
        <ele>53.4905</ele>
        <time>2014-07-04T07:24:52Z</time>
      </trkpt>
      <trkpt lat="59.9525791" lon="17.7101199">
        <ele>53.9712</ele>
        <time>2014-07-04T07:24:53Z</time>
      </trkpt>
      <trkpt lat="59.952556" lon="17.7100976">
        <ele>54.4518</ele>
        <time>2014-07-04T07:24:54Z</time>
      </trkpt>
      <trkpt lat="59.9525361" lon="17.7100738">
        <ele>53.9712</ele>
        <time>2014-07-04T07:24:55Z</time>
      </trkpt>
      <trkpt lat="59.952517" lon="17.7100417">
        <ele>53.4905</ele>
        <time>2014-07-04T07:24:56Z</time>
      </trkpt>
      <trkpt lat="59.9524974" lon="17.7100138">
        <ele>53.4905</ele>
        <time>2014-07-04T07:24:57Z</time>
      </trkpt>
      <trkpt lat="59.9524724" lon="17.7099857">
        <ele>53.9712</ele>
        <time>2014-07-04T07:24:58Z</time>
      </trkpt>
      <trkpt lat="59.9524537" lon="17.7099622">
        <ele>53.4905</ele>
        <time>2014-07-04T07:24:59Z</time>
      </trkpt>
      <trkpt lat="59.952435" lon="17.7099324">
        <ele>53.9712</ele>
        <time>2014-07-04T07:25:00Z</time>
      </trkpt>
      <trkpt lat="59.9524149" lon="17.7099028">
        <ele>53.9712</ele>
        <time>2014-07-04T07:25:01Z</time>
      </trkpt>
      <trkpt lat="59.9523927" lon="17.7098657">
        <ele>54.4518</ele>
        <time>2014-07-04T07:25:02Z</time>
      </trkpt>
      <trkpt lat="59.9523705" lon="17.7098236">
        <ele>53.9712</ele>
        <time>2014-07-04T07:25:03Z</time>
      </trkpt>
      <trkpt lat="59.9523492" lon="17.7098024">
        <ele>53.4905</ele>
        <time>2014-07-04T07:25:04Z</time>
      </trkpt>
      <trkpt lat="59.9523263" lon="17.7097763">
        <ele>53.9712</ele>
        <time>2014-07-04T07:25:05Z</time>
      </trkpt>
      <trkpt lat="59.952305" lon="17.7097412">
        <ele>53.4905</ele>
        <time>2014-07-04T07:25:06Z</time>
      </trkpt>
      <trkpt lat="59.9522839" lon="17.7097053">
        <ele>53.4905</ele>
        <time>2014-07-04T07:25:07Z</time>
      </trkpt>
      <trkpt lat="59.9522663" lon="17.7096687">
        <ele>52.5292</ele>
        <time>2014-07-04T07:25:08Z</time>
      </trkpt>
      <trkpt lat="59.9522434" lon="17.7096184">
        <ele>53.0098</ele>
        <time>2014-07-04T07:25:09Z</time>
      </trkpt>
      <trkpt lat="59.9522197" lon="17.7095811">
        <ele>53.0098</ele>
        <time>2014-07-04T07:25:10Z</time>
      </trkpt>
      <trkpt lat="59.952195" lon="17.7095545">
        <ele>53.0098</ele>
        <time>2014-07-04T07:25:11Z</time>
      </trkpt>
      <trkpt lat="59.9521747" lon="17.7095257">
        <ele>52.5292</ele>
        <time>2014-07-04T07:25:12Z</time>
      </trkpt>
      <trkpt lat="59.9521601" lon="17.7094915">
        <ele>51.5679</ele>
        <time>2014-07-04T07:25:13Z</time>
      </trkpt>
      <trkpt lat="59.9521482" lon="17.7094589">
        <ele>50.6066</ele>
        <time>2014-07-04T07:25:14Z</time>
      </trkpt>
      <trkpt lat="59.9521317" lon="17.709423">
        <ele>49.6453</ele>
        <time>2014-07-04T07:25:15Z</time>
      </trkpt>
      <trkpt lat="59.9521125" lon="17.7093815">
        <ele>49.6453</ele>
        <time>2014-07-04T07:25:16Z</time>
      </trkpt>
      <trkpt lat="59.9520929" lon="17.7093351">
        <ele>50.126</ele>
        <time>2014-07-04T07:25:17Z</time>
      </trkpt>
      <trkpt lat="59.9520774" lon="17.7092993">
        <ele>49.6453</ele>
        <time>2014-07-04T07:25:18Z</time>
      </trkpt>
      <trkpt lat="59.9520571" lon="17.7092647">
        <ele>49.1646</ele>
        <time>2014-07-04T07:25:19Z</time>
      </trkpt>
      <trkpt lat="59.9520385" lon="17.70923">
        <ele>48.2034</ele>
        <time>2014-07-04T07:25:20Z</time>
      </trkpt>
      <trkpt lat="59.9520172" lon="17.7091909">
        <ele>48.2034</ele>
        <time>2014-07-04T07:25:21Z</time>
      </trkpt>
      <trkpt lat="59.9519948" lon="17.7091492">
        <ele>48.2034</ele>
        <time>2014-07-04T07:25:22Z</time>
      </trkpt>
      <trkpt lat="59.9519768" lon="17.7091155">
        <ele>47.7225</ele>
        <time>2014-07-04T07:25:23Z</time>
      </trkpt>
      <trkpt lat="59.9519576" lon="17.7090884">
        <ele>47.7225</ele>
        <time>2014-07-04T07:25:24Z</time>
      </trkpt>
      <trkpt lat="59.9519387" lon="17.7090581">
        <ele>47.2418</ele>
        <time>2014-07-04T07:25:25Z</time>
      </trkpt>
      <trkpt lat="59.9519214" lon="17.7090233">
        <ele>47.2418</ele>
        <time>2014-07-04T07:25:26Z</time>
      </trkpt>
      <trkpt lat="59.9519053" lon="17.7089871">
        <ele>47.2418</ele>
        <time>2014-07-04T07:25:27Z</time>
      </trkpt>
      <trkpt lat="59.9518918" lon="17.7089549">
        <ele>46.7612</ele>
        <time>2014-07-04T07:25:28Z</time>
      </trkpt>
      <trkpt lat="59.9518767" lon="17.7089218">
        <ele>47.2418</ele>
        <time>2014-07-04T07:25:29Z</time>
      </trkpt>
      <trkpt lat="59.9518602" lon="17.7088783">
        <ele>47.7225</ele>
        <time>2014-07-04T07:25:30Z</time>
      </trkpt>
      <trkpt lat="59.9518439" lon="17.7088348">
        <ele>47.7225</ele>
        <time>2014-07-04T07:25:31Z</time>
      </trkpt>
      <trkpt lat="59.9518307" lon="17.7087958">
        <ele>47.7225</ele>
        <time>2014-07-04T07:25:32Z</time>
      </trkpt>
      <trkpt lat="59.9518225" lon="17.7087487">
        <ele>47.7225</ele>
        <time>2014-07-04T07:25:33Z</time>
      </trkpt>
      <trkpt lat="59.9518183" lon="17.7086986">
        <ele>47.7225</ele>
        <time>2014-07-04T07:25:34Z</time>
      </trkpt>
      <trkpt lat="59.9518186" lon="17.7086508">
        <ele>47.2418</ele>
        <time>2014-07-04T07:25:35Z</time>
      </trkpt>
      <trkpt lat="59.9518192" lon="17.708598">
        <ele>47.2418</ele>
        <time>2014-07-04T07:25:36Z</time>
      </trkpt>
      <trkpt lat="59.9518208" lon="17.7085472">
        <ele>47.2418</ele>
        <time>2014-07-04T07:25:37Z</time>
      </trkpt>
      <trkpt lat="59.9518232" lon="17.7084974">
        <ele>47.7225</ele>
        <time>2014-07-04T07:25:38Z</time>
      </trkpt>
      <trkpt lat="59.9518204" lon="17.708441">
        <ele>48.684</ele>
        <time>2014-07-04T07:25:39Z</time>
      </trkpt>
      <trkpt lat="59.9518229" lon="17.7083934">
        <ele>49.1646</ele>
        <time>2014-07-04T07:25:40Z</time>
      </trkpt>
      <trkpt lat="59.9518263" lon="17.7083393">
        <ele>50.126</ele>
        <time>2014-07-04T07:25:41Z</time>
      </trkpt>
      <trkpt lat="59.9518375" lon="17.7082841">
        <ele>50.6066</ele>
        <time>2014-07-04T07:25:42Z</time>
      </trkpt>
      <trkpt lat="59.9518474" lon="17.7082321">
        <ele>50.126</ele>
        <time>2014-07-04T07:25:43Z</time>
      </trkpt>
      <trkpt lat="59.9518587" lon="17.708182">
        <ele>50.6066</ele>
        <time>2014-07-04T07:25:44Z</time>
      </trkpt>
      <trkpt lat="59.9518623" lon="17.7081287">
        <ele>50.6066</ele>
        <time>2014-07-04T07:25:45Z</time>
      </trkpt>
      <trkpt lat="59.9518701" lon="17.7080815">
        <ele>49.6453</ele>
        <time>2014-07-04T07:25:46Z</time>
      </trkpt>
      <trkpt lat="59.9518733" lon="17.7080272">
        <ele>49.6453</ele>
        <time>2014-07-04T07:25:47Z</time>
      </trkpt>
      <trkpt lat="59.9518747" lon="17.7079736">
        <ele>49.1646</ele>
        <time>2014-07-04T07:25:48Z</time>
      </trkpt>
      <trkpt lat="59.9518757" lon="17.7079135">
        <ele>49.6453</ele>
        <time>2014-07-04T07:25:49Z</time>
      </trkpt>
      <trkpt lat="59.9518825" lon="17.7078547">
        <ele>49.1646</ele>
        <time>2014-07-04T07:25:50Z</time>
      </trkpt>
      <trkpt lat="59.9518904" lon="17.7078028">
        <ele>49.6453</ele>
        <time>2014-07-04T07:25:51Z</time>
      </trkpt>
      <trkpt lat="59.9519001" lon="17.7077536">
        <ele>49.1646</ele>
        <time>2014-07-04T07:25:52Z</time>
      </trkpt>
      <trkpt lat="59.951911" lon="17.707708">
        <ele>49.1646</ele>
        <time>2014-07-04T07:25:53Z</time>
      </trkpt>
      <trkpt lat="59.9519237" lon="17.7076618">
        <ele>49.1646</ele>
        <time>2014-07-04T07:25:54Z</time>
      </trkpt>
      <trkpt lat="59.9519304" lon="17.7076081">
        <ele>49.1646</ele>
        <time>2014-07-04T07:25:55Z</time>
      </trkpt>
      <trkpt lat="59.9519363" lon="17.7075559">
        <ele>49.6453</ele>
        <time>2014-07-04T07:25:56Z</time>
      </trkpt>
      <trkpt lat="59.95194" lon="17.707503">
        <ele>51.0872</ele>
        <time>2014-07-04T07:25:57Z</time>
      </trkpt>
      <trkpt lat="59.9519446" lon="17.7074492">
        <ele>52.0486</ele>
        <time>2014-07-04T07:25:58Z</time>
      </trkpt>
      <trkpt lat="59.9519602" lon="17.70741">
        <ele>53.0098</ele>
        <time>2014-07-04T07:25:59Z</time>
      </trkpt>
      <trkpt lat="59.9519851" lon="17.7073934">
        <ele>52.0486</ele>
        <time>2014-07-04T07:26:00Z</time>
      </trkpt>
      <trkpt lat="59.9520099" lon="17.707397">
        <ele>51.0872</ele>
        <time>2014-07-04T07:26:01Z</time>
      </trkpt>
      <trkpt lat="59.9520367" lon="17.707421">
        <ele>49.6453</ele>
        <time>2014-07-04T07:26:02Z</time>
      </trkpt>
      <trkpt lat="59.9520653" lon="17.7074466">
        <ele>48.684</ele>
        <time>2014-07-04T07:26:03Z</time>
      </trkpt>
      <trkpt lat="59.9520942" lon="17.7074745">
        <ele>47.7225</ele>
        <time>2014-07-04T07:26:04Z</time>
      </trkpt>
      <trkpt lat="59.9521214" lon="17.7074991">
        <ele>47.2418</ele>
        <time>2014-07-04T07:26:05Z</time>
      </trkpt>
      <trkpt lat="59.9521461" lon="17.7075232">
        <ele>46.2806</ele>
        <time>2014-07-04T07:26:06Z</time>
      </trkpt>
      <trkpt lat="59.952176" lon="17.7075434">
        <ele>45.3192</ele>
        <time>2014-07-04T07:26:07Z</time>
      </trkpt>
      <trkpt lat="59.952202" lon="17.7075669">
        <ele>44.8386</ele>
        <time>2014-07-04T07:26:08Z</time>
      </trkpt>
      <trkpt lat="59.9522291" lon="17.7075924">
        <ele>44.8386</ele>
        <time>2014-07-04T07:26:09Z</time>
      </trkpt>
      <trkpt lat="59.9522523" lon="17.7076167">
        <ele>44.358</ele>
        <time>2014-07-04T07:26:10Z</time>
      </trkpt>
      <trkpt lat="59.9522747" lon="17.707639">
        <ele>43.8773</ele>
        <time>2014-07-04T07:26:11Z</time>
      </trkpt>
      <trkpt lat="59.9522989" lon="17.7076644">
        <ele>42.916</ele>
        <time>2014-07-04T07:26:12Z</time>
      </trkpt>
      <trkpt lat="59.9523197" lon="17.7076882">
        <ele>42.4354</ele>
        <time>2014-07-04T07:26:13Z</time>
      </trkpt>
      <trkpt lat="59.9523425" lon="17.7077112">
        <ele>41.474</ele>
        <time>2014-07-04T07:26:14Z</time>
      </trkpt>
      <trkpt lat="59.952371" lon="17.7077287">
        <ele>40.9934</ele>
        <time>2014-07-04T07:26:15Z</time>
      </trkpt>
      <trkpt lat="59.9523979" lon="17.7077436">
        <ele>40.9934</ele>
        <time>2014-07-04T07:26:16Z</time>
      </trkpt>
      <trkpt lat="59.9524202" lon="17.7077655">
        <ele>40.5128</ele>
        <time>2014-07-04T07:26:17Z</time>
      </trkpt>
      <trkpt lat="59.952442" lon="17.7077888">
        <ele>40.5128</ele>
        <time>2014-07-04T07:26:18Z</time>
      </trkpt>
      <trkpt lat="59.9524631" lon="17.7078127">
        <ele>40.0321</ele>
        <time>2014-07-04T07:26:19Z</time>
      </trkpt>
      <trkpt lat="59.9524907" lon="17.7078391">
        <ele>40.0321</ele>
        <time>2014-07-04T07:26:20Z</time>
      </trkpt>
      <trkpt lat="59.9525166" lon="17.707863">
        <ele>40.5128</ele>
        <time>2014-07-04T07:26:21Z</time>
      </trkpt>
      <trkpt lat="59.9525397" lon="17.7078903">
        <ele>40.5128</ele>
        <time>2014-07-04T07:26:22Z</time>
      </trkpt>
      <trkpt lat="59.9525632" lon="17.7079163">
        <ele>40.0321</ele>
        <time>2014-07-04T07:26:23Z</time>
      </trkpt>
      <trkpt lat="59.9525925" lon="17.7079365">
        <ele>40.5128</ele>
        <time>2014-07-04T07:26:24Z</time>
      </trkpt>
      <trkpt lat="59.9526175" lon="17.7079638">
        <ele>40.5128</ele>
        <time>2014-07-04T07:26:25Z</time>
      </trkpt>
      <trkpt lat="59.9526446" lon="17.7079887">
        <ele>40.5128</ele>
        <time>2014-07-04T07:26:26Z</time>
      </trkpt>
      <trkpt lat="59.9526843" lon="17.7080117">
        <ele>41.9547</ele>
        <time>2014-07-04T07:26:27Z</time>
      </trkpt>
      <trkpt lat="59.9527153" lon="17.7080401">
        <ele>41.9547</ele>
        <time>2014-07-04T07:26:28Z</time>
      </trkpt>
      <trkpt lat="59.952753" lon="17.7080679">
        <ele>43.3966</ele>
        <time>2014-07-04T07:26:29Z</time>
      </trkpt>
      <trkpt lat="59.952781" lon="17.7080953">
        <ele>43.8773</ele>
        <time>2014-07-04T07:26:30Z</time>
      </trkpt>
      <trkpt lat="59.9528017" lon="17.7081177">
        <ele>43.8773</ele>
        <time>2014-07-04T07:26:31Z</time>
      </trkpt>
      <trkpt lat="59.9528231" lon="17.7081391">
        <ele>44.358</ele>
        <time>2014-07-04T07:26:32Z</time>
      </trkpt>
      <trkpt lat="59.9528475" lon="17.708157">
        <ele>44.358</ele>
        <time>2014-07-04T07:26:33Z</time>
      </trkpt>
      <trkpt lat="59.9528713" lon="17.7081649">
        <ele>44.8386</ele>
        <time>2014-07-04T07:26:34Z</time>
      </trkpt>
      <trkpt lat="59.9528921" lon="17.7081622">
        <ele>44.8386</ele>
        <time>2014-07-04T07:26:35Z</time>
      </trkpt>
      <trkpt lat="59.9529375" lon="17.7081327">
        <ele>44.8386</ele>
        <time>2014-07-04T07:26:37Z</time>
      </trkpt>
      <trkpt lat="59.9529587" lon="17.7081277">
        <ele>44.358</ele>
        <time>2014-07-04T07:26:38Z</time>
      </trkpt>
      <trkpt lat="59.9529843" lon="17.7081332">
        <ele>43.8773</ele>
        <time>2014-07-04T07:26:39Z</time>
      </trkpt>
      <trkpt lat="59.9530071" lon="17.7081427">
        <ele>44.358</ele>
        <time>2014-07-04T07:26:40Z</time>
      </trkpt>
      <trkpt lat="59.953031" lon="17.708152">
        <ele>44.358</ele>
        <time>2014-07-04T07:26:41Z</time>
      </trkpt>
      <trkpt lat="59.9530562" lon="17.708167">
        <ele>43.8773</ele>
        <time>2014-07-04T07:26:42Z</time>
      </trkpt>
      <trkpt lat="59.9530802" lon="17.7081924">
        <ele>43.8773</ele>
        <time>2014-07-04T07:26:43Z</time>
      </trkpt>
      <trkpt lat="59.953105" lon="17.7082229">
        <ele>43.3966</ele>
        <time>2014-07-04T07:26:44Z</time>
      </trkpt>
      <trkpt lat="59.9531381" lon="17.7082523">
        <ele>43.8773</ele>
        <time>2014-07-04T07:26:45Z</time>
      </trkpt>
      <trkpt lat="59.9531664" lon="17.7082871">
        <ele>43.8773</ele>
        <time>2014-07-04T07:26:46Z</time>
      </trkpt>
      <trkpt lat="59.9531967" lon="17.7083223">
        <ele>44.8386</ele>
        <time>2014-07-04T07:26:47Z</time>
      </trkpt>
      <trkpt lat="59.9532275" lon="17.7083491">
        <ele>45.7999</ele>
        <time>2014-07-04T07:26:48Z</time>
      </trkpt>
      <trkpt lat="59.9532666" lon="17.708374">
        <ele>47.7225</ele>
        <time>2014-07-04T07:26:49Z</time>
      </trkpt>
      <trkpt lat="59.9532806" lon="17.708413">
        <ele>47.7225</ele>
        <time>2014-07-04T07:26:50Z</time>
      </trkpt>
      <trkpt lat="59.9532919" lon="17.7084431">
        <ele>47.2418</ele>
        <time>2014-07-04T07:26:51Z</time>
      </trkpt>
      <trkpt lat="59.9533161" lon="17.7084757">
        <ele>47.7225</ele>
        <time>2014-07-04T07:26:52Z</time>
      </trkpt>
      <trkpt lat="59.953338" lon="17.7085209">
        <ele>48.2034</ele>
        <time>2014-07-04T07:26:53Z</time>
      </trkpt>
      <trkpt lat="59.953364" lon="17.7085575">
        <ele>48.684</ele>
        <time>2014-07-04T07:26:54Z</time>
      </trkpt>
      <trkpt lat="59.9533855" lon="17.7085991">
        <ele>48.2034</ele>
        <time>2014-07-04T07:26:55Z</time>
      </trkpt>
      <trkpt lat="59.9534109" lon="17.7086379">
        <ele>48.2034</ele>
        <time>2014-07-04T07:26:56Z</time>
      </trkpt>
      <trkpt lat="59.9534365" lon="17.7086716">
        <ele>48.2034</ele>
        <time>2014-07-04T07:26:57Z</time>
      </trkpt>
      <trkpt lat="59.9534689" lon="17.7087057">
        <ele>49.6453</ele>
        <time>2014-07-04T07:26:58Z</time>
      </trkpt>
      <trkpt lat="59.9535002" lon="17.7087331">
        <ele>50.126</ele>
        <time>2014-07-04T07:26:59Z</time>
      </trkpt>
      <trkpt lat="59.9535359" lon="17.7087478">
        <ele>51.5679</ele>
        <time>2014-07-04T07:27:00Z</time>
      </trkpt>
      <trkpt lat="59.9535734" lon="17.7087597">
        <ele>53.0098</ele>
        <time>2014-07-04T07:27:01Z</time>
      </trkpt>
      <trkpt lat="59.9535984" lon="17.7087753">
        <ele>53.4905</ele>
        <time>2014-07-04T07:27:02Z</time>
      </trkpt>
      <trkpt lat="59.9536161" lon="17.7087932">
        <ele>54.4518</ele>
        <time>2014-07-04T07:27:03Z</time>
      </trkpt>
      <trkpt lat="59.9536322" lon="17.7088139">
        <ele>54.4518</ele>
        <time>2014-07-04T07:27:04Z</time>
      </trkpt>
      <trkpt lat="59.9536637" lon="17.7088315">
        <ele>55.4131</ele>
        <time>2014-07-04T07:27:05Z</time>
      </trkpt>
      <trkpt lat="59.9537043" lon="17.7088564">
        <ele>55.8938</ele>
        <time>2014-07-04T07:27:06Z</time>
      </trkpt>
      <trkpt lat="59.9537581" lon="17.7088838">
        <ele>58.2971</ele>
        <time>2014-07-04T07:27:07Z</time>
      </trkpt>
      <trkpt lat="59.953807" lon="17.7089114">
        <ele>59.2584</ele>
        <time>2014-07-04T07:27:08Z</time>
      </trkpt>
      <trkpt lat="59.9538381" lon="17.7089378">
        <ele>59.2584</ele>
        <time>2014-07-04T07:27:09Z</time>
      </trkpt>
      <trkpt lat="59.9538409" lon="17.7089537">
        <ele>58.7777</ele>
        <time>2014-07-04T07:27:10Z</time>
      </trkpt>
      <trkpt lat="59.9538696" lon="17.708983">
        <ele>58.2971</ele>
        <time>2014-07-04T07:27:11Z</time>
      </trkpt>
      <trkpt lat="59.9539095" lon="17.7090109">
        <ele>58.7777</ele>
        <time>2014-07-04T07:27:12Z</time>
      </trkpt>
      <trkpt lat="59.9539317" lon="17.7090284">
        <ele>58.7777</ele>
        <time>2014-07-04T07:27:13Z</time>
      </trkpt>
      <trkpt lat="59.953955" lon="17.7090394">
        <ele>58.7777</ele>
        <time>2014-07-04T07:27:14Z</time>
      </trkpt>
      <trkpt lat="59.9539686" lon="17.7090636">
        <ele>57.8165</ele>
        <time>2014-07-04T07:27:15Z</time>
      </trkpt>
      <trkpt lat="59.9539866" lon="17.7090844">
        <ele>57.8165</ele>
        <time>2014-07-04T07:27:16Z</time>
      </trkpt>
      <trkpt lat="59.9540012" lon="17.7090984">
        <ele>57.8165</ele>
        <time>2014-07-04T07:27:17Z</time>
      </trkpt>
      <trkpt lat="59.9540037" lon="17.7091135">
        <ele>56.8551</ele>
        <time>2014-07-04T07:27:18Z</time>
      </trkpt>
      <trkpt lat="59.9540289" lon="17.7091279">
        <ele>57.3358</ele>
        <time>2014-07-04T07:27:19Z</time>
      </trkpt>
      <trkpt lat="59.9540605" lon="17.7091439">
        <ele>56.8551</ele>
        <time>2014-07-04T07:27:20Z</time>
      </trkpt>
      <trkpt lat="59.954103" lon="17.7091673">
        <ele>57.3358</ele>
        <time>2014-07-04T07:27:21Z</time>
      </trkpt>
      <trkpt lat="59.9541363" lon="17.7091976">
        <ele>57.3358</ele>
        <time>2014-07-04T07:27:22Z</time>
      </trkpt>
      <trkpt lat="59.9541638" lon="17.7092332">
        <ele>57.8165</ele>
        <time>2014-07-04T07:27:23Z</time>
      </trkpt>
      <trkpt lat="59.9541784" lon="17.7092738">
        <ele>57.3358</ele>
        <time>2014-07-04T07:27:24Z</time>
      </trkpt>
      <trkpt lat="59.9542052" lon="17.7093078">
        <ele>57.8165</ele>
        <time>2014-07-04T07:27:25Z</time>
      </trkpt>
      <trkpt lat="59.9542336" lon="17.7093417">
        <ele>58.2971</ele>
        <time>2014-07-04T07:27:26Z</time>
      </trkpt>
      <trkpt lat="59.9542561" lon="17.7093772">
        <ele>58.2971</ele>
        <time>2014-07-04T07:27:27Z</time>
      </trkpt>
      <trkpt lat="59.9542822" lon="17.7094071">
        <ele>58.7777</ele>
        <time>2014-07-04T07:27:28Z</time>
      </trkpt>
      <trkpt lat="59.9542989" lon="17.7094354">
        <ele>58.2971</ele>
        <time>2014-07-04T07:27:29Z</time>
      </trkpt>
      <trkpt lat="59.9543071" lon="17.709466">
        <ele>57.8165</ele>
        <time>2014-07-04T07:27:30Z</time>
      </trkpt>
      <trkpt lat="59.954298" lon="17.709504">
        <ele>56.8551</ele>
        <time>2014-07-04T07:27:31Z</time>
      </trkpt>
      <trkpt lat="59.9542879" lon="17.7095391">
        <ele>55.8938</ele>
        <time>2014-07-04T07:27:32Z</time>
      </trkpt>
      <trkpt lat="59.9542854" lon="17.7095727">
        <ele>55.4131</ele>
        <time>2014-07-04T07:27:33Z</time>
      </trkpt>
      <trkpt lat="59.9542875" lon="17.7096067">
        <ele>55.4131</ele>
        <time>2014-07-04T07:27:34Z</time>
      </trkpt>
      <trkpt lat="59.9543095" lon="17.7096374">
        <ele>55.4131</ele>
        <time>2014-07-04T07:27:35Z</time>
      </trkpt>
      <trkpt lat="59.9543255" lon="17.7096749">
        <ele>54.9324</ele>
        <time>2014-07-04T07:27:36Z</time>
      </trkpt>
      <trkpt lat="59.954356" lon="17.7097143">
        <ele>54.4518</ele>
        <time>2014-07-04T07:27:37Z</time>
      </trkpt>
      <trkpt lat="59.9543755" lon="17.7097522">
        <ele>53.9712</ele>
        <time>2014-07-04T07:27:38Z</time>
      </trkpt>
      <trkpt lat="59.9543954" lon="17.70979">
        <ele>53.4905</ele>
        <time>2014-07-04T07:27:39Z</time>
      </trkpt>
      <trkpt lat="59.9544179" lon="17.7098247">
        <ele>53.9712</ele>
        <time>2014-07-04T07:27:40Z</time>
      </trkpt>
      <trkpt lat="59.9544412" lon="17.7098603">
        <ele>54.4518</ele>
        <time>2014-07-04T07:27:41Z</time>
      </trkpt>
      <trkpt lat="59.9544544" lon="17.7098978">
        <ele>53.9712</ele>
        <time>2014-07-04T07:27:42Z</time>
      </trkpt>
      <trkpt lat="59.9544714" lon="17.7099327">
        <ele>53.4905</ele>
        <time>2014-07-04T07:27:43Z</time>
      </trkpt>
      <trkpt lat="59.9544943" lon="17.7099696">
        <ele>53.9712</ele>
        <time>2014-07-04T07:27:44Z</time>
      </trkpt>
      <trkpt lat="59.9545205" lon="17.7100022">
        <ele>53.9712</ele>
        <time>2014-07-04T07:27:45Z</time>
      </trkpt>
      <trkpt lat="59.9545435" lon="17.71004">
        <ele>53.4905</ele>
        <time>2014-07-04T07:27:46Z</time>
      </trkpt>
      <trkpt lat="59.9545654" lon="17.7100846">
        <ele>52.5292</ele>
        <time>2014-07-04T07:27:47Z</time>
      </trkpt>
      <trkpt lat="59.95459" lon="17.7101296">
        <ele>51.0872</ele>
        <time>2014-07-04T07:27:48Z</time>
      </trkpt>
      <trkpt lat="59.9546086" lon="17.7101739">
        <ele>50.6066</ele>
        <time>2014-07-04T07:27:49Z</time>
      </trkpt>
      <trkpt lat="59.9546305" lon="17.7102145">
        <ele>50.126</ele>
        <time>2014-07-04T07:27:50Z</time>
      </trkpt>
      <trkpt lat="59.9546562" lon="17.7102572">
        <ele>50.126</ele>
        <time>2014-07-04T07:27:51Z</time>
      </trkpt>
      <trkpt lat="59.9546783" lon="17.710296">
        <ele>49.6453</ele>
        <time>2014-07-04T07:27:52Z</time>
      </trkpt>
      <trkpt lat="59.9547018" lon="17.7103322">
        <ele>50.126</ele>
        <time>2014-07-04T07:27:53Z</time>
      </trkpt>
      <trkpt lat="59.9547233" lon="17.7103738">
        <ele>50.6066</ele>
        <time>2014-07-04T07:27:54Z</time>
      </trkpt>
      <trkpt lat="59.9547388" lon="17.7104114">
        <ele>50.6066</ele>
        <time>2014-07-04T07:27:55Z</time>
      </trkpt>
      <trkpt lat="59.9547517" lon="17.7104367">
        <ele>50.6066</ele>
        <time>2014-07-04T07:27:56Z</time>
      </trkpt>
      <trkpt lat="59.9547646" lon="17.7104702">
        <ele>50.126</ele>
        <time>2014-07-04T07:27:57Z</time>
      </trkpt>
      <trkpt lat="59.954778" lon="17.7104978">
        <ele>50.6066</ele>
        <time>2014-07-04T07:27:58Z</time>
      </trkpt>
      <trkpt lat="59.9547941" lon="17.7105292">
        <ele>50.6066</ele>
        <time>2014-07-04T07:27:59Z</time>
      </trkpt>
      <trkpt lat="59.9548121" lon="17.7105699">
        <ele>50.126</ele>
        <time>2014-07-04T07:28:00Z</time>
      </trkpt>
      <trkpt lat="59.9548313" lon="17.710613">
        <ele>50.126</ele>
        <time>2014-07-04T07:28:01Z</time>
      </trkpt>
      <trkpt lat="59.9548518" lon="17.710654">
        <ele>49.6453</ele>
        <time>2014-07-04T07:28:02Z</time>
      </trkpt>
      <trkpt lat="59.954873" lon="17.7106958">
        <ele>49.6453</ele>
        <time>2014-07-04T07:28:03Z</time>
      </trkpt>
      <trkpt lat="59.9548957" lon="17.7107367">
        <ele>49.6453</ele>
        <time>2014-07-04T07:28:04Z</time>
      </trkpt>
      <trkpt lat="59.9549273" lon="17.7107766">
        <ele>50.126</ele>
        <time>2014-07-04T07:28:05Z</time>
      </trkpt>
      <trkpt lat="59.9549495" lon="17.7108209">
        <ele>50.126</ele>
        <time>2014-07-04T07:28:06Z</time>
      </trkpt>
      <trkpt lat="59.9549632" lon="17.7108667">
        <ele>50.6066</ele>
        <time>2014-07-04T07:28:07Z</time>
      </trkpt>
      <trkpt lat="59.9549749" lon="17.7109135">
        <ele>50.6066</ele>
        <time>2014-07-04T07:28:08Z</time>
      </trkpt>
      <trkpt lat="59.9549855" lon="17.7109581">
        <ele>51.0872</ele>
        <time>2014-07-04T07:28:09Z</time>
      </trkpt>
      <trkpt lat="59.9549968" lon="17.7109882">
        <ele>50.6066</ele>
        <time>2014-07-04T07:28:10Z</time>
      </trkpt>
      <trkpt lat="59.9550103" lon="17.7110211">
        <ele>50.126</ele>
        <time>2014-07-04T07:28:11Z</time>
      </trkpt>
      <trkpt lat="59.9550247" lon="17.7110798">
        <ele>50.126</ele>
        <time>2014-07-04T07:28:12Z</time>
      </trkpt>
      <trkpt lat="59.9550284" lon="17.7111336">
        <ele>49.6453</ele>
        <time>2014-07-04T07:28:13Z</time>
      </trkpt>
      <trkpt lat="59.9550434" lon="17.7111793">
        <ele>49.6453</ele>
        <time>2014-07-04T07:28:14Z</time>
      </trkpt>
      <trkpt lat="59.9550641" lon="17.7112277">
        <ele>49.6453</ele>
        <time>2014-07-04T07:28:15Z</time>
      </trkpt>
      <trkpt lat="59.9550797" lon="17.7112729">
        <ele>49.6453</ele>
        <time>2014-07-04T07:28:16Z</time>
      </trkpt>
      <trkpt lat="59.9550916" lon="17.7113139">
        <ele>49.6453</ele>
        <time>2014-07-04T07:28:17Z</time>
      </trkpt>
      <trkpt lat="59.9551022" lon="17.7113565">
        <ele>50.126</ele>
        <time>2014-07-04T07:28:18Z</time>
      </trkpt>
      <trkpt lat="59.9551169" lon="17.7113914">
        <ele>50.126</ele>
        <time>2014-07-04T07:28:19Z</time>
      </trkpt>
      <trkpt lat="59.9551345" lon="17.7114298">
        <ele>50.126</ele>
        <time>2014-07-04T07:28:20Z</time>
      </trkpt>
      <trkpt lat="59.9551512" lon="17.7114715">
        <ele>50.126</ele>
        <time>2014-07-04T07:28:21Z</time>
      </trkpt>
      <trkpt lat="59.9551738" lon="17.7115077">
        <ele>50.6066</ele>
        <time>2014-07-04T07:28:22Z</time>
      </trkpt>
      <trkpt lat="59.9551906" lon="17.7115481">
        <ele>50.126</ele>
        <time>2014-07-04T07:28:23Z</time>
      </trkpt>
      <trkpt lat="59.9552106" lon="17.7115922">
        <ele>50.6066</ele>
        <time>2014-07-04T07:28:24Z</time>
      </trkpt>
      <trkpt lat="59.9552241" lon="17.711647">
        <ele>50.6066</ele>
        <time>2014-07-04T07:28:25Z</time>
      </trkpt>
      <trkpt lat="59.955231" lon="17.7117072">
        <ele>51.0872</ele>
        <time>2014-07-04T07:28:26Z</time>
      </trkpt>
      <trkpt lat="59.955234" lon="17.7117678">
        <ele>50.6066</ele>
        <time>2014-07-04T07:28:27Z</time>
      </trkpt>
      <trkpt lat="59.9552335" lon="17.711817">
        <ele>50.126</ele>
        <time>2014-07-04T07:28:28Z</time>
      </trkpt>
      <trkpt lat="59.9552279" lon="17.7118677">
        <ele>49.6453</ele>
        <time>2014-07-04T07:28:29Z</time>
      </trkpt>
      <trkpt lat="59.955222" lon="17.7119095">
        <ele>49.1646</ele>
        <time>2014-07-04T07:28:30Z</time>
      </trkpt>
      <trkpt lat="59.9552183" lon="17.7119599">
        <ele>48.684</ele>
        <time>2014-07-04T07:28:31Z</time>
      </trkpt>
      <trkpt lat="59.9552141" lon="17.7120139">
        <ele>48.684</ele>
        <time>2014-07-04T07:28:32Z</time>
      </trkpt>
      <trkpt lat="59.9552123" lon="17.7120628">
        <ele>48.684</ele>
        <time>2014-07-04T07:28:33Z</time>
      </trkpt>
      <trkpt lat="59.9552147" lon="17.7121163">
        <ele>48.684</ele>
        <time>2014-07-04T07:28:34Z</time>
      </trkpt>
      <trkpt lat="59.9552195" lon="17.7121727">
        <ele>49.1646</ele>
        <time>2014-07-04T07:28:35Z</time>
      </trkpt>
      <trkpt lat="59.95522" lon="17.7122354">
        <ele>49.6453</ele>
        <time>2014-07-04T07:28:36Z</time>
      </trkpt>
      <trkpt lat="59.9552234" lon="17.7122894">
        <ele>49.6453</ele>
        <time>2014-07-04T07:28:37Z</time>
      </trkpt>
      <trkpt lat="59.9552307" lon="17.7123427">
        <ele>49.6453</ele>
        <time>2014-07-04T07:28:38Z</time>
      </trkpt>
      <trkpt lat="59.9552439" lon="17.7123933">
        <ele>49.6453</ele>
        <time>2014-07-04T07:28:39Z</time>
      </trkpt>
      <trkpt lat="59.9552603" lon="17.7124448">
        <ele>50.126</ele>
        <time>2014-07-04T07:28:40Z</time>
      </trkpt>
      <trkpt lat="59.9552664" lon="17.7125018">
        <ele>50.126</ele>
        <time>2014-07-04T07:28:41Z</time>
      </trkpt>
      <trkpt lat="59.9552739" lon="17.7125556">
        <ele>49.6453</ele>
        <time>2014-07-04T07:28:42Z</time>
      </trkpt>
      <trkpt lat="59.955282" lon="17.7126137">
        <ele>49.6453</ele>
        <time>2014-07-04T07:28:43Z</time>
      </trkpt>
      <trkpt lat="59.9552887" lon="17.71267">
        <ele>49.1646</ele>
        <time>2014-07-04T07:28:44Z</time>
      </trkpt>
      <trkpt lat="59.955302" lon="17.7127227">
        <ele>49.1646</ele>
        <time>2014-07-04T07:28:45Z</time>
      </trkpt>
      <trkpt lat="59.9553204" lon="17.7127767">
        <ele>49.1646</ele>
        <time>2014-07-04T07:28:46Z</time>
      </trkpt>
      <trkpt lat="59.9553366" lon="17.7128274">
        <ele>49.1646</ele>
        <time>2014-07-04T07:28:47Z</time>
      </trkpt>
      <trkpt lat="59.9553512" lon="17.7128784">
        <ele>49.1646</ele>
        <time>2014-07-04T07:28:48Z</time>
      </trkpt>
      <trkpt lat="59.955364" lon="17.7129312">
        <ele>49.1646</ele>
        <time>2014-07-04T07:28:49Z</time>
      </trkpt>
      <trkpt lat="59.9553802" lon="17.7129855">
        <ele>49.1646</ele>
        <time>2014-07-04T07:28:50Z</time>
      </trkpt>
      <trkpt lat="59.9553942" lon="17.7130429">
        <ele>49.6453</ele>
        <time>2014-07-04T07:28:51Z</time>
      </trkpt>
      <trkpt lat="59.955411" lon="17.7130983">
        <ele>49.6453</ele>
        <time>2014-07-04T07:28:52Z</time>
      </trkpt>
      <trkpt lat="59.9554251" lon="17.713158">
        <ele>49.6453</ele>
        <time>2014-07-04T07:28:53Z</time>
      </trkpt>
      <trkpt lat="59.955437" lon="17.7132133">
        <ele>50.126</ele>
        <time>2014-07-04T07:28:54Z</time>
      </trkpt>
      <trkpt lat="59.9554469" lon="17.713269">
        <ele>49.6453</ele>
        <time>2014-07-04T07:28:55Z</time>
      </trkpt>
      <trkpt lat="59.9554529" lon="17.7133254">
        <ele>49.1646</ele>
        <time>2014-07-04T07:28:56Z</time>
      </trkpt>
      <trkpt lat="59.9554624" lon="17.7133782">
        <ele>49.1646</ele>
        <time>2014-07-04T07:28:57Z</time>
      </trkpt>
      <trkpt lat="59.9554683" lon="17.7134305">
        <ele>48.684</ele>
        <time>2014-07-04T07:28:58Z</time>
      </trkpt>
      <trkpt lat="59.9554723" lon="17.7134826">
        <ele>48.2034</ele>
        <time>2014-07-04T07:28:59Z</time>
      </trkpt>
      <trkpt lat="59.9554739" lon="17.7135344">
        <ele>47.7225</ele>
        <time>2014-07-04T07:29:00Z</time>
      </trkpt>
      <trkpt lat="59.9554641" lon="17.713575">
        <ele>47.2418</ele>
        <time>2014-07-04T07:29:01Z</time>
      </trkpt>
      <trkpt lat="59.9554479" lon="17.7136154">
        <ele>46.7612</ele>
        <time>2014-07-04T07:29:02Z</time>
      </trkpt>
      <trkpt lat="59.9554332" lon="17.7136413">
        <ele>46.2806</ele>
        <time>2014-07-04T07:29:03Z</time>
      </trkpt>
      <trkpt lat="59.9554148" lon="17.7136884">
        <ele>45.7999</ele>
        <time>2014-07-04T07:29:04Z</time>
      </trkpt>
      <trkpt lat="59.9553996" lon="17.7137409">
        <ele>45.3192</ele>
        <time>2014-07-04T07:29:05Z</time>
      </trkpt>
      <trkpt lat="59.9553887" lon="17.7137941">
        <ele>44.8386</ele>
        <time>2014-07-04T07:29:06Z</time>
      </trkpt>
      <trkpt lat="59.9553791" lon="17.7138475">
        <ele>44.8386</ele>
        <time>2014-07-04T07:29:07Z</time>
      </trkpt>
      <trkpt lat="59.9553748" lon="17.7138982">
        <ele>44.358</ele>
        <time>2014-07-04T07:29:08Z</time>
      </trkpt>
      <trkpt lat="59.9553737" lon="17.7139516">
        <ele>44.358</ele>
        <time>2014-07-04T07:29:09Z</time>
      </trkpt>
      <trkpt lat="59.9553702" lon="17.714025">
        <ele>44.8386</ele>
        <time>2014-07-04T07:29:10Z</time>
      </trkpt>
      <trkpt lat="59.955363" lon="17.7140976">
        <ele>44.8386</ele>
        <time>2014-07-04T07:29:11Z</time>
      </trkpt>
      <trkpt lat="59.955356" lon="17.7141552">
        <ele>44.358</ele>
        <time>2014-07-04T07:29:12Z</time>
      </trkpt>
    </trkseg>
  </trk>
</gpx>